Provisional Data: West Branch Owego Creek near Speedsville, NY


Please select a monitoring station.
Please select start date.
Please select start date.

Toggle Unit: C/F Toggle Unit: C/F
Sample Time Temperature (C) Temperature (F) Specific Conductivity (mS/cm) pH   Turbidity (NTU+) DO (mg/L)
5/4/2021 12:00:00 AM 10.8 51.44 0.115 7.28 9.43 10.04
5/4/2021 12:15:00 AM 10.77 51.386 0.115 7.27 10.13 10.07
5/4/2021 12:30:00 AM 10.74 51.332 0.115 7.27 9.6 10.05
5/4/2021 12:45:00 AM 10.71 51.278 0.115 7.26 10.34 10.07
5/4/2021 1:00:00 AM 10.67 51.206 0.115 7.26 11.25 10.09
5/4/2021 1:15:00 AM 10.64 51.152 0.115 7.26 10.89 10.09
5/4/2021 1:30:00 AM 10.61 51.098 0.114 7.26 12.14 10.11
5/4/2021 1:45:00 AM 10.57 51.026 0.114 7.25 11.33 10.12
5/4/2021 2:00:00 AM 10.54 50.972 0.114 7.24 12.6 10.14
5/4/2021 2:15:00 AM 10.51 50.918 0.114 7.23 12.23 10.15
5/4/2021 2:30:00 AM 10.48 50.864 0.114 7.22 11.69 10.15
5/4/2021 2:45:00 AM 10.44 50.792 0.114 7.22 11.7 10.16
5/4/2021 3:00:00 AM 10.41 50.738 0.114 7.2 11.7 10.17
5/4/2021 3:15:00 AM 10.38 50.684 0.114 7.19 10.94 10.17
5/4/2021 3:30:00 AM 10.35 50.63 0.114 7.2 10.49 10.18
5/4/2021 3:45:00 AM 10.33 50.594 0.114 7.19 10.87 10.19
5/4/2021 4:00:00 AM 10.3 50.54 0.114 7.19 11.56 10.19
5/4/2021 4:15:00 AM 10.27 50.486 0.114 7.19 10.89 10.2
5/4/2021 4:30:00 AM 10.25 50.45 0.114 7.18 10.99 10.2
5/4/2021 4:45:00 AM 10.22 50.396 0.114 7.18 10.87 10.21
5/4/2021 5:00:00 AM 10.2 50.36 0.114 7.18 11.2 10.21
5/4/2021 5:15:00 AM 10.17 50.306 0.114 7.18 10.96 10.22
5/4/2021 5:30:00 AM 10.15 50.27 0.114 7.18 11.18 10.23
5/4/2021 5:45:00 AM 10.13 50.234 0.114 7.18 9.56 10.23
5/4/2021 6:00:00 AM 10.11 50.198 0.114 7.19 10.09 10.24
5/4/2021 6:15:00 AM 10.09 50.162 0.113 7.19 9.82 10.24
5/4/2021 6:30:00 AM 10.08 50.144 0.113 7.19 9.75 10.25
5/4/2021 6:45:00 AM 10.06 50.108 0.113 7.19 9.52 10.26
5/4/2021 7:00:00 AM 10.04 50.072 0.113 7.18 9.75 10.26
5/4/2021 7:15:00 AM 10.03 50.054 0.113 7.19 9.62 10.28
5/4/2021 7:30:00 AM 10.02 50.036 0.113 7.19 9.77 10.3
5/4/2021 7:45:00 AM 10.01 50.018 0.112 7.2 9.91 10.32
5/4/2021 8:00:00 AM 10.01 50.018 0.112 7.2 10.28 10.31
5/4/2021 8:15:00 AM 10 50 0.112 7.21 10.19 10.33
5/4/2021 8:30:00 AM 9.99 49.982 0.112 7.21 10.17 10.32
5/4/2021 8:45:00 AM 9.99 49.982 0.112 7.22 10.52 10.36
5/4/2021 9:00:00 AM 10 50 0.112 7.23 10.08 10.42
5/4/2021 9:15:00 AM 10.01 50.018 0.112 7.24 9.9 10.35
5/4/2021 9:30:00 AM 10.03 50.054 0.112 7.26 10.54 10.49
5/4/2021 9:45:00 AM 10.05 50.09 0.112 7.27 10.09 10.48
5/4/2021 10:00:00 AM 10.08 50.144 0.112 7.29 10.2 10.5
5/4/2021 10:15:00 AM 10.12 50.216 0.112 7.31 10.09 10.6
5/4/2021 10:30:00 AM 10.16 50.288 0.112 7.32 10.08 10.57
5/4/2021 10:45:00 AM 10.23 50.414 0.112 7.35 10.03 10.67
5/4/2021 11:00:00 AM 10.34 50.612 0.112 7.38 9.74 10.69
5/4/2021 11:15:00 AM 10.48 50.864 0.112 7.4 9.7 10.77
5/4/2021 11:30:00 AM 10.69 51.242 0.112 7.44 9.78 10.82
5/4/2021 11:45:00 AM 10.91 51.638 0.112 7.47 9.84 10.83
5/4/2021 12:00:00 PM 11.19 52.142 0.112 7.5 10.05 10.83
5/4/2021 12:15:00 PM 11.3 52.34 0.112 7.52 9.76 10.81
5/4/2021 12:30:00 PM 11.45 52.61 0.112 7.53 9.64 10.81
5/4/2021 12:45:00 PM 11.49 52.682 0.112 7.53 9.15 10.79
5/4/2021 1:00:00 PM 11.52 52.736 0.113 7.53 8.84 10.76
5/4/2021 1:15:00 PM 11.64 52.952 0.113 7.54 9.3 10.77
5/4/2021 1:30:00 PM 11.74 53.132 0.113 7.56 8.44 10.77
5/4/2021 1:45:00 PM 11.86 53.348 0.113 7.57 8.7 10.74
5/4/2021 2:00:00 PM 12.02 53.636 0.113 7.59 8.43 10.73
5/4/2021 2:15:00 PM 12.11 53.798 0.113 7.6 8.44 10.66
5/4/2021 2:30:00 PM 12.21 53.978 0.113 7.6 8.35 10.67
5/4/2021 2:45:00 PM 12.26 54.068 0.113 7.61 8.61 10.65
5/4/2021 3:00:00 PM 12.3 54.14 0.113 7.61 8.52 10.62
5/4/2021 3:15:00 PM 12.34 54.212 0.113 7.6 8.32 10.57
5/4/2021 3:30:00 PM 12.36 54.248 0.113 7.59 8.28 10.54
5/4/2021 3:45:00 PM 12.42 54.356 0.114 7.59 8.36 10.5
5/4/2021 4:00:00 PM 12.44 54.392 0.114 7.58 8.04 10.47
5/4/2021 4:15:00 PM 12.47 54.446 0.114 7.58 8.13 10.43
5/4/2021 4:30:00 PM 12.54 54.572 0.114 7.58 8.16 10.4
5/4/2021 4:45:00 PM 12.6 54.68 0.114 7.58 8.02 10.4
5/4/2021 5:00:00 PM 12.65 54.77 0.114 7.58 8.41 10.4
5/4/2021 5:15:00 PM 12.71 54.878 0.114 7.58 8.01 10.37
5/4/2021 5:30:00 PM 12.77 54.986 0.114 7.57 8.14 10.29
5/4/2021 5:45:00 PM 12.8 55.04 0.114 7.56 8.19 10.27
5/4/2021 6:00:00 PM 12.82 55.076 0.114 7.54 8.15 10.19
5/4/2021 6:15:00 PM 12.84 55.112 0.115 7.52 8.36 10.13
5/4/2021 6:30:00 PM 12.85 55.13 0.115 7.5 9.18 10.08
5/4/2021 6:45:00 PM 12.87 55.166 0.115 7.49 8.3 10.04
5/4/2021 7:00:00 PM 12.87 55.166 0.115 7.46 8.23 9.99
5/4/2021 7:15:00 PM 12.88 55.184 0.115 7.45 8.56 9.96
5/4/2021 7:30:00 PM 12.89 55.202 0.115 7.43 8.43 9.88
5/4/2021 7:45:00 PM 12.88 55.184 0.116 7.41 9.07 9.85
5/4/2021 8:00:00 PM 12.87 55.166 0.116 7.4 8.61 9.81
5/4/2021 8:15:00 PM 12.85 55.13 0.116 7.38 8.56 9.76
5/4/2021 8:30:00 PM 12.83 55.094 0.116 7.36 8.42 9.72
5/4/2021 8:45:00 PM 12.82 55.076 0.118 7.34 8.8 9.7
5/4/2021 9:00:00 PM 12.81 55.058 0.119 7.33 8.67 9.66
5/4/2021 9:15:00 PM 12.8 55.04 0.12 7.32 8.96 9.63
5/4/2021 9:30:00 PM 12.79 55.022 0.12 7.31 8.53 9.63
5/4/2021 9:45:00 PM 12.78 55.004 0.12 7.3 8.56 9.61
5/4/2021 10:00:00 PM 12.76 54.968 0.12 7.29 8.81 9.61
5/4/2021 10:15:00 PM 12.75 54.95 0.12 7.29 8.57 9.61
5/4/2021 10:30:00 PM 12.74 54.932 0.12 7.29 8.63 9.6
5/4/2021 10:45:00 PM 12.72 54.896 0.12 7.29 8.52 9.61
5/4/2021 11:00:00 PM 12.71 54.878 0.12 7.29 8.66 9.6
5/4/2021 11:15:00 PM 12.7 54.86 0.12 7.3 9.02 9.61
5/4/2021 11:30:00 PM 12.69 54.842 0.12 7.3 8.42 9.6
5/4/2021 11:45:00 PM 12.68 54.824 0.12 7.31 8.76 9.6
5/5/2021 12:00:00 AM 12.66 54.788 0.12 7.31 8.98 9.61
5/5/2021 12:15:00 AM 12.63 54.734 0.12 7.31 9.03 9.6
5/5/2021 12:30:00 AM 12.61 54.698 0.12 7.3 9.14 9.61
5/5/2021 12:45:00 AM 12.58 54.644 0.12 7.3 8.73 9.61
5/5/2021 1:00:00 AM 12.54 54.572 0.12 7.29 8.88 9.62
5/5/2021 1:15:00 AM 12.5 54.5 0.12 7.29 8.81 9.63
5/5/2021 1:30:00 AM 12.47 54.446 0.12 7.28 9.35 9.63
5/5/2021 1:45:00 AM 12.42 54.356 0.12 7.27 8.84 9.64
5/5/2021 2:00:00 AM 12.38 54.284 0.12 7.26 8.63 9.65
5/5/2021 2:15:00 AM 12.34 54.212 0.12 7.26 8.7 9.66
5/5/2021 2:30:00 AM 12.3 54.14 0.12 7.26 8.47 9.66
5/5/2021 2:45:00 AM 12.26 54.068 0.121 7.25 8.43 9.68
5/5/2021 3:00:00 AM 12.22 53.996 0.121 7.25 8.55 9.68
5/5/2021 3:15:00 AM 12.19 53.942 0.121 7.25 8.77 9.69
5/5/2021 3:30:00 AM 12.15 53.87 0.121 7.25 8.43 9.71
5/5/2021 3:45:00 AM 12.12 53.816 0.121 7.25 8.66 9.72
5/5/2021 4:00:00 AM 12.08 53.744 0.121 7.24 9.57 9.72
5/5/2021 4:15:00 AM 12.04 53.672 0.121 7.24 8.63 9.69
5/5/2021 4:30:00 AM 12 53.6 0.121 7.23 8.92 9.71
5/5/2021 4:45:00 AM 11.96 53.528 0.121 7.21 9.01 9.7
5/5/2021 5:00:00 AM 11.92 53.456 0.121 7.21 8.85 9.68
5/5/2021 5:15:00 AM 11.87 53.366 0.121 7.21 9.03 9.75
5/5/2021 5:30:00 AM 11.83 53.294 0.121 7.21 9.59 9.77
5/5/2021 5:45:00 AM 11.79 53.222 0.121 7.21 9.37 9.78
5/5/2021 6:00:00 AM 11.76 53.168 0.121 7.21 9.5 9.79
5/5/2021 6:15:00 AM 11.73 53.114 0.12 7.21 9.85 9.82
5/5/2021 6:30:00 AM 11.7 53.06 0.12 7.21 9.84 9.83
5/5/2021 6:45:00 AM 11.67 53.006 0.12 7.21 9.55 9.85
5/5/2021 7:00:00 AM 11.66 52.988 0.12 7.23 9.5 9.88
5/5/2021 7:15:00 AM 11.64 52.952 0.12 7.23 9.59 9.88
5/5/2021 7:30:00 AM 11.62 52.916 0.12 7.24 8.99 9.9
5/5/2021 7:45:00 AM 11.6 52.88 0.12 7.25 9.34 9.95
5/5/2021 8:00:00 AM 11.59 52.862 0.12 7.26 9.15 9.97
5/5/2021 8:15:00 AM 11.58 52.844 0.119 7.28 9.36 9.98
5/5/2021 8:30:00 AM 11.58 52.844 0.119 7.3 8.56 10.04
5/5/2021 8:45:00 AM 11.58 52.844 0.119 7.32 7.63 10.11
5/5/2021 9:00:00 AM 11.57 52.826 0.119 7.33 8.02 10.13
5/5/2021 9:15:00 AM 11.56 52.808 0.118 7.33 7.89 10.15
5/5/2021 9:30:00 AM 11.55 52.79 0.118 7.34 10.14 10.19
5/5/2021 9:45:00 AM 11.54 52.772 0.118 7.34 9.7 10.22
5/5/2021 10:00:00 AM 11.52 52.736 0.117 7.34 9.87 10.23
5/5/2021 10:15:00 AM 11.5 52.7 0.117 7.36 9.62 10.27
5/5/2021 10:30:00 AM 11.48 52.664 0.117 7.36 9.68 10.29
5/5/2021 10:45:00 AM 11.47 52.646 0.117 7.37 9.6 10.33
5/5/2021 11:00:00 AM 11.45 52.61 0.117 7.38 9.58 10.35
5/5/2021 11:15:00 AM 11.44 52.592 0.117 7.39 9.8 10.39
5/5/2021 11:30:00 AM 11.43 52.574 0.116 7.39 9.47 10.42
5/5/2021 11:45:00 AM 11.42 52.556 0.116 7.4 9.51 10.43
5/5/2021 12:00:00 PM 11.39 52.502 0.116 7.41 9.33 10.45
5/5/2021 12:15:00 PM 11.38 52.484 0.116 7.42 9.44 10.47
5/5/2021 12:30:00 PM 11.37 52.466 0.116 7.43 9.43 10.52
5/5/2021 12:45:00 PM 11.36 52.448 0.116 7.44 9.23 10.56
5/5/2021 1:00:00 PM 11.34 52.412 0.117 7.45 8.98 10.58
5/5/2021 1:15:00 PM 11.33 52.394 0.117 7.46 8.94 10.58
5/5/2021 1:30:00 PM 11.33 52.394 0.117 7.47 9.05 10.59
5/5/2021 1:45:00 PM 11.33 52.394 0.117 7.49 9.27 10.65
5/5/2021 2:00:00 PM 11.34 52.412 0.117 7.5 9.06 10.66
5/5/2021 2:15:00 PM 11.33 52.394 0.117 7.5 8.77 10.65
5/5/2021 2:30:00 PM 11.31 52.358 0.117 7.51 8.88 10.64
5/5/2021 2:45:00 PM 11.29 52.322 0.117 7.5 8.68 10.62
5/5/2021 3:00:00 PM 11.29 52.322 0.117 7.51 8.93 10.65
5/5/2021 3:15:00 PM 11.25 52.25 0.117 7.51 8.78 10.62
5/5/2021 3:30:00 PM 11.22 52.196 0.117 7.5 8.74 10.64
5/5/2021 3:45:00 PM 11.19 52.142 0.117 7.51 8.72 10.64
5/5/2021 4:00:00 PM 11.16 52.088 0.117 7.5 8.73 10.63
5/5/2021 4:15:00 PM 11.13 52.034 0.117 7.5 9.07 10.63
5/5/2021 4:30:00 PM 11.09 51.962 0.117 7.49 8.63 10.62
5/5/2021 4:45:00 PM 11.05 51.89 0.117 7.49 8.77 10.63
5/5/2021 5:00:00 PM 11.01 51.818 0.117 7.48 8.63 10.61
5/5/2021 5:15:00 PM 10.98 51.764 0.117 7.47 8.62 10.59
5/5/2021 5:30:00 PM 10.94 51.692 0.117 7.46 8.55 10.57
5/5/2021 5:45:00 PM 10.9 51.62 0.117 7.45 8.47 10.55
5/5/2021 6:00:00 PM 10.86 51.548 0.117 7.44 8.6 10.52
5/5/2021 6:15:00 PM 10.82 51.476 0.117 7.43 8.67 10.51
5/5/2021 6:30:00 PM 10.8 51.44 0.117 7.43 8.56 10.53
5/5/2021 6:45:00 PM 10.78 51.404 0.117 7.44 8.65 10.57
5/5/2021 7:00:00 PM 10.76 51.368 0.117 7.44 8.5 10.58
5/5/2021 7:15:00 PM 10.73 51.314 0.117 7.44 8.5 10.58
5/5/2021 7:30:00 PM 10.69 51.242 0.117 7.43 8.43 10.53
5/5/2021 7:45:00 PM 10.64 51.152 0.118 7.42 8.48 10.49
5/5/2021 8:00:00 PM 10.59 51.062 0.118 7.4 8.46 10.47
5/5/2021 8:15:00 PM 10.54 50.972 0.118 7.38 8.71 10.43
5/5/2021 8:30:00 PM 10.48 50.864 0.118 7.37 8.72 10.4
5/5/2021 8:45:00 PM 10.42 50.756 0.118 7.36 8.43 10.37
5/5/2021 9:00:00 PM 10.37 50.666 0.118 7.34 8.77 10.36
5/5/2021 9:15:00 PM 10.32 50.576 0.118 7.33 9.02 10.35
5/5/2021 9:30:00 PM 10.27 50.486 0.119 7.32 9.46 10.31
5/5/2021 9:45:00 PM 10.23 50.414 0.119 7.32 10.51 10.35
5/5/2021 10:00:00 PM 10.19 50.342 0.119 7.31 10.61 10.34
5/5/2021 10:15:00 PM 10.14 50.252 0.119 7.31 11.1 10.35
5/5/2021 10:30:00 PM 10.1 50.18 0.119 7.31 11.27 10.35
5/5/2021 10:45:00 PM 10.05 50.09 0.119 7.31 10.58 10.36
5/5/2021 11:00:00 PM 10.01 50.018 0.119 7.3 10.83 10.36
5/5/2021 11:15:00 PM 9.95 49.91 0.119 7.3 10.67 10.38
5/5/2021 11:30:00 PM 9.91 49.838 0.12 7.3 10.33 10.38
5/5/2021 11:45:00 PM 9.85 49.73 0.12 7.3 10.34 10.39
5/6/2021 12:00:00 AM 9.81 49.658 0.12 7.3 10.99 10.4
5/6/2021 12:15:00 AM 9.76 49.568 0.12 7.3 9.75 10.41
5/6/2021 12:30:00 AM 9.72 49.496 0.12 7.3 9.27 10.43
5/6/2021 12:45:00 AM 9.67 49.406 0.12 7.3 9.3 10.44
5/6/2021 1:00:00 AM 9.62 49.316 0.12 7.3 8.78 10.44
5/6/2021 1:15:00 AM 9.56 49.208 0.12 7.3 8.7 10.46
5/6/2021 1:30:00 AM 9.51 49.118 0.12 7.3 8.5 10.47
5/6/2021 1:45:00 AM 9.45 49.01 0.12 7.29 8.56 10.48
5/6/2021 2:00:00 AM 9.4 48.92 0.12 7.29 8.52 10.5
5/6/2021 2:15:00 AM 9.35 48.83 0.121 7.29 8.26 10.51
5/6/2021 2:30:00 AM 9.3 48.74 0.121 7.29 8.17 10.52
5/6/2021 2:45:00 AM 9.25 48.65 0.121 7.29 8.14 10.54
5/6/2021 3:00:00 AM 9.21 48.578 0.121 7.29 8.15 10.55
5/6/2021 3:15:00 AM 9.16 48.488 0.121 7.29 8.07 10.56
5/6/2021 3:30:00 AM 9.12 48.416 0.121 7.29 7.96 10.57
5/6/2021 3:45:00 AM 9.08 48.344 0.121 7.27 8.03 10.58
5/6/2021 4:00:00 AM 9.03 48.254 0.121 7.26 7.91 10.59
5/6/2021 4:15:00 AM 8.99 48.182 0.121 7.26 8.01 10.6
5/6/2021 4:30:00 AM 8.95 48.11 0.121 7.25 8.28 10.62
5/6/2021 4:45:00 AM 8.91 48.038 0.121 7.25 7.62 10.63
5/6/2021 5:00:00 AM 8.87 47.966 0.122 7.24 7.83 10.64
5/6/2021 5:15:00 AM 8.82 47.876 0.122 7.24 7.87 10.65
5/6/2021 5:30:00 AM 8.78 47.804 0.122 7.24 7.92 10.66
5/6/2021 5:45:00 AM 8.74 47.732 0.122 7.24 7.74 10.68
5/6/2021 6:00:00 AM 8.7 47.66 0.122 7.24 7.85 10.7
5/6/2021 6:15:00 AM 8.66 47.588 0.122 7.24 7.87 10.71
5/6/2021 6:30:00 AM 8.62 47.516 0.122 7.25 7.69 10.74
5/6/2021 6:45:00 AM 8.58 47.444 0.122 7.26 7.6 10.79
5/6/2021 7:00:00 AM 8.55 47.39 0.122 7.26 7.46 10.84
5/6/2021 7:15:00 AM 8.52 47.336 0.122 7.27 7.77 10.9
5/6/2021 7:30:00 AM 8.51 47.318 0.122 7.28 7.4 10.96
5/6/2021 7:45:00 AM 8.51 47.318 0.122 7.31 7.46 11.02
5/6/2021 8:00:00 AM 8.47 47.246 0.123 7.31 7.38 11.05
5/6/2021 8:15:00 AM 8.49 47.282 0.123 7.33 7.55 11.11
5/6/2021 8:30:00 AM 8.5 47.3 0.123 7.35 7.55 11.16
5/6/2021 8:45:00 AM 8.5 47.3 0.123 7.37 7.23 11.2
5/6/2021 9:00:00 AM 8.53 47.354 0.123 7.38 7.26 11.24
5/6/2021 9:15:00 AM 8.59 47.462 0.123 7.41 7.16 11.28
5/6/2021 9:30:00 AM 8.59 47.462 0.123 7.42 6.89 11.3
5/6/2021 9:45:00 AM 8.69 47.642 0.123 7.44 6.76 11.33
5/6/2021 10:00:00 AM 8.79 47.822 0.123 7.46 6.83 11.34
5/6/2021 10:15:00 AM 8.87 47.966 0.123 7.48 6.9 11.35
5/6/2021 10:30:00 AM 8.95 48.11 0.123 7.49 6.77 11.35
5/6/2021 10:45:00 AM 9.16 48.488 0.123 7.52 6.73 11.36
5/6/2021 11:00:00 AM 9.32 48.776 0.123 7.54 6.71 11.35
5/6/2021 11:15:00 AM 9.55 49.19 0.123 7.56 6.73 11.34
5/6/2021 11:30:00 AM 9.77 49.586 0.123 7.58 6.62 11.31
5/6/2021 11:45:00 AM 9.96 49.928 0.123 7.59 6.51 11.28
5/6/2021 12:00:00 PM 10.23 50.414 0.123 7.6 6.55 11.26
5/6/2021 12:15:00 PM 10.54 50.972 0.123 7.63 6.53 11.22
5/6/2021 12:30:00 PM 10.84 51.512 0.123 7.64 6.41 11.17
5/6/2021 12:45:00 PM 11.09 51.962 0.123 7.65 6.38 11.13
5/6/2021 1:00:00 PM 11.3 52.34 0.123 7.65 6.41 11.09
5/6/2021 1:15:00 PM 11.46 52.628 0.123 7.65 6.38 11.05
5/6/2021 1:30:00 PM 11.69 53.042 0.123 7.67 6.36 11.02
5/6/2021 1:45:00 PM 11.88 53.384 0.123 7.68 6.25 10.98
5/6/2021 2:00:00 PM 12.04 53.672 0.123 7.68 6.25 10.93
5/6/2021 2:15:00 PM 12.26 54.068 0.123 7.7 6.24 10.91
5/6/2021 2:30:00 PM 12.35 54.23 0.123 7.7 6.27 10.86
5/6/2021 2:45:00 PM 12.35 54.23 0.123 7.67 6.36 10.81
5/6/2021 3:00:00 PM 12.46 54.428 0.123 7.67 6.13 10.8
5/6/2021 3:15:00 PM 12.55 54.59 0.123 7.69 6.09 10.77
5/6/2021 3:30:00 PM 12.55 54.59 0.123 7.69 6.21 10.75
5/6/2021 3:45:00 PM 12.56 54.608 0.124 7.69 6.02 10.73
5/6/2021 4:00:00 PM 12.56 54.608 0.124 7.7 6.45 10.72
5/6/2021 4:15:00 PM 12.53 54.554 0.124 7.7 6.23 10.69
5/6/2021 4:30:00 PM 12.49 54.482 0.124 7.69 6.32 10.67
5/6/2021 4:45:00 PM 12.42 54.356 0.124 7.68 6.82 10.66
5/6/2021 5:00:00 PM 12.33 54.194 0.124 7.67 6.72 10.64
5/6/2021 5:15:00 PM 12.24 54.032 0.124 7.66 7.14 10.62
5/6/2021 5:30:00 PM 12.16 53.888 0.124 7.65 10.06 10.61
5/6/2021 5:45:00 PM 12.09 53.762 0.124 7.63 10.23 10.58
5/6/2021 6:00:00 PM 12.02 53.636 0.124 7.61 8.68 10.56
5/6/2021 6:15:00 PM 11.96 53.528 0.124 7.59 8.61 10.52
5/6/2021 6:30:00 PM 11.91 53.438 0.125 7.58 9.62 10.49
5/6/2021 6:45:00 PM 11.84 53.312 0.125 7.56 11.35 10.44
5/6/2021 7:00:00 PM 11.76 53.168 0.125 7.53 11.81 10.4
5/6/2021 7:15:00 PM 11.68 53.024 0.125 7.52 13.43 10.37
5/6/2021 7:30:00 PM 11.61 52.898 0.125 7.51 13.68 10.33
5/6/2021 7:45:00 PM 11.54 52.772 0.125 7.49 13.38 10.29
5/6/2021 8:00:00 PM 11.48 52.664 0.125 7.47 12.98 10.25
5/6/2021 8:15:00 PM 11.4 52.52 0.126 7.46 12.43 10.22
5/6/2021 8:30:00 PM 11.31 52.358 0.126 7.45 11.94 10.19
5/6/2021 8:45:00 PM 11.23 52.214 0.126 7.43 11.97 10.16
5/6/2021 9:00:00 PM 11.15 52.07 0.126 7.42 10.89 10.15
5/6/2021 9:15:00 PM 11.06 51.908 0.126 7.41 10.06 10.15
5/6/2021 9:30:00 PM 10.97 51.746 0.126 7.4 14.58 10.14
5/6/2021 9:45:00 PM 10.89 51.602 0.126 7.39 10.21 10.13
5/6/2021 10:00:00 PM 10.81 51.458 0.126 7.39 9.84 10.14
5/6/2021 10:15:00 PM 10.73 51.314 0.126 7.38 9.88 10.15
5/6/2021 10:30:00 PM 10.65 51.17 0.127 7.38 11.29 10.16
5/6/2021 10:45:00 PM 10.56 51.008 0.127 7.37 10.23 10.17
5/6/2021 11:00:00 PM 10.48 50.864 0.127 7.37 16.97 10.19
5/6/2021 11:15:00 PM 10.38 50.684 0.127 7.36 18.37 10.2
5/6/2021 11:30:00 PM 10.29 50.522 0.127 7.36 11.81 10.22
5/6/2021 11:45:00 PM 10.2 50.36 0.127 7.36 12.36 10.24
5/7/2021 12:00:00 AM 10.1 50.18 0.127 7.36 8.88 10.27
5/7/2021 12:15:00 AM 10 50 0.128 7.36 8.97 10.29
5/7/2021 12:30:00 AM 9.9 49.82 0.128 7.35 11.11 10.31
5/7/2021 12:45:00 AM 9.8 49.64 0.128 7.35 12.38 10.33
5/7/2021 1:00:00 AM 9.7 49.46 0.128 7.34 13.76 10.36
5/7/2021 1:15:00 AM 9.6 49.28 0.128 7.34 9.71 10.39
5/7/2021 1:30:00 AM 9.49 49.082 0.128 7.34 14.01 10.41
5/7/2021 1:45:00 AM 9.39 48.902 0.123 7.33 14.05 10.44
5/7/2021 2:00:00 AM 9.28 48.704 0.129 7.33 13.87 10.46
5/7/2021 2:15:00 AM 9.18 48.524 0.129 7.34 14.38 10.49
5/7/2021 2:30:00 AM 9.07 48.326 0.129 7.34 15.97 10.53
5/7/2021 2:45:00 AM 8.97 48.146 0.129 7.34 16.6 10.55
5/7/2021 3:00:00 AM 8.87 47.966 0.129 7.35 12.77 10.58
5/7/2021 3:15:00 AM 8.77 47.786 0.129 7.35 13.48 10.6
5/7/2021 3:30:00 AM 8.67 47.606 0.13 7.35 14.73 10.63
5/7/2021 3:45:00 AM 8.57 47.426 0.13 7.35 8.36 10.65
5/7/2021 4:00:00 AM 8.47 47.246 0.13 7.36 7.76 10.69
5/7/2021 4:15:00 AM 8.38 47.084 0.13 7.36 11.01 10.71
5/7/2021 4:30:00 AM 8.29 46.922 0.13 7.36 8.18 10.73
5/7/2021 4:45:00 AM 8.2 46.76 0.13 7.36 20.6 10.76
5/7/2021 5:00:00 AM 8.11 46.598 0.13 7.36 15.51 10.79
5/7/2021 5:15:00 AM 8.03 46.454 0.13 7.35 13.11 10.81
5/7/2021 5:30:00 AM 7.95 46.31 0.13 7.35 16.54 10.83
5/7/2021 5:45:00 AM 7.86 46.148 0.131 7.34 17.73 10.86
5/7/2021 6:00:00 AM 7.79 46.022 0.131 7.35 22.5 10.89
5/7/2021 6:15:00 AM 7.71 45.878 0.131 7.36 32.62 10.92
5/7/2021 6:30:00 AM 7.64 45.752 0.131 7.37 24.7 10.95
5/7/2021 6:45:00 AM 7.57 45.626 0.131 7.38 46.25 11
5/7/2021 7:00:00 AM 7.51 45.518 0.131 7.38 23.68 11.05
5/7/2021 7:15:00 AM 7.45 45.41 0.131 7.37 22.44 11.1
5/7/2021 7:30:00 AM 7.4 45.32 0.131 7.36 23.2 11.16
5/7/2021 7:45:00 AM 7.36 45.248 0.131 7.35 33.18 11.21
5/7/2021 8:00:00 AM 7.33 45.194 0.131 7.38 24.87 11.26
5/7/2021 8:15:00 AM 7.36 45.248 0.131 7.4 26.22 11.33
5/7/2021 8:30:00 AM 7.39 45.302 0.131 7.41 26.18 11.39
5/7/2021 8:45:00 AM 7.46 45.428 0.131 7.45 19.16 11.45
5/7/2021 9:00:00 AM 7.56 45.608 0.131 7.45 20.87 11.49
5/7/2021 9:15:00 AM 7.66 45.788 0.131 7.46 17.7 11.51
5/7/2021 9:30:00 AM 7.8 46.04 0.131 7.5 43.17 11.53
5/7/2021 9:45:00 AM 7.95 46.31 0.131 7.53 24.55 11.54
5/7/2021 10:00:00 AM 8.13 46.634 0.131 7.56 22.17 11.55
5/7/2021 10:15:00 AM 8.31 46.958 0.13 7.59 24.42 11.56
5/7/2021 10:30:00 AM 8.5 47.3 0.13 7.62 18.74 11.56
5/7/2021 10:45:00 AM 8.7 47.66 0.13 7.64 20.72 11.55
5/7/2021 11:00:00 AM 8.88 47.984 0.13 7.65 16.35 11.53
5/7/2021 11:15:00 AM 9.06 48.308 0.13 7.66 16.11 11.51
5/7/2021 11:30:00 AM 9.23 48.614 0.13 7.66 16.45 11.48
5/7/2021 11:45:00 AM 9.31 48.758 0.13 7.65 56.99 11.43
5/7/2021 12:00:00 PM 9.35 48.83 0.13 7.67 22.7 11.39
5/7/2021 12:15:00 PM 9.37 48.866 0.13 7.68 27.02 11.35
5/7/2021 12:30:00 PM 9.36 48.848 0.13 7.68 26.41 11.31
5/7/2021 12:45:00 PM 9.37 48.866 0.13 7.68 28.88 11.29
5/7/2021 1:00:00 PM 9.39 48.902 0.13 7.69 27.14 11.3
5/7/2021 1:15:00 PM 9.43 48.974 0.13 7.69 25.48 11.3
5/7/2021 1:30:00 PM 9.44 48.992 0.13 7.69 20.38 11.29
5/7/2021 1:45:00 PM 9.49 49.082 0.13 7.7 16.32 11.29
5/7/2021 2:00:00 PM 9.53 49.154 0.13 7.7 18.57 11.31
5/7/2021 2:15:00 PM 9.55 49.19 0.13 7.7 17.91 11.31
5/7/2021 2:30:00 PM 9.57 49.226 0.13 7.7 18.58 11.31
5/7/2021 2:45:00 PM 9.62 49.316 0.13 7.71 21.95 11.29
5/7/2021 3:00:00 PM 9.68 49.424 0.13 7.72 20.58 11.3
5/7/2021 3:15:00 PM 9.73 49.514 0.13 7.73 21.9 11.29
5/7/2021 3:30:00 PM 9.78 49.604 0.13 7.74 24.37 11.27
5/7/2021 3:45:00 PM 9.81 49.658 0.13 7.74 20.59 11.26
5/7/2021 4:00:00 PM 9.86 49.748 0.13 7.72 15.57 11.25
5/7/2021 4:15:00 PM 9.88 49.784 0.13 7.71 18.08 11.24
5/7/2021 4:30:00 PM 9.92 49.856 0.13 7.71 15.09 11.23
5/7/2021 4:45:00 PM 9.98 49.964 0.13 7.73 16.4 11.21
5/7/2021 5:00:00 PM 10.01 50.018 0.13 7.74 16.87 11.19
5/7/2021 5:15:00 PM 10.04 50.072 0.13 7.74 20.52 11.16
5/7/2021 5:30:00 PM 10.05 50.09 0.13 7.74 15.4 11.11
5/7/2021 5:45:00 PM 10.07 50.126 0.13 7.73 16.25 11.07
5/7/2021 6:00:00 PM 10.08 50.144 0.13 7.71 22.83 11.02
5/7/2021 6:15:00 PM 10.08 50.144 0.13 7.67 21.58 10.98
5/7/2021 6:30:00 PM 10.07 50.126 0.13 7.64 16.07 10.93
5/7/2021 6:45:00 PM 10.06 50.108 0.13 7.62 16.74 10.89
5/7/2021 7:00:00 PM 10.03 50.054 0.13 7.6 16 10.82
5/7/2021 7:15:00 PM 9.99 49.982 0.131 7.58 16.12 10.75
5/7/2021 7:30:00 PM 9.95 49.91 0.131 7.56 16.71 10.69
5/7/2021 7:45:00 PM 9.9 49.82 0.13 7.54 15.97 10.63
5/7/2021 8:00:00 PM 9.87 49.766 0.131 7.52 16.05 10.59
5/7/2021 8:15:00 PM 9.84 49.712 0.131 7.51 19.15 10.54
5/7/2021 8:30:00 PM 9.81 49.658 0.13 7.49 17.19 10.51
5/7/2021 8:45:00 PM 9.77 49.586 0.13 7.48 17.7 10.49
5/7/2021 9:00:00 PM 9.73 49.514 0.13 7.47 19.06 10.46
5/7/2021 9:15:00 PM 9.7 49.46 0.13 7.46 17.43 10.44
5/7/2021 9:30:00 PM 9.66 49.388 0.13 7.45 18.96 10.43
5/7/2021 9:45:00 PM 9.62 49.316 0.129 7.44 19.59 10.43
5/7/2021 10:00:00 PM 9.57 49.226 0.129 7.42 20.33 10.42
5/7/2021 10:15:00 PM 9.53 49.154 0.128 7.41 19.81 10.43
5/7/2021 10:30:00 PM 9.48 49.064 0.128 7.39 19.96 10.41
5/7/2021 10:45:00 PM 9.44 48.992 0.128 7.38 19.76 10.41
5/7/2021 11:00:00 PM 9.4 48.92 0.127 7.37 18.58 10.43
5/7/2021 11:15:00 PM 9.37 48.866 0.127 7.36 16.8 10.44
5/7/2021 11:30:00 PM 9.33 48.794 0.127 7.35 16.7 10.44
5/7/2021 11:45:00 PM 9.29 48.722 0.127 7.34 14.99 10.46
5/8/2021 12:00:00 AM 9.26 48.668 0.127 7.34 14.04 10.47
5/8/2021 12:15:00 AM 9.22 48.596 0.127 7.34 13.77 10.47
5/8/2021 12:30:00 AM 9.18 48.524 0.126 7.34 15.08 10.49
5/8/2021 12:45:00 AM 9.14 48.452 0.126 7.33 15.52 10.49
5/8/2021 1:00:00 AM 9.1 48.38 0.126 7.32 16.49 10.51
5/8/2021 1:15:00 AM 9.06 48.308 0.126 7.31 13.48 10.54
5/8/2021 1:30:00 AM 9.01 48.218 0.125 7.3 12.42 10.54
5/8/2021 1:45:00 AM 8.97 48.146 0.125 7.27 11.37 10.54
5/8/2021 2:00:00 AM 8.93 48.074 0.125 7.25 11.59 10.56
5/8/2021 2:15:00 AM 8.88 47.984 0.124 7.24 11.5 10.58
5/8/2021 2:30:00 AM 8.83 47.894 0.124 7.23 12.2 10.6
5/8/2021 2:45:00 AM 8.78 47.804 0.124 7.22 12.67 10.6
5/8/2021 3:00:00 AM 8.73 47.714 0.123 7.21 11.88 10.61
5/8/2021 3:15:00 AM 8.68 47.624 0.123 7.22 12.04 10.61
5/8/2021 3:30:00 AM 8.62 47.516 0.123 7.18 13.48 10.63
5/8/2021 3:45:00 AM 8.56 47.408 0.122 7.14 14.2 10.65
5/8/2021 4:00:00 AM 8.5 47.3 0.122 7.12 15.37 10.67
5/8/2021 4:15:00 AM 8.44 47.192 0.121 7.11 15.49 10.68
5/8/2021 4:30:00 AM 8.38 47.084 0.12 7.1 16.6 10.7
5/8/2021 4:45:00 AM 8.32 46.976 0.119 7.08 19.74 10.72
5/8/2021 5:00:00 AM 8.26 46.868 0.118 7.11 20.3 10.73
5/8/2021 5:15:00 AM 8.21 46.778 0.117 7.12 19.98 10.75
5/8/2021 5:30:00 AM 8.15 46.67 0.116 7.08 17.05 10.76
5/8/2021 5:45:00 AM 8.09 46.562 0.115 7.11 23.66 10.78
5/8/2021 6:00:00 AM 8.02 46.436 0.113 7.1 19.57 10.79
5/8/2021 6:15:00 AM 7.96 46.328 0.112 7.08 24.57 10.81
5/8/2021 6:30:00 AM 7.9 46.22 0.11 7.03 32.72 10.83
5/8/2021 6:45:00 AM 7.82 46.076 0.109 7.01 25.22 10.86
5/8/2021 7:00:00 AM 7.75 45.95 0.107 6.99 24.4 10.88
5/8/2021 7:15:00 AM 7.68 45.824 0.106 7 29.26 10.91
5/8/2021 7:30:00 AM 7.63 45.734 0.105 7.01 25.49 10.94
5/8/2021 7:45:00 AM 7.59 45.662 0.104 7 36.26 10.97
5/8/2021 8:00:00 AM 7.57 45.626 0.103 7.02 17.38 11.01
5/8/2021 8:15:00 AM 7.58 45.644 0.102 7.02 22.5 11.06
5/8/2021 8:30:00 AM 7.61 45.698 0.101 7.04 25.47 11.1
5/8/2021 8:45:00 AM 7.6 45.68 0.1 7.04 25 11.13
5/8/2021 9:00:00 AM 7.6 45.68 0.099 7.04 28.59 11.16
5/8/2021 9:15:00 AM 7.6 45.68 0.099 7.04 20.16 11.18
5/8/2021 9:30:00 AM 7.61 45.698 0.098 7.06 20.78 11.2
5/8/2021 9:45:00 AM 7.62 45.716 0.097 7.06 19.41 11.21
5/8/2021 10:00:00 AM 7.63 45.734 0.097 7.07 19.39 11.23
5/8/2021 10:15:00 AM 7.65 45.77 0.097 7.04 18.73 11.25
5/8/2021 10:30:00 AM 7.67 45.806 0.096 7.05 17.6 11.27
5/8/2021 10:45:00 AM 7.71 45.878 0.096 7.05 17.07 11.28
5/8/2021 11:00:00 AM 7.73 45.914 0.096 7.12 16.48 11.29
5/8/2021 11:15:00 AM 7.76 45.968 0.095 7.14 16.03 11.3
5/8/2021 11:30:00 AM 7.79 46.022 0.095 7.16 14.99 11.31
5/8/2021 11:45:00 AM 7.84 46.112 0.095 7.19 14.69 11.32
5/8/2021 12:00:00 PM 7.86 46.148 0.095 7.2 14.03 11.33
5/8/2021 12:15:00 PM 7.87 46.166 0.095 7.2 13.6 11.33
5/8/2021 12:30:00 PM 7.89 46.202 0.095 7.18 13.46 11.33
5/8/2021 12:45:00 PM 7.9 46.22 0.095 7.21 13.18 11.33
5/8/2021 1:00:00 PM 7.92 46.256 0.095 7.22 12.1 11.33
5/8/2021 1:15:00 PM 7.94 46.292 0.095 7.23 12 11.32
5/8/2021 1:30:00 PM 7.97 46.346 0.095 7.25 11.6 11.33
5/8/2021 1:45:00 PM 7.99 46.382 0.095 7.26 11.09 11.32
5/8/2021 2:00:00 PM 7.99 46.382 0.095 7.25 11.23 11.31
5/8/2021 2:15:00 PM 8.01 46.418 0.096 7.25 11.1 11.31
5/8/2021 2:30:00 PM 8.03 46.454 0.096 7.25 11.46 11.32
5/8/2021 2:45:00 PM 8.06 46.508 0.096 7.26 10.52 11.31
5/8/2021 3:00:00 PM 8.09 46.562 0.096 7.28 10.06 11.31
5/8/2021 3:15:00 PM 8.13 46.634 0.096 7.29 9.92 11.31
5/8/2021 3:30:00 PM 8.18 46.724 0.096 7.3 9.72 11.32
5/8/2021 3:45:00 PM 8.24 46.832 0.097 7.29 8.88 11.32
5/8/2021 4:00:00 PM 8.34 47.012 0.097 7.31 8.97 11.33
5/8/2021 4:15:00 PM 8.38 47.084 0.097 7.31 8.45 11.33
5/8/2021 4:30:00 PM 8.49 47.282 0.097 7.34 8.05 11.32
5/8/2021 4:45:00 PM 8.6 47.48 0.097 7.35 8.11 11.32
5/8/2021 5:00:00 PM 8.66 47.588 0.097 7.33 7.67 11.31
5/8/2021 5:15:00 PM 8.73 47.714 0.098 7.33 7.49 11.29
5/8/2021 5:30:00 PM 8.74 47.732 0.098 7.33 7.58 11.26
5/8/2021 5:45:00 PM 8.74 47.732 0.098 7.31 7.42 11.23
5/8/2021 6:00:00 PM 8.7 47.66 0.098 7.29 7.22 11.2
5/8/2021 6:15:00 PM 8.67 47.606 0.099 7.27 7.87 11.17
5/8/2021 6:30:00 PM 8.64 47.552 0.099 7.26 7.57 11.15
5/8/2021 6:45:00 PM 8.63 47.534 0.099 7.26 6.97 11.14
5/8/2021 7:00:00 PM 8.61 47.498 0.099 7.26 7.06 11.12
5/8/2021 7:15:00 PM 8.58 47.444 0.1 7.24 6.92 11.1
5/8/2021 7:30:00 PM 8.55 47.39 0.1 7.24 6.55 11.08
5/8/2021 7:45:00 PM 8.55 47.39 0.1 7.24 6.54 11.06
5/8/2021 8:00:00 PM 8.53 47.354 0.1 7.23 6.46 11.03
5/8/2021 8:15:00 PM 8.51 47.318 0.1 7.22 6.45 11
5/8/2021 8:30:00 PM 8.5 47.3 0.101 7.22 6.72 10.98
5/8/2021 8:45:00 PM 8.48 47.264 0.101 7.21 6.76 10.94
5/8/2021 9:00:00 PM 8.46 47.228 0.101 7.21 6.56 10.93
5/8/2021 9:15:00 PM 8.43 47.174 0.102 7.2 6.34 10.92
5/8/2021 9:30:00 PM 8.39 47.102 0.102 7.19 6.34 10.91
5/8/2021 9:45:00 PM 8.35 47.03 0.102 7.19 6.21 10.91
5/8/2021 10:00:00 PM 8.3 46.94 0.102 7.18 6.2 10.91
5/8/2021 10:15:00 PM 8.26 46.868 0.103 7.18 6.21 10.91
5/8/2021 10:30:00 PM 8.21 46.778 0.103 7.18 5.97 10.92
5/8/2021 10:45:00 PM 8.17 46.706 0.103 7.17 6.27 10.92
5/8/2021 11:00:00 PM 8.12 46.616 0.103 7.17 6.14 10.93
5/8/2021 11:15:00 PM 8.07 46.526 0.103 7.17 5.95 10.94
5/8/2021 11:30:00 PM 8.02 46.436 0.104 7.17 6.13 10.95
5/8/2021 11:45:00 PM 7.97 46.346 0.104 7.17 5.94 10.96
5/9/2021 12:00:00 AM 7.91 46.238 0.104 7.16 5.82 10.97
5/9/2021 12:15:00 AM 7.85 46.13 0.104 7.18 5.73 10.98
5/9/2021 12:30:00 AM 7.81 46.058 0.105 7.17 5.73 11
5/9/2021 12:45:00 AM 7.76 45.968 0.105 7.17 5.92 11.01
5/9/2021 1:00:00 AM 7.71 45.878 0.105 7.16 5.6 11.02
5/9/2021 1:15:00 AM 7.67 45.806 0.105 7.16 5.44 11.03
5/9/2021 1:30:00 AM 7.62 45.716 0.105 7.15 5.62 11.04
5/9/2021 1:45:00 AM 7.58 45.644 0.106 7.15 5.39 11.05
5/9/2021 2:00:00 AM 7.54 45.572 0.106 7.15 5.39 11.07
5/9/2021 2:15:00 AM 7.49 45.482 0.106 7.15 5.12 11.08
5/9/2021 2:30:00 AM 7.43 45.374 0.106 7.16 5.2 11.09
5/9/2021 2:45:00 AM 7.38 45.284 0.106 7.17 5.02 11.1
5/9/2021 3:00:00 AM 7.33 45.194 0.106 7.18 5.12 11.13
5/9/2021 3:15:00 AM 7.27 45.086 0.107 7.18 5.16 11.14
5/9/2021 3:30:00 AM 7.21 44.978 0.107 7.18 5.1 11.16
5/9/2021 3:45:00 AM 7.16 44.888 0.107 7.18 4.94 11.17
5/9/2021 4:00:00 AM 7.1 44.78 0.107 7.19 5.02 11.18
5/9/2021 4:15:00 AM 7.05 44.69 0.107 7.19 4.9 11.19
5/9/2021 4:30:00 AM 7 44.6 0.107 7.2 5.05 11.21
5/9/2021 4:45:00 AM 6.96 44.528 0.108 7.19 5 11.22
5/9/2021 5:00:00 AM 6.92 44.456 0.108 7.18 5.03 11.24
5/9/2021 5:15:00 AM 6.88 44.384 0.108 7.19 4.96 11.25
5/9/2021 5:30:00 AM 6.84 44.312 0.108 7.2 5.12 11.27
5/9/2021 5:45:00 AM 6.8 44.24 0.108 7.2 4.91 11.28
5/9/2021 6:00:00 AM 6.75 44.15 0.108 7.2 4.97 11.3
5/9/2021 6:15:00 AM 6.71 44.078 0.108 7.19 4.85 11.32
5/9/2021 6:30:00 AM 6.68 44.024 0.108 7.19 4.64 11.35
5/9/2021 6:45:00 AM 6.65 43.97 0.108 7.2 4.83 11.39
5/9/2021 7:00:00 AM 6.63 43.934 0.108 7.22 4.67 11.43
5/9/2021 7:15:00 AM 6.61 43.898 0.108 7.24 4.57 11.47
5/9/2021 7:30:00 AM 6.61 43.898 0.108 7.24 4.57 11.52
5/9/2021 7:45:00 AM 6.61 43.898 0.108 7.27 4.42 11.57
5/9/2021 8:00:00 AM 6.62 43.916 0.108 7.28 4.48 11.62
5/9/2021 8:15:00 AM 6.65 43.97 0.108 7.3 4.24 11.66
5/9/2021 8:30:00 AM 6.69 44.042 0.108 7.32 4.19 11.68
5/9/2021 8:45:00 AM 6.75 44.15 0.108 7.32 4.13 11.72
5/9/2021 9:00:00 AM 6.83 44.294 0.108 7.34 3.93 11.74
5/9/2021 9:15:00 AM 6.92 44.456 0.108 7.36 4.02 11.75
5/9/2021 9:30:00 AM 7.04 44.672 0.108 7.37 3.91 11.76
5/9/2021 9:45:00 AM 7.17 44.906 0.108 7.39 3.88 11.76
5/9/2021 10:00:00 AM 7.3 45.14 0.108 7.41 3.76 11.76
5/9/2021 10:15:00 AM 7.45 45.41 0.108 7.43 3.95 11.76
5/9/2021 10:30:00 AM 7.61 45.698 0.108 7.44 3.84 11.75
5/9/2021 10:45:00 AM 7.76 45.968 0.108 7.45 3.57 11.74
5/9/2021 11:00:00 AM 7.89 46.202 0.108 7.46 3.75 11.72
5/9/2021 11:15:00 AM 8.01 46.418 0.107 7.47 3.64 11.7
5/9/2021 11:30:00 AM 8.12 46.616 0.107 7.48 3.54 11.67
5/9/2021 11:45:00 AM 8.22 46.796 0.107 7.48 3.56 11.65
5/9/2021 12:00:00 PM 8.3 46.94 0.107 7.48 3.43 11.64
5/9/2021 12:15:00 PM 8.4 47.12 0.107 7.49 3.55 11.62
5/9/2021 12:30:00 PM 8.49 47.282 0.107 7.5 3.55 11.61
5/9/2021 12:45:00 PM 8.59 47.462 0.107 7.5 3.61 11.59
5/9/2021 1:00:00 PM 8.68 47.624 0.107 7.51 3.46 11.58
5/9/2021 1:15:00 PM 8.77 47.786 0.107 7.52 3.56 11.55
5/9/2021 1:30:00 PM 8.85 47.93 0.107 7.52 3.45 11.52
5/9/2021 1:45:00 PM 8.91 48.038 0.107 7.52 3.42 11.5
5/9/2021 2:00:00 PM 8.96 48.128 0.107 7.55 3.49 11.47
5/9/2021 2:15:00 PM 9 48.2 0.107 7.53 3.46 11.44
5/9/2021 2:30:00 PM 9.03 48.254 0.107 7.52 3.46 11.41
5/9/2021 2:45:00 PM 9.04 48.272 0.107 7.5 3.55 11.36
5/9/2021 3:00:00 PM 9.07 48.326 0.107 7.49 3.83 11.33
5/9/2021 3:15:00 PM 9.08 48.344 0.107 7.5 3.47 11.3
5/9/2021 3:30:00 PM 9.09 48.362 0.107 7.48 3.41 11.26
5/9/2021 3:45:00 PM 9.1 48.38 0.107 7.48 3.52 11.24
5/9/2021 4:00:00 PM 9.1 48.38 0.107 7.48 3.7 11.24
5/9/2021 4:15:00 PM 9.1 48.38 0.107 7.47 3.53 11.2
5/9/2021 4:30:00 PM 9.08 48.344 0.107 7.46 3.45 11.15
5/9/2021 4:45:00 PM 9.07 48.326 0.107 7.46 3.65 11.14
5/9/2021 5:00:00 PM 9.05 48.29 0.107 7.44 3.59 11.12
5/9/2021 5:15:00 PM 9.03 48.254 0.107 7.43 3.6 11.09
5/9/2021 5:30:00 PM 9.01 48.218 0.107 7.41 3.64 11.06
5/9/2021 5:45:00 PM 9 48.2 0.106 7.4 3.82 11.04
5/9/2021 6:00:00 PM 8.98 48.164 0.106 7.39 3.63 11.01
5/9/2021 6:15:00 PM 8.97 48.146 0.106 7.38 3.96 10.99
5/9/2021 6:30:00 PM 8.95 48.11 0.106 7.37 3.97 10.96
5/9/2021 6:45:00 PM 8.93 48.074 0.106 7.35 3.99 10.94
5/9/2021 7:00:00 PM 8.91 48.038 0.105 7.33 4.12 10.92
5/9/2021 7:15:00 PM 8.88 47.984 0.105 7.31 4.25 10.89
5/9/2021 7:30:00 PM 8.84 47.912 0.105 7.3 4.21 10.88
5/9/2021 7:45:00 PM 8.8 47.84 0.105 7.28 4.35 10.85
5/9/2021 8:00:00 PM 8.76 47.768 0.105 7.27 4.66 10.85
5/9/2021 8:15:00 PM 8.71 47.678 0.105 7.24 4.79 10.83
5/9/2021 8:30:00 PM 8.67 47.606 0.104 7.23 5.12 10.82
5/9/2021 8:45:00 PM 8.62 47.516 0.104 7.21 5.49 10.81
5/9/2021 9:00:00 PM 8.56 47.408 0.104 7.19 5.61 10.81
5/9/2021 9:15:00 PM 8.51 47.318 0.104 7.18 6.06 10.82
5/9/2021 9:30:00 PM 8.45 47.21 0.103 7.16 6.81 10.83
5/9/2021 9:45:00 PM 8.4 47.12 0.103 7.14 6.89 10.83
5/9/2021 10:00:00 PM 8.34 47.012 0.103 7.14 6.9 10.84
5/9/2021 10:15:00 PM 8.29 46.922 0.103 7.18 7.68 10.84
5/9/2021 10:30:00 PM 8.23 46.814 0.102 7.17 8.04 10.85
5/9/2021 10:45:00 PM 8.18 46.724 0.102 7.15 8.7 10.87
5/9/2021 11:00:00 PM 8.13 46.634 0.102 7.14 9.04 10.87
5/9/2021 11:15:00 PM 8.07 46.526 0.101 7.13 9.59 10.89
5/9/2021 11:30:00 PM 8.02 46.436 0.101 7.1 9.41 10.89
5/9/2021 11:45:00 PM 7.97 46.346 0.101 7.07 10.7 10.9
5/10/2021 12:00:00 AM 7.91 46.238 0.1 7.04 10.91 10.91
5/10/2021 12:15:00 AM 7.86 46.148 0.1 7.01 12.2 10.92
5/10/2021 12:30:00 AM 7.81 46.058 0.099 7 12.2 10.92
5/10/2021 12:45:00 AM 7.76 45.968 0.098 7 13.49 10.94
5/10/2021 1:00:00 AM 7.72 45.896 0.097 7 14.93 10.95
5/10/2021 1:15:00 AM 7.67 45.806 0.096 7.01 15.76 10.97
5/10/2021 1:30:00 AM 7.63 45.734 0.095 7 16.28 10.98
5/10/2021 1:45:00 AM 7.59 45.662 0.094 6.99 17.07 11
5/10/2021 2:00:00 AM 7.55 45.59 0.094 6.99 18.9 11.01
5/10/2021 2:15:00 AM 7.52 45.536 0.093 6.98 20.28 11.02
5/10/2021 2:30:00 AM 7.48 45.464 0.092 6.99 20.95 11.03
5/10/2021 2:45:00 AM 7.45 45.41 0.091 6.99 20.63 11.04
5/10/2021 3:00:00 AM 7.42 45.356 0.091 6.98 20.81 11.05
5/10/2021 3:15:00 AM 7.39 45.302 0.09 7.01 21.63 11.06
5/10/2021 3:30:00 AM 7.37 45.266 0.089 6.99 22.01 11.07
5/10/2021 3:45:00 AM 7.35 45.23 0.088 6.99 22.04 11.07
5/10/2021 4:00:00 AM 7.32 45.176 0.088 6.99 25.38 11.08
5/10/2021 4:15:00 AM 7.31 45.158 0.087 6.99 23.99 11.08
5/10/2021 4:30:00 AM 7.29 45.122 0.086 6.98 24.56 11.09
5/10/2021 4:45:00 AM 7.27 45.086 0.086 6.95 22.85 11.1
5/10/2021 5:00:00 AM 7.25 45.05 0.086 6.96 22.76 11.1
5/10/2021 5:15:00 AM 7.24 45.032 0.085 6.98 23.22 11.1
5/10/2021 5:30:00 AM 7.22 44.996 0.085 6.97 18.04 11.12
5/10/2021 5:45:00 AM 7.21 44.978 0.085 6.97 23.66 11.12
5/10/2021 6:00:00 AM 7.2 44.96 0.085 6.97 21.98 11.13
5/10/2021 6:15:00 AM 7.18 44.924 0.084 6.99 21.9 11.13
5/10/2021 6:30:00 AM 7.17 44.906 0.084 6.97 19.99 11.14
5/10/2021 6:45:00 AM 7.16 44.888 0.084 6.96 20.35 11.15
5/10/2021 7:00:00 AM 7.16 44.888 0.084 6.95 19.53 11.16
5/10/2021 7:15:00 AM 7.15 44.87 0.085 6.96 18.06 11.17
5/10/2021 7:30:00 AM 7.15 44.87 0.085 6.97 17.74 11.18
5/10/2021 7:45:00 AM 7.15 44.87 0.085 6.98 17.64 11.2
5/10/2021 8:00:00 AM 7.15 44.87 0.085 6.99 16.74 11.22
5/10/2021 8:15:00 AM 7.16 44.888 0.085 7 16.13 11.23
5/10/2021 8:30:00 AM 7.17 44.906 0.085 7.02 15.67 11.25
5/10/2021 8:45:00 AM 7.18 44.924 0.086 7.01 15.16 11.27
5/10/2021 9:00:00 AM 7.2 44.96 0.086 7.02 14.69 11.29
5/10/2021 9:15:00 AM 7.22 44.996 0.086 7.07 13.74 11.31
5/10/2021 9:30:00 AM 7.24 45.032 0.086 7.08 13.57 11.32
5/10/2021 9:45:00 AM 7.25 45.05 0.086 7.03 12.6 11.32
5/10/2021 10:00:00 AM 7.26 45.068 0.087 7.07 11.44 11.34
5/10/2021 10:15:00 AM 7.29 45.122 0.087 7.08 11.11 11.36
5/10/2021 10:30:00 AM 7.35 45.23 0.087 7.12 10.72 11.4
5/10/2021 10:45:00 AM 7.42 45.356 0.087 7.15 10.3 11.43
5/10/2021 11:00:00 AM 7.51 45.518 0.087 7.18 9.89 11.45
5/10/2021 11:15:00 AM 7.58 45.644 0.087 7.19 9.9 11.46
5/10/2021 11:30:00 AM 7.68 45.824 0.088 7.21 9.93 11.48
5/10/2021 11:45:00 AM 7.8 46.04 0.088 7.24 9.89 11.49
5/10/2021 12:00:00 PM 7.91 46.238 0.088 7.25 9.45 11.49
5/10/2021 12:15:00 PM 8.05 46.49 0.088 7.26 8.64 11.49
5/10/2021 12:30:00 PM 8.15 46.67 0.088 7.26 8.67 11.49
5/10/2021 12:45:00 PM 8.35 47.03 0.089 7.28 8.19 11.47
5/10/2021 1:00:00 PM 8.6 47.48 0.089 7.31 8.22 11.44
5/10/2021 1:15:00 PM 8.78 47.804 0.089 7.31 7.6 11.43
5/10/2021 1:30:00 PM 9.03 48.254 0.089 7.32 7.33 11.41
5/10/2021 1:45:00 PM 9.24 48.632 0.089 7.34 7.44 11.37
5/10/2021 2:00:00 PM 9.45 49.01 0.09 7.33 7.08 11.33
5/10/2021 2:15:00 PM 9.63 49.334 0.09 7.36 7.3 11.29
5/10/2021 2:30:00 PM 9.74 49.532 0.09 7.38 6.58 11.26
5/10/2021 2:45:00 PM 9.8 49.64 0.09 7.36 7.11 11.23
5/10/2021 3:00:00 PM 9.91 49.838 0.09 7.37 6.59 11.19
5/10/2021 3:15:00 PM 10 50 0.091 7.38 6.26 11.16
5/10/2021 3:30:00 PM 9.98 49.964 0.091 7.37 6.19 11.12
5/10/2021 3:45:00 PM 10 50 0.091 7.36 6.42 11.09
5/10/2021 4:00:00 PM 10.05 50.09 0.091 7.37 6.34 11.06
5/10/2021 4:15:00 PM 10.11 50.198 0.091 7.37 6.27 11.03
5/10/2021 4:30:00 PM 10.21 50.378 0.091 7.39 6.4 10.99
5/10/2021 4:45:00 PM 10.34 50.612 0.092 7.4 6.03 10.96
5/10/2021 5:00:00 PM 10.39 50.702 0.092 7.4 5.87 10.92
5/10/2021 5:15:00 PM 10.46 50.828 0.092 7.39 6 10.89
5/10/2021 5:30:00 PM 10.49 50.882 0.092 7.39 5.65 10.86
5/10/2021 5:45:00 PM 10.54 50.972 0.092 7.39 5.8 10.83
5/10/2021 6:00:00 PM 10.56 51.008 0.093 7.38 5.62 10.79
5/10/2021 6:15:00 PM 10.57 51.026 0.093 7.37 5.92 10.76
5/10/2021 6:30:00 PM 10.57 51.026 0.093 7.35 5.81 10.72
5/10/2021 6:45:00 PM 10.57 51.026 0.093 7.34 5.85 10.68
5/10/2021 7:00:00 PM 10.56 51.008 0.093 7.32 5.79 10.65
5/10/2021 7:15:00 PM 10.54 50.972 0.093 7.31 5.69 10.62
5/10/2021 7:30:00 PM 10.5 50.9 0.093 7.29 5.63 10.6
5/10/2021 7:45:00 PM 10.43 50.774 0.093 7.28 5.84 10.57
5/10/2021 8:00:00 PM 10.36 50.648 0.094 7.27 5.97 10.55
5/10/2021 8:15:00 PM 10.29 50.522 0.094 7.26 6.02 10.53
5/10/2021 8:30:00 PM 10.21 50.378 0.094 7.21 5.92 10.52
5/10/2021 8:45:00 PM 10.13 50.234 0.094 7.2 6.06 10.51
5/10/2021 9:00:00 PM 10.04 50.072 0.094 7.19 5.81 10.51
5/10/2021 9:15:00 PM 9.96 49.928 0.094 7.19 6.3 10.51
5/10/2021 9:30:00 PM 9.89 49.802 0.094 7.17 6.26 10.51
5/10/2021 9:45:00 PM 9.81 49.658 0.095 7.16 6.52 10.52
5/10/2021 10:00:00 PM 9.73 49.514 0.095 7.16 6.76 10.52
5/10/2021 10:15:00 PM 9.64 49.352 0.095 7.16 6.45 10.54
5/10/2021 10:30:00 PM 9.55 49.19 0.095 7.15 6.35 10.56
5/10/2021 10:45:00 PM 9.45 49.01 0.095 7.15 6.5 10.57
5/10/2021 11:00:00 PM 9.35 48.83 0.095 7.15 6.16 10.6
5/10/2021 11:15:00 PM 9.25 48.65 0.095 7.16 6.2 10.61
5/10/2021 11:30:00 PM 9.16 48.488 0.096 7.14 6.19 10.64
5/10/2021 11:45:00 PM 9.05 48.29 0.096 7.15 5.91 10.66
5/11/2021 12:00:00 AM 8.95 48.11 0.096 7.16 6.03 10.68
5/11/2021 12:15:00 AM 8.85 47.93 0.096 7.17 5.8 10.71
5/11/2021 12:30:00 AM 8.76 47.768 0.096 7.13 6.1 10.73
5/11/2021 12:45:00 AM 8.66 47.588 0.096 7.15 6.03 10.75
5/11/2021 1:00:00 AM 8.56 47.408 0.096 7.14 6.39 10.78
5/11/2021 1:15:00 AM 8.48 47.264 0.096 7.15 6.22 10.8
5/11/2021 1:30:00 AM 8.39 47.102 0.096 7.16 5.96 10.82
5/11/2021 1:45:00 AM 8.31 46.958 0.096 7.15 5.76 10.85
5/11/2021 2:00:00 AM 8.23 46.814 0.096 7.14 6.09 10.87
5/11/2021 2:15:00 AM 8.15 46.67 0.096 7.1 5.75 10.89
5/11/2021 2:30:00 AM 8.07 46.526 0.097 7.1 5.7 10.92
5/11/2021 2:45:00 AM 7.99 46.382 0.097 7.11 5.77 10.94
5/11/2021 3:00:00 AM 7.91 46.238 0.097 7.1 5.63 10.96
5/11/2021 3:15:00 AM 7.83 46.094 0.097 7.11 5.63 10.98
5/11/2021 3:30:00 AM 7.75 45.95 0.097 7.11 5.79 11.01
5/11/2021 3:45:00 AM 7.67 45.806 0.097 7.11 5.57 11.03
5/11/2021 4:00:00 AM 7.59 45.662 0.097 7.11 5.63 11.05
5/11/2021 4:15:00 AM 7.51 45.518 0.097 7.11 5.55 11.07
5/11/2021 4:30:00 AM 7.43 45.374 0.097 7.12 5.68 11.1
5/11/2021 4:45:00 AM 7.36 45.248 0.097 7.11 5.71 11.11
5/11/2021 5:00:00 AM 7.28 45.104 0.097 7.12 5.33 11.14
5/11/2021 5:15:00 AM 7.2 44.96 0.097 7.1 5.86 11.15
5/11/2021 5:30:00 AM 7.13 44.834 0.097 7.12 5.84 11.18
5/11/2021 5:45:00 AM 7.07 44.726 0.097 7.11 5.37 11.2
5/11/2021 6:00:00 AM 7 44.6 0.097 7.11 5.38 11.22
5/11/2021 6:15:00 AM 6.94 44.492 0.097 7.14 5.36 11.25
5/11/2021 6:30:00 AM 6.88 44.384 0.097 7.13 5.13 11.28
5/11/2021 6:45:00 AM 6.82 44.276 0.097 7.12 5.17 11.32
5/11/2021 7:00:00 AM 6.77 44.186 0.097 7.13 5.21 11.35
5/11/2021 7:15:00 AM 6.72 44.096 0.097 7.16 5.35 11.39
5/11/2021 7:30:00 AM 6.69 44.042 0.097 7.17 5.15 11.43
5/11/2021 7:45:00 AM 6.68 44.024 0.098 7.17 5.01 11.46
5/11/2021 8:00:00 AM 6.68 44.024 0.098 7.18 5.02 11.5
5/11/2021 8:15:00 AM 6.7 44.06 0.097 7.21 5.07 11.54
5/11/2021 8:30:00 AM 6.74 44.132 0.097 7.22 4.75 11.57
5/11/2021 8:45:00 AM 6.8 44.24 0.097 7.24 4.52 11.6
5/11/2021 9:00:00 AM 6.87 44.366 0.097 7.25 4.57 11.63
5/11/2021 9:15:00 AM 6.98 44.564 0.097 7.29 4.61 11.64
5/11/2021 9:30:00 AM 7.09 44.762 0.097 7.29 4.7 11.66
5/11/2021 9:45:00 AM 7.23 45.014 0.097 7.32 4.54 11.67
5/11/2021 10:00:00 AM 7.37 45.266 0.097 7.34 4.32 11.67
5/11/2021 10:15:00 AM 7.54 45.572 0.097 7.35 4.32 11.66
5/11/2021 10:30:00 AM 7.71 45.878 0.097 7.36 4.22 11.65
5/11/2021 10:45:00 AM 7.92 46.256 0.097 7.39 4.32 11.64
5/11/2021 11:00:00 AM 8.08 46.544 0.097 7.4 4.36 11.62
5/11/2021 11:15:00 AM 8.19 46.742 0.097 7.39 4.06 11.6
5/11/2021 11:30:00 AM 8.25 46.85 0.097 7.4 4.02 11.58
5/11/2021 11:45:00 AM 8.34 47.012 0.097 7.39 4.28 11.57
5/11/2021 12:00:00 PM 8.37 47.066 0.097 7.4 4.17 11.54
5/11/2021 12:15:00 PM 8.43 47.174 0.097 7.39 4.22 11.51
5/11/2021 12:30:00 PM 8.48 47.264 0.097 7.39 4.26 11.51
5/11/2021 12:45:00 PM 8.54 47.372 0.097 7.41 4.09 11.49
5/11/2021 1:00:00 PM 8.58 47.444 0.097 7.41 4.03 11.49
5/11/2021 1:15:00 PM 8.67 47.606 0.097 7.42 3.94 11.48
5/11/2021 1:30:00 PM 8.77 47.786 0.097 7.42 3.89 11.46
5/11/2021 1:45:00 PM 8.92 48.056 0.097 7.45 3.88 11.45
5/11/2021 2:00:00 PM 8.96 48.128 0.098 7.44 4.01 11.43
5/11/2021 2:15:00 PM 9.21 48.578 0.098 7.46 3.88 11.4
5/11/2021 2:30:00 PM 9.35 48.83 0.098 7.48 3.86 11.37
5/11/2021 2:45:00 PM 9.36 48.848 0.098 7.46 3.89 11.33
5/11/2021 3:00:00 PM 9.39 48.902 0.098 7.45 3.82 11.31
5/11/2021 3:15:00 PM 9.47 49.046 0.098 7.45 3.93 11.3
5/11/2021 3:30:00 PM 9.55 49.19 0.098 7.46 3.95 11.28
5/11/2021 3:45:00 PM 9.63 49.334 0.098 7.47 3.92 11.26
5/11/2021 4:00:00 PM 9.73 49.514 0.098 7.48 3.92 11.24
5/11/2021 4:15:00 PM 9.7 49.46 0.098 7.46 3.89 11.21
5/11/2021 4:30:00 PM 9.73 49.514 0.098 7.46 3.89 11.2
5/11/2021 4:45:00 PM 9.74 49.532 0.098 7.46 4.04 11.18
5/11/2021 5:00:00 PM 9.71 49.478 0.098 7.44 4.04 11.16
5/11/2021 5:15:00 PM 9.72 49.496 0.098 7.44 4.09 11.14
5/11/2021 5:30:00 PM 9.7 49.46 0.098 7.43 4.12 11.1
5/11/2021 5:45:00 PM 9.69 49.442 0.098 7.42 4.03 11.07
5/11/2021 6:00:00 PM 9.68 49.424 0.098 7.42 3.89 11.05
5/11/2021 6:15:00 PM 9.68 49.424 0.098 7.42 3.94 11.02
5/11/2021 6:30:00 PM 9.65 49.37 0.099 7.41 4.03 10.99
5/11/2021 6:45:00 PM 9.63 49.334 0.099 7.42 3.94 10.96
5/11/2021 7:00:00 PM 9.62 49.316 0.099 7.42 3.98 10.93
5/11/2021 7:15:00 PM 9.56 49.208 0.099 7.41 4.09 10.91
5/11/2021 7:30:00 PM 9.5 49.1 0.1 7.38 4.23 10.88
5/11/2021 7:45:00 PM 9.47 49.046 0.1 7.34 4.55 10.86
5/11/2021 8:00:00 PM 9.44 48.992 0.101 7.33 4.62 10.83
5/11/2021 8:15:00 PM 9.39 48.902 0.101 7.31 4.2 10.81
5/11/2021 8:30:00 PM 9.33 48.794 0.101 7.31 4.5 10.79
5/11/2021 8:45:00 PM 9.27 48.686 0.101 7.3 4.37 10.77
5/11/2021 9:00:00 PM 9.21 48.578 0.1 7.29 4.62 10.76
5/11/2021 9:15:00 PM 9.14 48.452 0.1 7.29 4.56 10.76
5/11/2021 9:30:00 PM 9.08 48.344 0.1 7.28 4.81 10.76
5/11/2021 9:45:00 PM 9.01 48.218 0.1 7.27 4.5 10.77
5/11/2021 10:00:00 PM 8.94 48.092 0.101 7.25 4.44 10.77
5/11/2021 10:15:00 PM 8.87 47.966 0.101 7.26 5.01 10.78
5/11/2021 10:30:00 PM 8.8 47.84 0.101 7.25 4.59 10.8
5/11/2021 10:45:00 PM 8.72 47.696 0.101 7.24 4.74 10.81
5/11/2021 11:00:00 PM 8.65 47.57 0.101 7.25 4.73 10.82
5/11/2021 11:15:00 PM 8.57 47.426 0.101 7.25 4.52 10.85
5/11/2021 11:30:00 PM 8.49 47.282 0.101 7.25 4.77 10.86
5/11/2021 11:45:00 PM 8.41 47.138 0.101 7.25 4.9 10.88
5/12/2021 12:00:00 AM 8.34 47.012 0.101 7.24 4.69 10.89
5/12/2021 12:15:00 AM 8.25 46.85 0.102 7.24 4.61 10.92
5/12/2021 12:30:00 AM 8.18 46.724 0.102 7.23 4.51 10.94
5/12/2021 12:45:00 AM 8.1 46.58 0.102 7.23 4.59 10.96
5/12/2021 1:00:00 AM 8.02 46.436 0.102 7.23 4.45 10.98
5/12/2021 1:15:00 AM 7.94 46.292 0.102 7.23 4.44 11
5/12/2021 1:30:00 AM 7.85 46.13 0.102 7.22 4.51 11.02
5/12/2021 1:45:00 AM 7.77 45.986 0.102 7.22 4.65 11.04
5/12/2021 2:00:00 AM 7.69 45.842 0.102 7.22 4.35 11.06
5/12/2021 2:15:00 AM 7.61 45.698 0.103 7.22 4.46 11.09
5/12/2021 2:30:00 AM 7.53 45.554 0.103 7.23 4.57 11.1
5/12/2021 2:45:00 AM 7.45 45.41 0.103 7.22 4.51 11.12
5/12/2021 3:00:00 AM 7.38 45.284 0.103 7.22 4.87 11.15
5/12/2021 3:15:00 AM 7.31 45.158 0.103 7.21 4.29 11.16
5/12/2021 3:30:00 AM 7.25 45.05 0.103 7.23 4.56 11.18
5/12/2021 3:45:00 AM 7.21 44.978 0.103 7.23 4.56 11.2
5/12/2021 4:00:00 AM 7.17 44.906 0.103 7.22 4.26 11.22
5/12/2021 4:15:00 AM 7.14 44.852 0.103 7.24 4.26 11.23
5/12/2021 4:30:00 AM 7.11 44.798 0.104 7.25 4.16 11.24
5/12/2021 4:45:00 AM 7.08 44.744 0.104 7.25 4.57 11.25
5/12/2021 5:00:00 AM 7.06 44.708 0.104 7.25 4.55 11.27
5/12/2021 5:15:00 AM 7.03 44.654 0.104 7.24 4.1 11.27
5/12/2021 5:30:00 AM 7 44.6 0.104 7.25 4.36 11.28
5/12/2021 5:45:00 AM 6.98 44.564 0.104 7.25 4.3 11.29
5/12/2021 6:00:00 AM 6.95 44.51 0.104 7.26 4.31 11.31
5/12/2021 6:15:00 AM 6.93 44.474 0.104 7.26 4.36 11.32
5/12/2021 6:30:00 AM 6.92 44.456 0.104 7.26 4.18 11.34
5/12/2021 6:45:00 AM 6.91 44.438 0.104 7.28 4.49 11.37
5/12/2021 7:00:00 AM 6.9 44.42 0.105 7.27 4.44 11.4
5/12/2021 7:15:00 AM 6.89 44.402 0.105 7.28 4.37 11.43
5/12/2021 7:30:00 AM 6.89 44.402 0.105 7.29 4.5 11.47
5/12/2021 7:45:00 AM 6.9 44.42 0.105 7.3 4.05 11.51
5/12/2021 8:00:00 AM 6.92 44.456 0.105 7.32 4.22 11.56
5/12/2021 8:15:00 AM 6.94 44.492 0.105 7.33 3.86 11.61
5/12/2021 8:30:00 AM 6.97 44.546 0.105 7.36 4.09 11.64
5/12/2021 8:45:00 AM 7.03 44.654 0.105 7.36 3.9 11.68
5/12/2021 9:00:00 AM 7.1 44.78 0.105 7.39 3.82 11.71
5/12/2021 9:15:00 AM 7.18 44.924 0.105 7.4 3.93 11.74
5/12/2021 9:30:00 AM 7.29 45.122 0.105 7.42 3.74 11.76
5/12/2021 9:45:00 AM 7.44 45.392 0.105 7.43 3.81 11.76
5/12/2021 10:00:00 AM 7.55 45.59 0.105 7.45 3.67 11.75
5/12/2021 10:15:00 AM 7.68 45.824 0.105 7.44 3.68 11.74
5/12/2021 10:30:00 AM 7.86 46.148 0.105 7.46 3.65 11.73
5/12/2021 10:45:00 AM 8.07 46.526 0.105 7.48 3.44 11.71
5/12/2021 11:00:00 AM 8.3 46.94 0.105 7.48 3.48 11.68
5/12/2021 11:15:00 AM 8.54 47.372 0.105 7.49 3.55 11.65
5/12/2021 11:30:00 AM 8.82 47.876 0.105 7.5 3.5 11.6
5/12/2021 11:45:00 AM 9.09 48.362 0.105 7.51 3.54 11.57
5/12/2021 12:00:00 PM 9.38 48.884 0.105 7.53 3.48 11.52
5/12/2021 12:15:00 PM 9.66 49.388 0.105 7.54 3.55 11.48
5/12/2021 12:30:00 PM 9.95 49.91 0.105 7.55 3.5 11.43
5/12/2021 12:45:00 PM 10.22 50.396 0.106 7.57 3.48 11.38
5/12/2021 1:00:00 PM 10.48 50.864 0.106 7.57 3.57 11.33
5/12/2021 1:15:00 PM 10.72 51.296 0.106 7.58 4.09 11.27
5/12/2021 1:30:00 PM 10.76 51.368 0.106 7.57 3.51 11.2
5/12/2021 1:45:00 PM 10.84 51.512 0.106 7.57 3.47 11.15
5/12/2021 2:00:00 PM 10.83 51.494 0.106 7.57 3.49 11.11
5/12/2021 2:15:00 PM 10.92 51.656 0.106 7.58 3.56 11.08
5/12/2021 2:30:00 PM 10.9 51.62 0.106 7.56 3.48 11.04
5/12/2021 2:45:00 PM 11.07 51.926 0.106 7.56 3.56 11.02
5/12/2021 3:00:00 PM 11.15 52.07 0.106 7.56 3.5 10.99
5/12/2021 3:15:00 PM 11.15 52.07 0.106 7.55 3.51 10.98
5/12/2021 3:30:00 PM 11.12 52.016 0.106 7.55 3.73 10.94
5/12/2021 3:45:00 PM 11.2 52.16 0.106 7.55 3.51 10.94
5/12/2021 4:00:00 PM 11.23 52.214 0.107 7.55 3.61 10.93
5/12/2021 4:15:00 PM 11.27 52.286 0.107 7.56 3.57 10.92
5/12/2021 4:30:00 PM 11.31 52.358 0.107 7.57 3.56 10.9
5/12/2021 4:45:00 PM 11.29 52.322 0.107 7.56 3.68 10.86
5/12/2021 5:00:00 PM 11.32 52.376 0.107 7.56 3.66 10.84
5/12/2021 5:15:00 PM 11.26 52.268 0.107 7.56 3.49 10.81
5/12/2021 5:30:00 PM 11.24 52.232 0.107 7.54 3.76 10.78
5/12/2021 5:45:00 PM 11.25 52.25 0.107 7.54 3.6 10.75
5/12/2021 6:00:00 PM 11.24 52.232 0.107 7.53 3.47 10.72
5/12/2021 6:15:00 PM 11.24 52.232 0.108 7.53 3.55 10.68
5/12/2021 6:30:00 PM 11.23 52.214 0.108 7.51 3.44 10.65
5/12/2021 6:45:00 PM 11.2 52.16 0.108 7.5 3.81 10.6
5/12/2021 7:00:00 PM 11.16 52.088 0.108 7.49 3.73 10.57
5/12/2021 7:15:00 PM 11.09 51.962 0.108 7.47 3.73 10.53
5/12/2021 7:30:00 PM 11.02 51.836 0.108 7.45 3.75 10.5
5/12/2021 7:45:00 PM 10.96 51.728 0.109 7.44 3.61 10.48
5/12/2021 8:00:00 PM 10.91 51.638 0.109 7.42 3.75 10.45
5/12/2021 8:15:00 PM 10.84 51.512 0.109 7.41 3.85 10.44
5/12/2021 8:30:00 PM 10.78 51.404 0.109 7.4 3.96 10.42
5/12/2021 8:45:00 PM 10.71 51.278 0.109 7.38 3.81 10.41
5/12/2021 9:00:00 PM 10.64 51.152 0.109 7.38 4 10.39
5/12/2021 9:15:00 PM 10.59 51.062 0.109 7.36 3.96 10.38
5/12/2021 9:30:00 PM 10.53 50.954 0.11 7.36 3.85 10.37
5/12/2021 9:45:00 PM 10.48 50.864 0.11 7.35 4.12 10.37
5/12/2021 10:00:00 PM 10.41 50.738 0.11 7.35 4.28 10.37
5/12/2021 10:15:00 PM 10.34 50.612 0.11 7.34 4.41 10.38
5/12/2021 10:30:00 PM 10.27 50.486 0.11 7.33 4.18 10.38
5/12/2021 10:45:00 PM 10.19 50.342 0.11 7.33 4.23 10.4
5/12/2021 11:00:00 PM 10.11 50.198 0.111 7.31 4.26 10.42
5/12/2021 11:15:00 PM 10.04 50.072 0.111 7.31 4.14 10.42
5/12/2021 11:30:00 PM 9.96 49.928 0.111 7.31 4.5 10.44
5/12/2021 11:45:00 PM 9.87 49.766 0.111 7.3 4.19 10.46
5/13/2021 12:00:00 AM 9.78 49.604 0.111 7.3 4.05 10.49
5/13/2021 12:15:00 AM 9.68 49.424 0.111 7.29 4.48 10.51
5/13/2021 12:30:00 AM 9.58 49.244 0.111 7.29 4.18 10.54
5/13/2021 12:45:00 AM 9.47 49.046 0.112 7.29 4.2 10.56
5/13/2021 1:00:00 AM 9.36 48.848 0.112 7.28 3.96 10.59
5/13/2021 1:15:00 AM 9.25 48.65 0.112 7.28 4.34 10.62
5/13/2021 1:30:00 AM 9.14 48.452 0.112 7.28 4.34 10.65
5/13/2021 1:45:00 AM 9.04 48.272 0.112 7.29 4.23 10.68
5/13/2021 2:00:00 AM 8.93 48.074 0.113 7.28 4.89 10.7
5/13/2021 2:15:00 AM 8.82 47.876 0.113 7.28 4.61 10.73
5/13/2021 2:30:00 AM 8.72 47.696 0.113 7.28 4.43 10.76
5/13/2021 2:45:00 AM 8.62 47.516 0.113 7.28 4.35 10.78
5/13/2021 3:00:00 AM 8.51 47.318 0.113 7.28 4.3 10.81
5/13/2021 3:15:00 AM 8.41 47.138 0.113 7.28 4.47 10.84
5/13/2021 3:30:00 AM 8.31 46.958 0.114 7.27 4.88 10.87
5/13/2021 3:45:00 AM 8.22 46.796 0.114 7.28 4.79 10.9
5/13/2021 4:00:00 AM 8.12 46.616 0.114 7.27 4.29 10.93
5/13/2021 4:15:00 AM 8.03 46.454 0.114 7.27 4.04 10.96
5/13/2021 4:30:00 AM 7.94 46.292 0.114 7.27 4.27 10.98
5/13/2021 4:45:00 AM 7.86 46.148 0.114 7.27 4.04 11.01
5/13/2021 5:00:00 AM 7.78 46.004 0.115 7.27 4.27 11.04
5/13/2021 5:15:00 AM 7.7 45.86 0.115 7.28 4.16 11.06
5/13/2021 5:30:00 AM 7.62 45.716 0.115 7.28 4.17 11.08
5/13/2021 5:45:00 AM 7.54 45.572 0.115 7.29 4.21 11.11
5/13/2021 6:00:00 AM 7.47 45.446 0.115 7.29 4.23 11.13
5/13/2021 6:15:00 AM 7.4 45.32 0.116 7.29 4.2 11.17
5/13/2021 6:30:00 AM 7.34 45.212 0.116 7.3 4.03 11.21
5/13/2021 6:45:00 AM 7.28 45.104 0.116 7.3 4.23 11.24
5/13/2021 7:00:00 AM 7.23 45.014 0.116 7.31 4.19 11.28
5/13/2021 7:15:00 AM 7.19 44.942 0.116 7.32 3.83 11.32
5/13/2021 7:30:00 AM 7.16 44.888 0.116 7.34 3.94 11.37
5/13/2021 7:45:00 AM 7.15 44.87 0.116 7.35 4 11.41
5/13/2021 8:00:00 AM 7.17 44.906 0.116 7.36 4.28 11.46
5/13/2021 8:15:00 AM 7.2 44.96 0.116 7.38 3.92 11.5
5/13/2021 8:30:00 AM 7.25 45.05 0.116 7.39 4.03 11.54
5/13/2021 8:45:00 AM 7.32 45.176 0.116 7.41 3.77 11.57
5/13/2021 9:00:00 AM 7.42 45.356 0.116 7.43 3.8 11.61
5/13/2021 9:15:00 AM 7.54 45.572 0.116 7.45 3.64 11.62
5/13/2021 9:30:00 AM 7.68 45.824 0.116 7.46 4 11.64
5/13/2021 9:45:00 AM 7.84 46.112 0.116 7.48 3.5 11.65
5/13/2021 10:00:00 AM 8.02 46.436 0.116 7.51 3.51 11.65
5/13/2021 10:15:00 AM 8.22 46.796 0.116 7.53 3.31 11.64
5/13/2021 10:30:00 AM 8.44 47.192 0.116 7.55 3.43 11.63
5/13/2021 10:45:00 AM 8.68 47.624 0.116 7.56 3.29 11.61
5/13/2021 11:00:00 AM 8.94 48.092 0.116 7.57 3.25 11.59
5/13/2021 11:15:00 AM 9.23 48.614 0.116 7.58 3.36 11.56
5/13/2021 11:30:00 AM 9.54 49.172 0.116 7.61 3.28 11.52
5/13/2021 11:45:00 AM 9.85 49.73 0.116 7.62 3.21 11.48
5/13/2021 12:00:00 PM 10.05 50.09 0.116 7.62 3.23 11.43
5/13/2021 12:15:00 PM 10.2 50.36 0.117 7.63 3.17 11.38
5/13/2021 12:30:00 PM 10.41 50.738 0.117 7.64 3.1 11.34
5/13/2021 12:45:00 PM 10.58 51.044 0.117 7.65 3.31 11.3
5/13/2021 1:00:00 PM 10.79 51.422 0.117 7.66 3.13 11.28
5/13/2021 1:15:00 PM 11.03 51.854 0.117 7.67 3.21 11.24
5/13/2021 1:30:00 PM 11.12 52.016 0.117 7.68 3.16 11.2
5/13/2021 1:45:00 PM 11.27 52.286 0.117 7.68 3.16 11.16
5/13/2021 2:00:00 PM 11.21 52.178 0.117 7.67 3.21 11.12
5/13/2021 2:15:00 PM 11.26 52.268 0.117 7.67 3.2 11.11
5/13/2021 2:30:00 PM 11.36 52.448 0.117 7.68 3.14 11.09
5/13/2021 2:45:00 PM 11.42 52.556 0.117 7.68 3.09 11.04
5/13/2021 3:00:00 PM 11.42 52.556 0.117 7.66 3.08 11.01
5/13/2021 3:15:00 PM 11.53 52.754 0.117 7.66 3.09 10.99
5/13/2021 3:30:00 PM 11.6 52.88 0.118 7.66 3.15 10.97
5/13/2021 3:45:00 PM 11.58 52.844 0.118 7.67 3.27 10.95
5/13/2021 4:00:00 PM 11.61 52.898 0.118 7.67 3.09 10.94
5/13/2021 4:15:00 PM 11.61 52.898 0.118 7.67 3.15 10.89
5/13/2021 4:30:00 PM 11.63 52.934 0.118 7.65 3.23 10.85
5/13/2021 4:45:00 PM 11.64 52.952 0.119 7.65 3.26 10.82
5/13/2021 5:00:00 PM 11.63 52.934 0.119 7.65 3.34 10.79
5/13/2021 5:15:00 PM 11.63 52.934 0.119 7.64 3.25 10.73
5/13/2021 5:30:00 PM 11.59 52.862 0.119 7.62 3.21 10.69
5/13/2021 5:45:00 PM 11.54 52.772 0.119 7.61 3.31 10.66
5/13/2021 6:00:00 PM 11.49 52.682 0.119 7.59 3.18 10.63
5/13/2021 6:15:00 PM 11.48 52.664 0.119 7.58 3.61 10.59
5/13/2021 6:30:00 PM 11.48 52.664 0.119 7.57 3.32 10.55
5/13/2021 6:45:00 PM 11.45 52.61 0.12 7.56 3.28 10.51
5/13/2021 7:00:00 PM 11.4 52.52 0.12 7.54 3.43 10.48
5/13/2021 7:15:00 PM 11.34 52.412 0.12 7.53 3.47 10.45
5/13/2021 7:30:00 PM 11.29 52.322 0.12 7.51 3.28 10.42
5/13/2021 7:45:00 PM 11.26 52.268 0.12 7.5 3.51 10.39
5/13/2021 8:00:00 PM 11.23 52.214 0.12 7.49 3.42 10.37
5/13/2021 8:15:00 PM 11.2 52.16 0.12 7.48 3.61 10.34
5/13/2021 8:30:00 PM 11.16 52.088 0.12 7.47 3.45 10.31
5/13/2021 8:45:00 PM 11.12 52.016 0.12 7.45 3.55 10.28
5/13/2021 9:00:00 PM 11.09 51.962 0.12 7.44 3.76 10.26
5/13/2021 9:15:00 PM 11.05 51.89 0.12 7.43 3.62 10.25
5/13/2021 9:30:00 PM 11.01 51.818 0.121 7.42 3.99 10.24
5/13/2021 9:45:00 PM 10.96 51.728 0.121 7.42 3.83 10.23
5/13/2021 10:00:00 PM 10.9 51.62 0.121 7.41 3.97 10.23
5/13/2021 10:15:00 PM 10.83 51.494 0.121 7.4 3.82 10.24
5/13/2021 10:30:00 PM 10.77 51.386 0.121 7.39 3.66 10.25
5/13/2021 10:45:00 PM 10.7 51.26 0.121 7.38 3.78 10.26
5/13/2021 11:00:00 PM 10.62 51.116 0.121 7.38 4.07 10.27
5/13/2021 11:15:00 PM 10.54 50.972 0.121 7.37 3.85 10.28
5/13/2021 11:30:00 PM 10.46 50.828 0.122 7.37 3.79 10.29
5/13/2021 11:45:00 PM 10.38 50.684 0.122 7.37 3.86 10.31
5/14/2021 12:00:00 AM 10.3 50.54 0.122 7.36 4.15 10.33
5/14/2021 12:15:00 AM 10.21 50.378 0.122 7.36 3.84 10.35
5/14/2021 12:30:00 AM 10.13 50.234 0.122 7.36 3.94 10.38
5/14/2021 12:45:00 AM 10.05 50.09 0.122 7.35 3.85 10.39
5/14/2021 1:00:00 AM 9.96 49.928 0.123 7.35 3.84 10.41
5/14/2021 1:15:00 AM 9.86 49.748 0.123 7.35 3.98 10.43
5/14/2021 1:30:00 AM 9.77 49.586 0.123 7.35 3.69 10.46
5/14/2021 1:45:00 AM 9.67 49.406 0.123 7.35 3.66 10.48
5/14/2021 2:00:00 AM 9.57 49.226 0.123 7.34 3.85 10.51
5/14/2021 2:15:00 AM 9.48 49.064 0.123 7.34 3.68 10.53
5/14/2021 2:30:00 AM 9.39 48.902 0.124 7.33 3.69 10.56
5/14/2021 2:45:00 AM 9.3 48.74 0.124 7.33 3.85 10.58
5/14/2021 3:00:00 AM 9.21 48.578 0.124 7.33 3.72 10.61
5/14/2021 3:15:00 AM 9.12 48.416 0.124 7.33 3.57 10.63
5/14/2021 3:30:00 AM 9.03 48.254 0.124 7.33 3.88 10.65
5/14/2021 3:45:00 AM 8.94 48.092 0.125 7.33 3.54 10.68
5/14/2021 4:00:00 AM 8.85 47.93 0.125 7.32 3.79 10.7
5/14/2021 4:15:00 AM 8.76 47.768 0.125 7.32 3.6 10.72
5/14/2021 4:30:00 AM 8.67 47.606 0.125 7.32 3.6 10.74
5/14/2021 4:45:00 AM 8.59 47.462 0.125 7.32 3.8 10.77
5/14/2021 5:00:00 AM 8.5 47.3 0.125 7.32 3.78 10.79
5/14/2021 5:15:00 AM 8.41 47.138 0.126 7.32 3.81 10.83
5/14/2021 5:30:00 AM 8.33 46.994 0.126 7.32 4.02 10.85
5/14/2021 5:45:00 AM 8.25 46.85 0.126 7.32 3.83 10.88
5/14/2021 6:00:00 AM 8.17 46.706 0.126 7.33 3.84 10.9
5/14/2021 6:15:00 AM 8.08 46.544 0.126 7.33 3.73 10.94
5/14/2021 6:30:00 AM 8.01 46.418 0.126 7.33 3.61 10.98
5/14/2021 6:45:00 AM 7.94 46.292 0.127 7.34 3.65 11.02
5/14/2021 7:00:00 AM 7.88 46.184 0.127 7.35 3.58 11.07
5/14/2021 7:15:00 AM 7.83 46.094 0.127 7.35 3.55 11.12
5/14/2021 7:30:00 AM 7.79 46.022 0.127 7.37 3.75 11.17
5/14/2021 7:45:00 AM 7.76 45.968 0.127 7.37 3.49 11.22
5/14/2021 8:00:00 AM 7.76 45.968 0.127 7.39 3.47 11.27
5/14/2021 8:15:00 AM 7.77 45.986 0.127 7.4 3.61 11.31
5/14/2021 8:30:00 AM 7.81 46.058 0.127 7.42 3.57 11.35
5/14/2021 8:45:00 AM 7.87 46.166 0.127 7.44 3.28 11.4
5/14/2021 9:00:00 AM 7.96 46.328 0.127 7.46 3.51 11.43
5/14/2021 9:15:00 AM 8.09 46.562 0.127 7.48 3.36 11.46
5/14/2021 9:30:00 AM 8.24 46.832 0.127 7.5 3.25 11.48
5/14/2021 9:45:00 AM 8.42 47.156 0.127 7.52 3.73 11.49
5/14/2021 10:00:00 AM 8.62 47.516 0.127 7.54 3.25 11.49
5/14/2021 10:15:00 AM 8.85 47.93 0.127 7.56 3.24 11.48
5/14/2021 10:30:00 AM 9.09 48.362 0.127 7.58 3.07 11.47
5/14/2021 10:45:00 AM 9.35 48.83 0.127 7.6 3.13 11.45
5/14/2021 11:00:00 AM 9.63 49.334 0.127 7.62 3.03 11.42
5/14/2021 11:15:00 AM 9.93 49.874 0.127 7.64 3.13 11.39
5/14/2021 11:30:00 AM 10.24 50.432 0.127 7.67 3.11 11.35
5/14/2021 11:45:00 AM 10.56 51.008 0.127 7.69 3.17 11.3
5/14/2021 12:00:00 PM 10.89 51.602 0.127 7.71 3.2 11.26
5/14/2021 12:15:00 PM 11.24 52.232 0.127 7.72 3.06 11.2
5/14/2021 12:30:00 PM 11.59 52.862 0.127 7.74 2.99 11.16
5/14/2021 12:45:00 PM 11.92 53.456 0.128 7.76 3 11.1
5/14/2021 1:00:00 PM 12.14 53.852 0.128 7.76 2.9 11.03
5/14/2021 1:15:00 PM 12.38 54.284 0.128 7.78 3.04 10.99
5/14/2021 1:30:00 PM 12.7 54.86 0.128 7.8 2.89 10.95
5/14/2021 1:45:00 PM 12.98 55.364 0.128 7.81 2.99 10.9
5/14/2021 2:00:00 PM 13.24 55.832 0.128 7.83 2.97 10.85
5/14/2021 2:15:00 PM 13.3 55.94 0.128 7.84 2.96 10.79
5/14/2021 2:30:00 PM 13.26 55.868 0.128 7.82 3.03 10.76
5/14/2021 2:45:00 PM 13.41 56.138 0.128 7.84 2.92 10.76
5/14/2021 3:00:00 PM 13.43 56.174 0.128 7.84 2.92 10.75
5/14/2021 3:15:00 PM 13.48 56.264 0.128 7.84 2.89 10.72
5/14/2021 3:30:00 PM 13.61 56.498 0.128 7.85 2.88 10.69
5/14/2021 3:45:00 PM 13.79 56.822 0.128 7.86 2.99 10.64
5/14/2021 4:00:00 PM 13.9 57.02 0.129 7.86 2.88 10.59
5/14/2021 4:15:00 PM 13.92 57.056 0.129 7.86 3.08 10.55
5/14/2021 4:30:00 PM 13.9 57.02 0.129 7.84 3.01 10.5
5/14/2021 4:45:00 PM 13.84 56.912 0.129 7.82 3.04 10.46
5/14/2021 5:00:00 PM 13.77 56.786 0.129 7.8 3.07 10.41
5/14/2021 5:15:00 PM 13.69 56.642 0.129 7.78 3.13 10.35
5/14/2021 5:30:00 PM 13.64 56.552 0.129 7.76 3.08 10.3
5/14/2021 5:45:00 PM 13.58 56.444 0.13 7.74 3.06 10.25
5/14/2021 6:00:00 PM 13.52 56.336 0.13 7.72 3.06 10.2
5/14/2021 6:15:00 PM 13.46 56.228 0.13 7.69 3.16 10.15
5/14/2021 6:30:00 PM 13.39 56.102 0.13 7.67 3.16 10.11
5/14/2021 6:45:00 PM 13.31 55.958 0.13 7.65 3.02 10.08
5/14/2021 7:00:00 PM 13.25 55.85 0.131 7.63 3.11 10.04
5/14/2021 7:15:00 PM 13.19 55.742 0.131 7.61 3.06 10
5/14/2021 7:30:00 PM 13.14 55.652 0.131 7.59 3.08 9.96
5/14/2021 7:45:00 PM 13.09 55.562 0.131 7.57 3.18 9.93
5/14/2021 8:00:00 PM 13.04 55.472 0.131 7.56 3.19 9.9
5/14/2021 8:15:00 PM 12.99 55.382 0.131 7.55 3.36 9.88
5/14/2021 8:30:00 PM 12.93 55.274 0.131 7.53 3.25 9.85
5/14/2021 8:45:00 PM 12.87 55.166 0.131 7.51 3.28 9.83
5/14/2021 9:00:00 PM 12.79 55.022 0.131 7.5 3.28 9.81
5/14/2021 9:15:00 PM 12.72 54.896 0.131 7.49 3.37 9.8
5/14/2021 9:30:00 PM 12.65 54.77 0.131 7.48 3.55 9.79
5/14/2021 9:45:00 PM 12.58 54.644 0.132 7.47 3.5 9.79
5/14/2021 10:00:00 PM 12.51 54.518 0.132 7.46 3.5 9.8
5/14/2021 10:15:00 PM 12.44 54.392 0.132 7.46 3.44 9.79
5/14/2021 10:30:00 PM 12.37 54.266 0.132 7.44 3.67 9.8
5/14/2021 10:45:00 PM 12.3 54.14 0.132 7.44 4.25 9.81
5/14/2021 11:00:00 PM 12.23 54.014 0.132 7.44 3.78 9.81
5/14/2021 11:15:00 PM 12.15 53.87 0.132 7.44 3.7 9.83
5/14/2021 11:30:00 PM 12.08 53.744 0.132 7.44 3.82 9.84
5/14/2021 11:45:00 PM 12.01 53.618 0.132 7.43 4.1 9.85
5/15/2021 12:00:00 AM 11.93 53.474 0.132 7.43 3.96 9.87
5/15/2021 12:15:00 AM 11.85 53.33 0.133 7.42 3.87 9.88
5/15/2021 12:30:00 AM 11.77 53.186 0.133 7.42 3.56 9.9
5/15/2021 12:45:00 AM 11.69 53.042 0.133 7.41 3.93 9.92
5/15/2021 1:00:00 AM 11.61 52.898 0.133 7.41 3.79 9.94
5/15/2021 1:15:00 AM 11.52 52.736 0.133 7.41 3.85 9.96
5/15/2021 1:30:00 AM 11.42 52.556 0.134 7.41 3.74 9.98
5/15/2021 1:45:00 AM 11.33 52.394 0.134 7.41 3.76 10
5/15/2021 2:00:00 AM 11.23 52.214 0.134 7.4 3.74 10.03
5/15/2021 2:15:00 AM 11.13 52.034 0.134 7.4 3.7 10.05
5/15/2021 2:30:00 AM 11.02 51.836 0.135 7.4 4.04 10.08
5/15/2021 2:45:00 AM 10.92 51.656 0.135 7.4 3.74 10.11
5/15/2021 3:00:00 AM 10.82 51.476 0.135 7.4 3.69 10.13
5/15/2021 3:15:00 AM 10.72 51.296 0.135 7.4 3.86 10.16
5/15/2021 3:30:00 AM 10.62 51.116 0.136 7.4 3.65 10.18
5/15/2021 3:45:00 AM 10.51 50.918 0.136 7.39 3.64 10.22
5/15/2021 4:00:00 AM 10.41 50.738 0.136 7.39 3.65 10.24
5/15/2021 4:15:00 AM 10.31 50.558 0.136 7.39 3.72 10.27
5/15/2021 4:30:00 AM 10.22 50.396 0.136 7.39 3.8 10.3
5/15/2021 4:45:00 AM 10.12 50.216 0.136 7.39 3.92 10.32
5/15/2021 5:00:00 AM 10.03 50.054 0.136 7.39 3.73 10.36
5/15/2021 5:15:00 AM 9.93 49.874 0.137 7.39 3.57 10.38
5/15/2021 5:30:00 AM 9.85 49.73 0.137 7.39 3.79 10.4
5/15/2021 5:45:00 AM 9.76 49.568 0.137 7.39 3.72 10.44
5/15/2021 6:00:00 AM 9.68 49.424 0.137 7.39 3.85 10.47
5/15/2021 6:15:00 AM 9.6 49.28 0.137 7.39 3.7 10.49
5/15/2021 6:30:00 AM 9.53 49.154 0.137 7.4 3.78 10.54
5/15/2021 6:45:00 AM 9.46 49.028 0.138 7.4 3.74 10.58
5/15/2021 7:00:00 AM 9.4 48.92 0.138 7.41 3.62 10.63
5/15/2021 7:15:00 AM 9.33 48.794 0.138 7.42 3.6 10.68
5/15/2021 7:30:00 AM 9.28 48.704 0.138 7.43 3.57 10.73
5/15/2021 7:45:00 AM 9.24 48.632 0.138 7.44 3.5 10.79
5/15/2021 8:00:00 AM 9.22 48.596 0.138 7.45 3.5 10.85
5/15/2021 8:15:00 AM 9.24 48.632 0.138 7.47 3.47 10.91
5/15/2021 8:30:00 AM 9.29 48.722 0.138 7.5 3.56 10.99
5/15/2021 8:45:00 AM 9.34 48.812 0.139 7.52 3.44 11.04
5/15/2021 9:00:00 AM 9.4 48.92 0.139 7.54 3.3 11.08
5/15/2021 9:15:00 AM 9.51 49.118 0.139 7.57 3.48 11.12
5/15/2021 9:30:00 AM 9.61 49.298 0.139 7.59 3.3 11.14
5/15/2021 9:45:00 AM 9.74 49.532 0.139 7.61 3.29 11.16
5/15/2021 10:00:00 AM 9.92 49.856 0.139 7.63 3.27 11.17
5/15/2021 10:15:00 AM 10.11 50.198 0.139 7.65 3.27 11.17
5/15/2021 10:30:00 AM 10.33 50.594 0.139 7.67 3.22 11.17
5/15/2021 10:45:00 AM 10.55 50.99 0.139 7.69 3.28 11.15
5/15/2021 11:00:00 AM 10.81 51.458 0.139 7.71 3.31 11.14
5/15/2021 11:15:00 AM 11.08 51.944 0.139 7.73 3.17 11.12
5/15/2021 11:30:00 AM 11.37 52.466 0.139 7.75 3.26 11.09
5/15/2021 11:45:00 AM 11.67 53.006 0.139 7.77 3.11 11.06
5/15/2021 12:00:00 PM 12 53.6 0.139 7.79 3.23 11.02
5/15/2021 12:15:00 PM 12.31 54.158 0.139 7.81 3.17 10.98
5/15/2021 12:30:00 PM 12.51 54.518 0.139 7.82 3.07 10.89
5/15/2021 12:45:00 PM 12.6 54.68 0.139 7.8 3.38 10.79
5/15/2021 1:00:00 PM 12.69 54.842 0.139 7.8 3.1 10.73
5/15/2021 1:15:00 PM 12.7 54.86 0.139 7.8 3.01 10.71
5/15/2021 1:30:00 PM 12.63 54.734 0.139 7.79 3.13 10.67
5/15/2021 1:45:00 PM 12.64 54.752 0.139 7.79 3.22 10.67
5/15/2021 2:00:00 PM 12.67 54.806 0.139 7.8 3.06 10.68
5/15/2021 2:15:00 PM 12.61 54.698 0.139 7.8 3.05 10.67
5/15/2021 2:30:00 PM 12.6 54.68 0.14 7.79 2.98 10.65
5/15/2021 2:45:00 PM 12.65 54.77 0.14 7.8 3 10.66
5/15/2021 3:00:00 PM 12.57 54.626 0.14 7.8 3.09 10.67
5/15/2021 3:15:00 PM 12.58 54.644 0.14 7.81 3.09 10.69
5/15/2021 3:30:00 PM 12.56 54.608 0.14 7.81 3.04 10.69
5/15/2021 3:45:00 PM 12.52 54.536 0.14 7.81 3.05 10.69
5/15/2021 4:00:00 PM 12.53 54.554 0.14 7.82 3.05 10.69
5/15/2021 4:15:00 PM 12.61 54.698 0.14 7.82 3.18 10.69
5/15/2021 4:30:00 PM 12.61 54.698 0.14 7.83 3.18 10.7
5/15/2021 4:45:00 PM 12.64 54.752 0.14 7.83 3.2 10.68
5/15/2021 5:00:00 PM 12.69 54.842 0.14 7.84 3.02 10.67
5/15/2021 5:15:00 PM 12.66 54.788 0.14 7.83 3.13 10.63
5/15/2021 5:30:00 PM 12.66 54.788 0.14 7.82 3.03 10.61
5/15/2021 5:45:00 PM 12.64 54.752 0.14 7.81 3.07 10.6
5/15/2021 6:00:00 PM 12.6 54.68 0.14 7.8 3.04 10.58
5/15/2021 6:15:00 PM 12.6 54.68 0.14 7.79 3.18 10.55
5/15/2021 6:30:00 PM 12.59 54.662 0.14 7.78 3.12 10.51
5/15/2021 6:45:00 PM 12.58 54.644 0.141 7.76 3.04 10.47
5/15/2021 7:00:00 PM 12.57 54.626 0.141 7.74 3.16 10.4
5/15/2021 7:15:00 PM 12.55 54.59 0.141 7.72 3.23 10.36
5/15/2021 7:30:00 PM 12.53 54.554 0.141 7.69 3.15 10.3
5/15/2021 7:45:00 PM 12.49 54.482 0.141 7.66 3.45 10.24
5/15/2021 8:00:00 PM 12.44 54.392 0.141 7.64 3.11 10.19
5/15/2021 8:15:00 PM 12.39 54.302 0.141 7.62 3.19 10.14
5/15/2021 8:30:00 PM 12.33 54.194 0.142 7.6 3.19 10.1
5/15/2021 8:45:00 PM 12.27 54.086 0.142 7.57 3.29 10.06
5/15/2021 9:00:00 PM 12.2 53.96 0.142 7.55 3.28 10.02
5/15/2021 9:15:00 PM 12.14 53.852 0.142 7.53 3.4 9.99
5/15/2021 9:30:00 PM 12.07 53.726 0.143 7.52 3.64 9.97
5/15/2021 9:45:00 PM 12 53.6 0.143 7.51 3.59 9.97
5/15/2021 10:00:00 PM 11.94 53.492 0.143 7.49 3.43 9.96
5/15/2021 10:15:00 PM 11.86 53.348 0.143 7.49 3.4 9.96
5/15/2021 10:30:00 PM 11.79 53.222 0.143 7.48 3.44 9.97
5/15/2021 10:45:00 PM 11.72 53.096 0.143 7.47 3.46 9.97
5/15/2021 11:00:00 PM 11.65 52.97 0.143 7.46 3.38 9.98
5/15/2021 11:15:00 PM 11.58 52.844 0.144 7.46 3.54 9.99
5/15/2021 11:30:00 PM 11.51 52.718 0.144 7.45 3.68 9.99
5/15/2021 11:45:00 PM 11.45 52.61 0.144 7.45 3.68 10
5/16/2021 12:00:00 AM 11.38 52.484 0.144 7.45 3.71 10.01
5/16/2021 12:15:00 AM 11.3 52.34 0.144 7.44 4.23 10.01
5/16/2021 12:30:00 AM 11.22 52.196 0.144 7.43 3.81 10.03
5/16/2021 12:45:00 AM 11.15 52.07 0.145 7.43 3.77 10.05
5/16/2021 1:00:00 AM 11.07 51.926 0.145 7.43 3.73 10.07
5/16/2021 1:15:00 AM 11 51.8 0.145 7.43 3.69 10.09
5/16/2021 1:30:00 AM 10.93 51.674 0.145 7.42 3.77 10.11
5/16/2021 1:45:00 AM 10.86 51.548 0.145 7.42 3.72 10.12
5/16/2021 2:00:00 AM 10.8 51.44 0.145 7.42 3.66 10.14
5/16/2021 2:15:00 AM 10.74 51.332 0.145 7.42 3.65 10.16
5/16/2021 2:30:00 AM 10.67 51.206 0.146 7.42 3.61 10.17
5/16/2021 2:45:00 AM 10.61 51.098 0.146 7.42 3.55 10.19
5/16/2021 3:00:00 AM 10.54 50.972 0.146 7.41 3.57 10.2
5/16/2021 3:15:00 AM 10.47 50.846 0.146 7.41 3.53 10.22
5/16/2021 3:30:00 AM 10.4 50.72 0.146 7.41 3.44 10.24
5/16/2021 3:45:00 AM 10.33 50.594 0.146 7.41 3.55 10.26
5/16/2021 4:00:00 AM 10.25 50.45 0.147 7.41 3.62 10.28
5/16/2021 4:15:00 AM 10.18 50.324 0.147 7.41 3.86 10.29
5/16/2021 4:30:00 AM 10.1 50.18 0.147 7.41 3.96 10.31
5/16/2021 4:45:00 AM 10.03 50.054 0.147 7.41 3.86 10.34
5/16/2021 5:00:00 AM 9.95 49.91 0.147 7.41 3.68 10.35
5/16/2021 5:15:00 AM 9.87 49.766 0.147 7.41 3.66 10.38
5/16/2021 5:30:00 AM 9.79 49.622 0.148 7.41 3.6 10.4
5/16/2021 5:45:00 AM 9.72 49.496 0.148 7.41 3.61 10.43
5/16/2021 6:00:00 AM 9.64 49.352 0.148 7.41 3.61 10.45
5/16/2021 6:15:00 AM 9.57 49.226 0.148 7.41 3.54 10.48
5/16/2021 6:30:00 AM 9.51 49.118 0.148 7.42 3.45 10.52
5/16/2021 6:45:00 AM 9.45 49.01 0.148 7.43 3.59 10.57
5/16/2021 7:00:00 AM 9.42 48.956 0.148 7.44 3.48 10.63
5/16/2021 7:15:00 AM 9.38 48.884 0.149 7.45 3.52 10.68
5/16/2021 7:30:00 AM 9.35 48.83 0.149 7.46 3.48 10.74
5/16/2021 7:45:00 AM 9.35 48.83 0.149 7.48 3.34 10.8
5/16/2021 8:00:00 AM 9.36 48.848 0.149 7.5 3.33 10.85
5/16/2021 8:15:00 AM 9.37 48.866 0.149 7.52 3.31 10.9
5/16/2021 8:30:00 AM 9.42 48.956 0.149 7.54 3.34 10.96
5/16/2021 8:45:00 AM 9.52 49.136 0.149 7.57 3.3 11.02
5/16/2021 9:00:00 AM 9.63 49.334 0.149 7.59 3.35 11.08
5/16/2021 9:15:00 AM 9.74 49.532 0.149 7.62 3.31 11.12
5/16/2021 9:30:00 AM 9.88 49.784 0.149 7.64 3.24 11.15
5/16/2021 9:45:00 AM 10 50 0.149 7.67 3.19 11.18
5/16/2021 10:00:00 AM 10.17 50.306 0.149 7.69 3.11 11.2
5/16/2021 10:15:00 AM 10.33 50.594 0.148 7.71 3.2 11.2
5/16/2021 10:30:00 AM 10.52 50.936 0.148 7.74 3.28 11.21
5/16/2021 10:45:00 AM 10.75 51.35 0.148 7.76 3.18 11.21
5/16/2021 11:00:00 AM 10.97 51.746 0.148 7.79 3.09 11.2
5/16/2021 11:15:00 AM 11.12 52.016 0.148 7.8 3.3 11.17
5/16/2021 11:30:00 AM 11.27 52.286 0.148 7.81 3.1 11.14
5/16/2021 11:45:00 AM 11.42 52.556 0.148 7.83 3.13 11.13
5/16/2021 12:00:00 PM 11.54 52.772 0.148 7.84 3.18 11.12
5/16/2021 12:15:00 PM 11.69 53.042 0.149 7.86 3.07 11.12
5/16/2021 12:30:00 PM 11.92 53.456 0.149 7.89 3.12 11.1
5/16/2021 12:45:00 PM 12.17 53.906 0.149 7.91 3.16 11.09
5/16/2021 1:00:00 PM 12.41 54.338 0.149 7.93 3.1 11.06
5/16/2021 1:15:00 PM 12.66 54.788 0.149 7.94 3 11.02
5/16/2021 1:30:00 PM 12.96 55.328 0.149 7.96 2.95 10.97
5/16/2021 1:45:00 PM 13.19 55.742 0.149 7.97 3.09 10.91
5/16/2021 2:00:00 PM 13.48 56.264 0.149 7.98 3.05 10.87
5/16/2021 2:15:00 PM 13.67 56.606 0.149 7.99 3.06 10.83
5/16/2021 2:30:00 PM 13.89 57.002 0.149 8 2.94 10.78
5/16/2021 2:45:00 PM 14.04 57.272 0.149 8 3 10.73
5/16/2021 3:00:00 PM 14.04 57.272 0.149 7.99 3.04 10.65
5/16/2021 3:15:00 PM 14.08 57.344 0.149 7.98 3.05 10.58
5/16/2021 3:30:00 PM 14.09 57.362 0.149 7.97 2.93 10.52
5/16/2021 3:45:00 PM 14.15 57.47 0.15 7.97 2.99 10.51
5/16/2021 4:00:00 PM 14.09 57.362 0.15 7.97 2.94 10.48
5/16/2021 4:15:00 PM 13.99 57.182 0.15 7.94 3.01 10.42
5/16/2021 4:30:00 PM 13.96 57.128 0.15 7.92 3.06 10.35
5/16/2021 4:45:00 PM 13.93 57.074 0.15 7.9 3.07 10.31
5/16/2021 5:00:00 PM 13.85 56.93 0.15 7.88 3.12 10.29
5/16/2021 5:15:00 PM 13.79 56.822 0.15 7.86 3.2 10.27
5/16/2021 5:30:00 PM 13.7 56.66 0.151 7.85 3.1 10.24
5/16/2021 5:45:00 PM 13.59 56.462 0.151 7.82 3.02 10.17
5/16/2021 6:00:00 PM 13.49 56.282 0.151 7.79 3.22 10.1
5/16/2021 6:15:00 PM 13.4 56.12 0.151 7.76 3.24 10.04
5/16/2021 6:30:00 PM 13.32 55.976 0.151 7.74 3.08 10.01
5/16/2021 6:45:00 PM 13.25 55.85 0.151 7.71 3.24 9.96
5/16/2021 7:00:00 PM 13.18 55.724 0.151 7.69 3.21 9.93
5/16/2021 7:15:00 PM 13.11 55.598 0.152 7.67 3.22 9.9
5/16/2021 7:30:00 PM 13.03 55.454 0.152 7.66 3.25 9.88
5/16/2021 7:45:00 PM 12.95 55.31 0.152 7.64 3.33 9.85
5/16/2021 8:00:00 PM 12.86 55.148 0.152 7.63 3.53 9.83
5/16/2021 8:15:00 PM 12.78 55.004 0.152 7.61 3.35 9.82
5/16/2021 8:30:00 PM 12.7 54.86 0.152 7.6 3.45 9.8
5/16/2021 8:45:00 PM 12.62 54.716 0.152 7.59 3.49 9.8
5/16/2021 9:00:00 PM 12.54 54.572 0.152 7.58 3.39 9.79
5/16/2021 9:15:00 PM 12.47 54.446 0.152 7.57 3.38 9.78
5/16/2021 9:30:00 PM 12.4 54.32 0.152 7.56 3.53 9.78
5/16/2021 9:45:00 PM 12.34 54.212 0.152 7.55 3.66 9.79
5/16/2021 10:00:00 PM 12.28 54.104 0.152 7.54 3.64 9.79
5/16/2021 10:15:00 PM 12.23 54.014 0.152 7.54 3.45 9.8
5/16/2021 10:30:00 PM 12.17 53.906 0.152 7.53 3.62 9.8
5/16/2021 10:45:00 PM 12.11 53.798 0.153 7.53 3.47 9.81
5/16/2021 11:00:00 PM 12.06 53.708 0.153 7.52 3.4 9.81
5/16/2021 11:15:00 PM 12 53.6 0.153 7.52 3.58 9.82
5/16/2021 11:30:00 PM 11.95 53.51 0.153 7.52 3.71 9.83
5/16/2021 11:45:00 PM 11.89 53.402 0.153 7.51 3.68 9.83
5/17/2021 12:00:00 AM 11.84 53.312 0.153 7.51 4.23 9.84
5/17/2021 12:15:00 AM 11.78 53.204 0.153 7.51 4.1 9.85
5/17/2021 12:30:00 AM 11.73 53.114 0.153 7.5 3.67 9.86
5/17/2021 12:45:00 AM 11.68 53.024 0.154 7.5 3.73 9.88
5/17/2021 1:00:00 AM 11.63 52.934 0.154 7.5 4.47 9.89
5/17/2021 1:15:00 AM 11.58 52.844 0.154 7.49 3.99 9.9
5/17/2021 1:30:00 AM 11.53 52.754 0.154 7.49 3.69 9.92
5/17/2021 1:45:00 AM 11.47 52.646 0.154 7.49 3.7 9.93
5/17/2021 2:00:00 AM 11.42 52.556 0.155 7.49 3.62 9.95
5/17/2021 2:15:00 AM 11.37 52.466 0.155 7.49 3.79 9.97
5/17/2021 2:30:00 AM 11.32 52.376 0.155 7.49 3.65 9.97
5/17/2021 2:45:00 AM 11.28 52.304 0.155 7.49 3.64 9.99
5/17/2021 3:00:00 AM 11.23 52.214 0.155 7.49 3.61 10.01
5/17/2021 3:15:00 AM 11.18 52.124 0.155 7.49 3.65 10.02
5/17/2021 3:30:00 AM 11.13 52.034 0.156 7.48 3.63 10.03
5/17/2021 3:45:00 AM 11.08 51.944 0.156 7.48 3.56 10.04
5/17/2021 4:00:00 AM 11.04 51.872 0.156 7.48 3.63 10.06
5/17/2021 4:15:00 AM 10.99 51.782 0.156 7.48 3.74 10.07
5/17/2021 4:30:00 AM 10.93 51.674 0.156 7.48 3.68 10.08
5/17/2021 4:45:00 AM 10.88 51.584 0.156 7.48 3.77 10.09
5/17/2021 5:00:00 AM 10.81 51.458 0.157 7.48 3.81 10.1
5/17/2021 5:15:00 AM 10.75 51.35 0.157 7.48 3.69 10.12
5/17/2021 5:30:00 AM 10.68 51.224 0.157 7.48 3.69 10.14
5/17/2021 5:45:00 AM 10.62 51.116 0.157 7.48 3.82 10.15
5/17/2021 6:00:00 AM 10.55 50.99 0.157 7.48 3.76 10.18
5/17/2021 6:15:00 AM 10.49 50.882 0.157 7.48 3.6 10.21
5/17/2021 6:30:00 AM 10.42 50.756 0.157 7.49 3.56 10.25
5/17/2021 6:45:00 AM 10.36 50.648 0.158 7.49 3.54 10.29
5/17/2021 7:00:00 AM 10.31 50.558 0.158 7.5 3.41 10.34
5/17/2021 7:15:00 AM 10.27 50.486 0.158 7.51 3.42 10.4
5/17/2021 7:30:00 AM 10.23 50.414 0.158 7.52 3.38 10.44
5/17/2021 7:45:00 AM 10.21 50.378 0.158 7.54 3.4 10.5
5/17/2021 8:00:00 AM 10.2 50.36 0.158 7.55 4.43 10.55
5/17/2021 8:15:00 AM 10.21 50.378 0.158 7.56 3.41 10.6
5/17/2021 8:30:00 AM 10.24 50.432 0.158 7.58 3.46 10.66
5/17/2021 8:45:00 AM 10.3 50.54 0.158 7.59 3.28 10.7
5/17/2021 9:00:00 AM 10.37 50.666 0.158 7.62 3.26 10.75
5/17/2021 9:15:00 AM 10.48 50.864 0.158 7.64 3.31 10.79
5/17/2021 9:30:00 AM 10.6 51.08 0.157 7.66 3.25 10.82
5/17/2021 9:45:00 AM 10.76 51.368 0.157 7.68 3.2 10.85
5/17/2021 10:00:00 AM 10.94 51.692 0.157 7.7 3.18 10.87
5/17/2021 10:15:00 AM 11.14 52.052 0.157 7.72 3.19 10.88
5/17/2021 10:30:00 AM 11.36 52.448 0.157 7.74 3.1 10.89
5/17/2021 10:45:00 AM 11.59 52.862 0.157 7.76 3.12 10.88
5/17/2021 11:00:00 AM 11.87 53.366 0.157 7.79 3.09 10.88
5/17/2021 11:15:00 AM 12.17 53.906 0.157 7.81 3.14 10.87
5/17/2021 11:30:00 AM 12.45 54.41 0.157 7.83 3.19 10.85
5/17/2021 11:45:00 AM 12.77 54.986 0.157 7.86 3.1 10.82
5/17/2021 12:00:00 PM 13.15 55.67 0.157 7.89 3.1 10.8
5/17/2021 12:15:00 PM 13.52 56.336 0.157 7.91 3.23 10.78
5/17/2021 12:30:00 PM 13.88 56.984 0.157 7.93 3.08 10.73
5/17/2021 12:45:00 PM 14.24 57.632 0.157 7.95 3.07 10.69
5/17/2021 1:00:00 PM 14.58 58.244 0.157 7.98 3.09 10.64
5/17/2021 1:15:00 PM 14.83 58.694 0.157 7.98 2.99 10.58
5/17/2021 1:30:00 PM 15.09 59.162 0.157 8 2.93 10.54
5/17/2021 1:45:00 PM 15.37 59.666 0.156 8.01 2.92 10.5
5/17/2021 2:00:00 PM 15.65 60.17 0.156 8.03 3.11 10.45
5/17/2021 2:15:00 PM 15.83 60.494 0.156 8.04 2.85 10.39
5/17/2021 2:30:00 PM 16.06 60.908 0.156 8.05 3.11 10.35
5/17/2021 2:45:00 PM 16.27 61.286 0.157 8.06 3.04 10.32
5/17/2021 3:00:00 PM 16.25 61.25 0.157 8.05 3.04 10.22
5/17/2021 3:15:00 PM 16.33 61.394 0.157 8.03 3.13 10.15
5/17/2021 3:30:00 PM 16.26 61.268 0.157 8.03 2.96 10.1
5/17/2021 3:45:00 PM 16.29 61.322 0.157 8.02 2.97 10.07
5/17/2021 4:00:00 PM 16.41 61.538 0.157 8.03 3 10.08
5/17/2021 4:15:00 PM 16.43 61.574 0.157 8.04 2.92 10.05
5/17/2021 4:30:00 PM 16.42 61.556 0.157 8.03 3.04 10.02
5/17/2021 4:45:00 PM 16.24 61.232 0.157 8.01 3.01 9.95
5/17/2021 5:00:00 PM 16.21 61.178 0.157 7.99 3.12 9.92
5/17/2021 5:15:00 PM 16.14 61.052 0.158 7.98 3.08 9.89
5/17/2021 5:30:00 PM 16 60.8 0.158 7.95 2.98 9.83
5/17/2021 5:45:00 PM 15.85 60.53 0.158 7.92 3.19 9.77
5/17/2021 6:00:00 PM 15.72 60.296 0.158 7.89 3.09 9.72
5/17/2021 6:15:00 PM 15.57 60.026 0.158 7.86 3.16 9.67
5/17/2021 6:30:00 PM 15.42 59.756 0.158 7.83 3.43 9.64
5/17/2021 6:45:00 PM 15.27 59.486 0.158 7.81 3.16 9.63
5/17/2021 7:00:00 PM 15.14 59.252 0.158 7.79 3.09 9.6
5/17/2021 7:15:00 PM 15.03 59.054 0.159 7.76 3.24 9.56
5/17/2021 7:30:00 PM 14.93 58.874 0.159 7.74 3.2 9.53
5/17/2021 7:45:00 PM 14.8 58.64 0.159 7.72 3.27 9.51
5/17/2021 8:00:00 PM 14.67 58.406 0.159 7.7 3.21 9.49
5/17/2021 8:15:00 PM 14.53 58.154 0.159 7.68 3.42 9.47
5/17/2021 8:30:00 PM 14.39 57.902 0.159 7.66 3.33 9.44
5/17/2021 8:45:00 PM 14.26 57.668 0.159 7.64 3.3 9.44
5/17/2021 9:00:00 PM 14.12 57.416 0.159 7.62 3.38 9.43
5/17/2021 9:15:00 PM 13.98 57.164 0.159 7.6 3.4 9.42
5/17/2021 9:30:00 PM 13.86 56.948 0.16 7.59 3.48 9.42
5/17/2021 9:45:00 PM 13.75 56.75 0.16 7.58 3.83 9.43
5/17/2021 10:00:00 PM 13.64 56.552 0.16 7.56 3.82 9.42
5/17/2021 10:15:00 PM 13.54 56.372 0.16 7.56 3.66 9.44
5/17/2021 10:30:00 PM 13.44 56.192 0.16 7.55 3.63 9.45
5/17/2021 10:45:00 PM 13.33 55.994 0.16 7.55 3.8 9.47
5/17/2021 11:00:00 PM 13.22 55.796 0.16 7.55 3.59 9.49
5/17/2021 11:15:00 PM 13.11 55.598 0.16 7.54 3.67 9.51
5/17/2021 11:30:00 PM 13.01 55.418 0.16 7.53 3.32 9.52
5/17/2021 11:45:00 PM 12.91 55.238 0.16 7.53 3.36 9.54
5/18/2021 12:00:00 AM 12.8 55.04 0.16 7.53 3.56 9.56
5/18/2021 12:15:00 AM 12.7 54.86 0.16 7.52 3.79 9.58
5/18/2021 12:30:00 AM 12.6 54.68 0.16 7.51 4.07 9.59
5/18/2021 12:45:00 AM 12.52 54.536 0.16 7.51 4.64 9.61
5/18/2021 1:00:00 AM 12.43 54.374 0.161 7.51 4.13 9.64
5/18/2021 1:15:00 AM 12.34 54.212 0.161 7.51 3.88 9.67
5/18/2021 1:30:00 AM 12.25 54.05 0.161 7.5 3.89 9.68
5/18/2021 1:45:00 AM 12.17 53.906 0.161 7.5 3.65 9.7
5/18/2021 2:00:00 AM 12.09 53.762 0.161 7.5 3.65 9.72
5/18/2021 2:15:00 AM 12 53.6 0.161 7.5 3.64 9.75
5/18/2021 2:30:00 AM 11.92 53.456 0.161 7.5 3.54 9.76
5/18/2021 2:45:00 AM 11.85 53.33 0.161 7.5 3.61 9.78
5/18/2021 3:00:00 AM 11.78 53.204 0.161 7.49 3.76 9.79
5/18/2021 3:15:00 AM 11.7 53.06 0.162 7.48 3.69 9.81
5/18/2021 3:30:00 AM 11.62 52.916 0.162 7.47 3.76 9.83
5/18/2021 3:45:00 AM 11.55 52.79 0.162 7.47 3.58 9.84
5/18/2021 4:00:00 AM 11.47 52.646 0.162 7.47 3.55 9.86
5/18/2021 4:15:00 AM 11.4 52.52 0.162 7.47 3.67 9.89
5/18/2021 4:30:00 AM 11.32 52.376 0.162 7.47 3.78 9.91
5/18/2021 4:45:00 AM 11.24 52.232 0.162 7.48 3.65 9.93
5/18/2021 5:00:00 AM 11.17 52.106 0.162 7.47 3.49 9.95
5/18/2021 5:15:00 AM 11.09 51.962 0.162 7.47 3.7 9.96
5/18/2021 5:30:00 AM 11.01 51.818 0.162 7.48 3.58 9.99
5/18/2021 5:45:00 AM 10.94 51.692 0.162 7.47 3.76 10.01
5/18/2021 6:00:00 AM 10.87 51.566 0.162 7.48 3.7 10.03
5/18/2021 6:15:00 AM 10.81 51.458 0.163 7.48 3.68 10.07
5/18/2021 6:30:00 AM 10.75 51.35 0.163 7.48 3.63 10.1
5/18/2021 6:45:00 AM 10.69 51.242 0.163 7.49 3.71 10.15
5/18/2021 7:00:00 AM 10.65 51.17 0.163 7.5 3.66 10.21
5/18/2021 7:15:00 AM 10.62 51.116 0.163 7.51 3.74 10.27
5/18/2021 7:30:00 AM 10.58 51.044 0.163 7.52 3.63 10.31
5/18/2021 7:45:00 AM 10.57 51.026 0.163 7.53 3.66 10.38
5/18/2021 8:00:00 AM 10.57 51.026 0.163 7.55 3.52 10.44
5/18/2021 8:15:00 AM 10.58 51.044 0.163 7.57 3.46 10.49
5/18/2021 8:30:00 AM 10.61 51.098 0.163 7.58 3.46 10.54
5/18/2021 8:45:00 AM 10.66 51.188 0.163 7.6 3.45 10.59
5/18/2021 9:00:00 AM 10.74 51.332 0.163 7.62 3.34 10.64
5/18/2021 9:15:00 AM 10.86 51.548 0.163 7.65 3.38 10.68
5/18/2021 9:30:00 AM 10.99 51.782 0.163 7.67 3.34 10.72
5/18/2021 9:45:00 AM 11.16 52.088 0.163 7.69 3.37 10.74
5/18/2021 10:00:00 AM 11.35 52.43 0.163 7.72 3.28 10.77
5/18/2021 10:15:00 AM 11.56 52.808 0.163 7.74 3.34 10.79
5/18/2021 10:30:00 AM 11.78 53.204 0.163 7.76 3.38 10.8
5/18/2021 10:45:00 AM 12.03 53.654 0.163 7.78 3.46 10.8
5/18/2021 11:00:00 AM 12.3 54.14 0.163 7.8 3.42 10.8
5/18/2021 11:15:00 AM 12.59 54.662 0.163 7.83 3.49 10.79
5/18/2021 11:30:00 AM 12.89 55.202 0.162 7.86 3.47 10.77
5/18/2021 11:45:00 AM 13.23 55.814 0.163 7.88 3.31 10.77
5/18/2021 12:00:00 PM 13.58 56.444 0.163 7.91 3.33 10.74
5/18/2021 12:15:00 PM 13.96 57.128 0.163 7.93 3.4 10.72
5/18/2021 12:30:00 PM 14.33 57.794 0.163 7.96 3.34 10.68
5/18/2021 12:45:00 PM 14.7 58.46 0.163 7.98 3.44 10.64
5/18/2021 1:00:00 PM 15.03 59.054 0.163 8 3.53 10.59
5/18/2021 1:15:00 PM 15.36 59.648 0.163 8.02 3.21 10.55
5/18/2021 1:30:00 PM 15.68 60.224 0.163 8.04 3.33 10.5
5/18/2021 1:45:00 PM 16 60.8 0.163 8.06 3.31 10.45
5/18/2021 2:00:00 PM 16.28 61.304 0.163 8.08 3.4 10.41
5/18/2021 2:15:00 PM 16.53 61.754 0.163 8.08 3.22 10.34
5/18/2021 2:30:00 PM 16.76 62.168 0.163 8.1 3.3 10.3
5/18/2021 2:45:00 PM 16.93 62.474 0.163 8.1 3.58 10.23
5/18/2021 3:00:00 PM 17.11 62.798 0.163 8.11 3.15 10.2
5/18/2021 3:15:00 PM 17.21 62.978 0.163 8.1 3.4 10.11
5/18/2021 3:30:00 PM 17.31 63.158 0.163 8.1 3.18 10.07
5/18/2021 3:45:00 PM 17.37 63.266 0.163 8.09 3.23 10.02
5/18/2021 4:00:00 PM 17.35 63.23 0.163 8.08 3.42 9.95
5/18/2021 4:15:00 PM 17.35 63.23 0.164 8.07 3.25 9.91
5/18/2021 4:30:00 PM 17.28 63.104 0.164 8.05 3.07 9.86
5/18/2021 4:45:00 PM 17.21 62.978 0.164 8.04 3.13 9.81
5/18/2021 5:00:00 PM 17.09 62.762 0.164 8.02 3.29 9.75
5/18/2021 5:15:00 PM 16.92 62.456 0.164 7.98 3.39 9.67
5/18/2021 5:30:00 PM 16.74 62.132 0.165 7.95 3.41 9.59
5/18/2021 5:45:00 PM 16.62 61.916 0.165 7.92 3.23 9.55
5/18/2021 6:00:00 PM 16.5 61.7 0.165 7.9 3.17 9.51
5/18/2021 6:15:00 PM 16.36 61.448 0.165 7.87 3.38 9.45
5/18/2021 6:30:00 PM 16.24 61.232 0.165 7.85 3.27 9.43
5/18/2021 6:45:00 PM 16.11 60.998 0.165 7.82 3.32 9.4
5/18/2021 7:00:00 PM 15.99 60.782 0.166 7.8 3.5 9.37
5/18/2021 7:15:00 PM 15.87 60.566 0.166 7.78 3.16 9.33
5/18/2021 7:30:00 PM 15.74 60.332 0.166 7.76 3.46 9.3
5/18/2021 7:45:00 PM 15.61 60.098 0.166 7.74 3.46 9.27
5/18/2021 8:00:00 PM 15.49 59.882 0.166 7.71 3.31 9.24
5/18/2021 8:15:00 PM 15.37 59.666 0.166 7.69 3.32 9.2
5/18/2021 8:30:00 PM 15.26 59.468 0.167 7.68 3.43 9.17
5/18/2021 8:45:00 PM 15.15 59.27 0.167 7.66 3.27 9.15
5/18/2021 9:00:00 PM 15.04 59.072 0.167 7.64 3.27 9.13
5/18/2021 9:15:00 PM 14.94 58.892 0.167 7.63 3.4 9.12
5/18/2021 9:30:00 PM 14.83 58.694 0.167 7.61 3.4 9.11
5/18/2021 9:45:00 PM 14.72 58.496 0.167 7.6 3.54 9.11
5/18/2021 10:00:00 PM 14.61 58.298 0.167 7.59 3.44 9.12
5/18/2021 10:15:00 PM 14.5 58.1 0.167 7.58 3.49 9.12
5/18/2021 10:30:00 PM 14.39 57.902 0.168 7.57 3.47 9.13
5/18/2021 10:45:00 PM 14.28 57.704 0.168 7.57 5.94 9.14
5/18/2021 11:00:00 PM 14.18 57.524 0.168 7.56 3.61 9.16
5/18/2021 11:15:00 PM 14.08 57.344 0.168 7.56 3.58 9.17
5/18/2021 11:30:00 PM 13.97 57.146 0.168 7.56 3.81 9.2
5/18/2021 11:45:00 PM 13.87 56.966 0.168 7.55 3.68 9.21
5/19/2021 12:00:00 AM 13.77 56.786 0.168 7.55 3.59 9.23
5/19/2021 12:15:00 AM 13.67 56.606 0.168 7.54 3.7 9.25
5/19/2021 12:30:00 AM 13.57 56.426 0.168 7.54 3.82 9.27
5/19/2021 12:45:00 AM 13.48 56.264 0.168 7.53 3.89 9.28
5/19/2021 1:00:00 AM 13.39 56.102 0.168 7.53 3.82 9.3
5/19/2021 1:15:00 AM 13.29 55.922 0.168 7.53 3.79 9.31
5/19/2021 1:30:00 AM 13.2 55.76 0.168 7.53 3.91 9.34
5/19/2021 1:45:00 AM 13.12 55.616 0.168 7.53 3.79 9.36
5/19/2021 2:00:00 AM 13.03 55.454 0.169 7.53 3.45 9.39
5/19/2021 2:15:00 AM 12.95 55.31 0.169 7.53 3.79 9.41
5/19/2021 2:30:00 AM 12.86 55.148 0.168 7.53 3.79 9.43
5/19/2021 2:45:00 AM 12.78 55.004 0.168 7.53 3.68 9.45
5/19/2021 3:00:00 AM 12.7 54.86 0.169 7.53 3.78 9.47
5/19/2021 3:15:00 AM 12.63 54.734 0.169 7.53 3.82 9.49
5/19/2021 3:30:00 AM 12.56 54.608 0.169 7.54 3.72 9.51
5/19/2021 3:45:00 AM 12.5 54.5 0.169 7.54 3.76 9.53
5/19/2021 4:00:00 AM 12.43 54.374 0.169 7.53 3.62 9.54
5/19/2021 4:15:00 AM 12.37 54.266 0.169 7.53 3.66 9.56
5/19/2021 4:30:00 AM 12.29 54.122 0.169 7.53 3.7 9.57
5/19/2021 4:45:00 AM 12.24 54.032 0.169 7.53 3.73 9.59
5/19/2021 5:00:00 AM 12.18 53.924 0.169 7.53 3.76 9.61
5/19/2021 5:15:00 AM 12.12 53.816 0.169 7.53 3.66 9.63
5/19/2021 5:30:00 AM 12.05 53.69 0.169 7.53 3.65 9.64
5/19/2021 5:45:00 AM 11.99 53.582 0.169 7.52 3.67 9.66
5/19/2021 6:00:00 AM 11.93 53.474 0.169 7.52 3.82 9.68
5/19/2021 6:15:00 AM 11.87 53.366 0.169 7.52 3.71 9.71
5/19/2021 6:30:00 AM 11.82 53.276 0.169 7.53 3.73 9.75
5/19/2021 6:45:00 AM 11.77 53.186 0.17 7.53 3.76 9.79
5/19/2021 7:00:00 AM 11.74 53.132 0.17 7.53 3.79 9.84
5/19/2021 7:15:00 AM 11.7 53.06 0.17 7.54 3.62 9.9
5/19/2021 7:30:00 AM 11.68 53.024 0.17 7.55 3.62 9.95
5/19/2021 7:45:00 AM 11.66 52.988 0.17 7.55 3.7 10.01
5/19/2021 8:00:00 AM 11.66 52.988 0.17 7.57 3.54 10.06
5/19/2021 8:15:00 AM 11.67 53.006 0.17 7.58 3.62 10.12
5/19/2021 8:30:00 AM 11.68 53.024 0.17 7.59 4.64 10.18
5/19/2021 8:45:00 AM 11.73 53.114 0.17 7.62 3.58 10.24
5/19/2021 9:00:00 AM 11.8 53.24 0.17 7.63 3.54 10.3
5/19/2021 9:15:00 AM 11.9 53.42 0.17 7.65 3.46 10.35
5/19/2021 9:30:00 AM 12.02 53.636 0.17 7.67 3.53 10.4
5/19/2021 9:45:00 AM 12.17 53.906 0.171 7.7 3.44 10.45
5/19/2021 10:00:00 AM 12.35 54.23 0.171 7.72 3.41 10.48
5/19/2021 10:15:00 AM 12.56 54.608 0.171 7.75 3.42 10.51
5/19/2021 10:30:00 AM 12.78 55.004 0.171 7.77 3.41 10.53
5/19/2021 10:45:00 AM 13.01 55.418 0.171 7.79 3.4 10.54
5/19/2021 11:00:00 AM 13.28 55.904 0.171 7.82 3.59 10.55
5/19/2021 11:15:00 AM 13.58 56.444 0.171 7.84 3.37 10.56
5/19/2021 11:30:00 AM 13.9 57.02 0.171 7.88 3.38 10.56
5/19/2021 11:45:00 AM 14.23 57.614 0.171 7.9 3.36 10.55
5/19/2021 12:00:00 PM 14.58 58.244 0.171 7.93 3.32 10.54
5/19/2021 12:15:00 PM 14.98 58.964 0.171 7.95 3.39 10.52
5/19/2021 12:30:00 PM 15.39 59.702 0.171 7.98 3.31 10.5
5/19/2021 12:45:00 PM 15.81 60.458 0.171 8 3.37 10.48
5/19/2021 1:00:00 PM 16.19 61.142 0.171 8.03 3.4 10.44
5/19/2021 1:15:00 PM 16.58 61.844 0.171 8.05 3.45 10.41
5/19/2021 1:30:00 PM 16.95 62.51 0.171 8.07 3.39 10.37
5/19/2021 1:45:00 PM 17.27 63.086 0.171 8.08 3.4 10.3
5/19/2021 2:00:00 PM 17.64 63.752 0.171 8.11 3.45 10.26
5/19/2021 2:15:00 PM 17.91 64.238 0.171 8.1 3.27 10.2
5/19/2021 2:30:00 PM 18.21 64.778 0.171 8.14 3.32 10.15
5/19/2021 2:45:00 PM 18.43 65.174 0.171 8.14 3.11 10.1
5/19/2021 3:00:00 PM 18.62 65.516 0.171 8.15 3.39 10.04
5/19/2021 3:15:00 PM 18.59 65.462 0.171 8.13 3.27 9.97
5/19/2021 3:30:00 PM 18.45 65.21 0.172 8.12 3.24 9.87
5/19/2021 3:45:00 PM 18.39 65.102 0.172 8.1 3.22 9.78
5/19/2021 4:00:00 PM 18.3 64.94 0.172 8.05 3.14 9.67
5/19/2021 4:15:00 PM 18.23 64.814 0.172 8.05 3.1 9.61
5/19/2021 4:30:00 PM 18.18 64.724 0.172 8.03 3.12 9.6
5/19/2021 4:45:00 PM 18.24 64.832 0.172 8.04 3.06 9.62
5/19/2021 5:00:00 PM 17.99 64.382 0.172 7.99 3.07 9.58
5/19/2021 5:15:00 PM 17.95 64.31 0.173 8.02 3.26 9.61
5/19/2021 5:30:00 PM 17.78 64.004 0.173 7.99 3.01 9.57
5/19/2021 5:45:00 PM 17.68 63.824 0.172 7.96 3.31 9.53
5/19/2021 6:00:00 PM 17.69 63.842 0.173 7.98 3.12 9.53
5/19/2021 6:15:00 PM 17.63 63.734 0.173 7.96 3.41 9.51
5/19/2021 6:30:00 PM 17.56 63.608 0.173 7.93 3.15 9.47
5/19/2021 6:45:00 PM 17.4 63.32 0.172 7.87 3.24 9.38
5/19/2021 7:00:00 PM 17.33 63.194 0.173 7.87 3.35 9.32
5/19/2021 7:15:00 PM 17.21 62.978 0.173 7.81 3.24 9.22
5/19/2021 7:30:00 PM 17.12 62.816 0.173 7.79 3.22 9.14
5/19/2021 7:45:00 PM 16.93 62.474 0.172 7.7 3.41 9.02
5/19/2021 8:00:00 PM 16.84 62.312 0.172 7.67 3.28 8.95
5/19/2021 8:15:00 PM 16.74 62.132 0.172 7.65 3.22 8.86
5/19/2021 8:30:00 PM 16.67 62.006 0.173 7.63 3.25 8.8
5/19/2021 8:45:00 PM 16.53 61.754 0.173 7.61 3.29 8.72
5/19/2021 9:00:00 PM 16.58 61.844 0.175 7.66 3.35 8.75
5/19/2021 9:15:00 PM 16.47 61.646 0.175 7.65 3.46 8.7
5/19/2021 9:30:00 PM 16.36 61.448 0.176 7.63 3.58 8.68
5/19/2021 9:45:00 PM 16.23 61.214 0.176 7.61 3.32 8.66
5/19/2021 10:00:00 PM 15.99 60.782 0.174 7.54 3.35 8.6
5/19/2021 10:15:00 PM 15.89 60.602 0.175 7.53 3.47 8.61
5/19/2021 10:30:00 PM 15.85 60.53 0.176 7.55 3.42 8.65
5/19/2021 10:45:00 PM 15.8 60.44 0.177 7.58 3.55 8.68
5/19/2021 11:00:00 PM 15.56 60.008 0.175 7.52 3.61 8.64
5/19/2021 11:15:00 PM 15.44 59.792 0.175 7.5 3.7 8.64
5/19/2021 11:30:00 PM 15.44 59.792 0.177 7.55 3.55 8.7
5/19/2021 11:45:00 PM 15.32 59.576 0.177 7.55 3.63 8.72
5/20/2021 12:00:00 AM 15.21 59.378 0.177 7.53 3.52 8.73
5/20/2021 12:15:00 AM 15.07 59.126 0.176 7.53 3.59 8.73
5/20/2021 12:30:00 AM 14.98 58.964 0.177 7.52 3.61 8.77
5/20/2021 12:45:00 AM 14.86 58.748 0.177 7.51 3.51 8.76
5/20/2021 1:00:00 AM 14.77 58.586 0.177 7.51 3.62 8.8
5/20/2021 1:15:00 AM 14.62 58.316 0.177 7.49 3.75 8.8
5/20/2021 1:30:00 AM 14.56 58.208 0.177 7.51 3.59 8.85
5/20/2021 1:45:00 AM 14.41 57.938 0.176 7.49 3.44 8.85
5/20/2021 2:00:00 AM 14.38 57.884 0.178 7.52 3.55 8.9
5/20/2021 2:15:00 AM 14.29 57.722 0.178 7.52 3.69 8.93
5/20/2021 2:30:00 AM 14.2 57.56 0.178 7.52 3.85 8.96
5/20/2021 2:45:00 AM 14.1 57.38 0.178 7.52 3.65 8.97
5/20/2021 3:00:00 AM 14.01 57.218 0.178 7.51 3.68 8.98
5/20/2021 3:15:00 AM 13.94 57.092 0.178 7.51 3.84 9
5/20/2021 3:30:00 AM 13.85 56.93 0.178 7.51 3.68 9.02
5/20/2021 3:45:00 AM 13.72 56.696 0.177 7.47 3.49 9
5/20/2021 4:00:00 AM 13.63 56.534 0.176 7.48 3.54 9
5/20/2021 4:15:00 AM 13.63 56.534 0.177 7.5 3.61 9.05
5/20/2021 4:30:00 AM 13.59 56.462 0.178 7.5 3.66 9.08
5/20/2021 4:45:00 AM 13.53 56.354 0.178 7.5 3.66 9.09
5/20/2021 5:00:00 AM 13.49 56.282 0.178 7.5 3.75 9.11
5/20/2021 5:15:00 AM 13.41 56.138 0.178 7.5 3.55 9.1
5/20/2021 5:30:00 AM 13.4 56.12 0.178 7.51 3.74 9.14
5/20/2021 5:45:00 AM 13.31 55.958 0.178 7.49 3.69 9.12
5/20/2021 6:00:00 AM 13.26 55.868 0.178 7.49 3.69 9.15
5/20/2021 6:15:00 AM 13.24 55.832 0.178 7.5 3.64 9.19
5/20/2021 6:30:00 AM 13.23 55.814 0.178 7.52 3.75 9.25
5/20/2021 6:45:00 AM 13.15 55.67 0.178 7.48 3.63 9.27
5/20/2021 7:00:00 AM 13.18 55.724 0.178 7.53 3.79 9.36
5/20/2021 7:15:00 AM 13.18 55.724 0.179 7.54 3.62 9.44
5/20/2021 7:30:00 AM 13.09 55.562 0.176 7.52 3.54 9.44
5/20/2021 7:45:00 AM 13.12 55.616 0.178 7.53 3.55 9.53
5/20/2021 8:00:00 AM 13.17 55.706 0.179 7.57 3.48 9.63
5/20/2021 8:15:00 AM 13.22 55.796 0.179 7.58 3.57 9.72
5/20/2021 8:30:00 AM 13.27 55.886 0.179 7.6 3.43 9.8
5/20/2021 8:45:00 AM 13.33 55.994 0.179 7.62 3.45 9.89
5/20/2021 9:00:00 AM 13.36 56.048 0.165 7.63 3.49 9.94
5/20/2021 9:15:00 AM 13.43 56.174 0.149 7.65 3.41 10.01
5/20/2021 9:30:00 AM 13.51 56.318 0.143 7.67 3.36 10.06
5/20/2021 9:45:00 AM 13.63 56.534 0.136 7.68 3.46 10.1
5/20/2021 10:00:00 AM 13.8 56.84 0.131 7.71 3.41 10.15
5/20/2021 10:15:00 AM 13.97 57.146 0.13 7.73 3.41 10.2
5/20/2021 10:30:00 AM 14.18 57.524 0.127 7.75 3.35 10.24
5/20/2021 10:45:00 AM 14.33 57.794 0.124 7.76 3.37 10.22
5/20/2021 11:00:00 AM 14.53 58.154 0.12 7.79 3.34 10.27
5/20/2021 11:15:00 AM 14.76 58.568 0.117 7.81 3.38 10.26
5/20/2021 11:30:00 AM 15.05 59.09 0.114 7.84 3.25 10.29
5/20/2021 11:45:00 AM 15.36 59.648 0.111 7.87 3.28 10.3
5/20/2021 12:00:00 PM 15.68 60.224 0.106 7.87 3.31 10.29
5/20/2021 12:15:00 PM 16.08 60.944 0.097 7.91 3.36 10.3
5/20/2021 12:30:00 PM 16.48 61.664 0.088 7.94 3.27 10.31
5/20/2021 12:45:00 PM 16.95 62.51 0.179 7.97 3.33 10.31
5/20/2021 1:00:00 PM 17.35 63.23 0.179 8 3.36 10.3
5/20/2021 1:15:00 PM 17.77 63.986 0.179 8.02 3.39 10.29
5/20/2021 1:30:00 PM 18.17 64.706 0.179 8.05 3.18 10.27
5/20/2021 1:45:00 PM 18.54 65.372 0.179 8.08 3.18 10.24
5/20/2021 2:00:00 PM 18.93 66.074 0.18 8.11 3.3 10.22
5/20/2021 2:15:00 PM 19.22 66.596 0.18 8.12 2.98 10.17
5/20/2021 2:30:00 PM 19.52 67.136 0.18 8.15 3.05 10.13
5/20/2021 2:45:00 PM 19.71 67.478 0.18 8.15 3.24 10.06
5/20/2021 3:00:00 PM 20.01 68.018 0.181 8.19 3.16 10.04
5/20/2021 3:15:00 PM 19.93 67.874 0.18 8.15 3.23 9.94
5/20/2021 3:30:00 PM 20.14 68.252 0.18 8.14 3.08 9.89
5/20/2021 3:45:00 PM 20.26 68.468 0.18 8.15 3.16 9.83
5/20/2021 4:00:00 PM 20.29 68.522 0.181 8.17 3.14 9.76
5/20/2021 4:15:00 PM 20.08 68.144 0.181 8.15 3.18 9.65
5/20/2021 4:30:00 PM 19.89 67.802 0.181 8.11 3.21 9.56
5/20/2021 4:45:00 PM 19.89 67.802 0.181 8.1 3.25 9.5
5/20/2021 5:00:00 PM 19.81 67.658 0.181 8.08 3.19 9.44
5/20/2021 5:15:00 PM 19.76 67.568 0.182 8.06 3.14 9.39
5/20/2021 5:30:00 PM 19.55 67.19 0.182 8.03 3.22 9.32
5/20/2021 5:45:00 PM 19.34 66.812 0.182 7.99 3.22 9.24
5/20/2021 6:00:00 PM 19.2 66.56 0.182 7.97 3.18 9.16
5/20/2021 6:15:00 PM 19.03 66.254 0.182 7.93 3.17 9.05
5/20/2021 6:30:00 PM 18.88 65.984 0.182 7.89 3.25 8.96
5/20/2021 6:45:00 PM 18.75 65.75 0.182 7.86 3.25 8.88
5/20/2021 7:00:00 PM 18.62 65.516 0.183 7.83 3.19 8.81
5/20/2021 7:15:00 PM 18.48 65.264 0.183 7.79 3.33 8.73
5/20/2021 7:30:00 PM 18.36 65.048 0.183 7.77 3.34 8.69
5/20/2021 7:45:00 PM 18.22 64.796 0.183 7.74 3.34 8.63
5/20/2021 8:00:00 PM 18.07 64.526 0.183 7.72 3.35 8.57
5/20/2021 8:15:00 PM 17.91 64.238 0.184 7.69 3.47 8.52
5/20/2021 8:30:00 PM 17.74 63.932 0.184 7.67 3.33 8.46
5/20/2021 8:45:00 PM 17.58 63.644 0.184 7.65 3.27 8.4
5/20/2021 9:00:00 PM 17.45 63.41 0.184 7.63 3.62 8.36
5/20/2021 9:15:00 PM 17.32 63.176 0.185 7.62 3.38 8.33
5/20/2021 9:30:00 PM 17.19 62.942 0.184 7.6 3.3 8.29
5/20/2021 9:45:00 PM 17.09 62.762 0.185 7.58 3.51 8.27
5/20/2021 10:00:00 PM 16.96 62.528 0.185 7.57 3.8 8.24
5/20/2021 10:15:00 PM 16.87 62.366 0.185 7.56 3.45 8.23
5/20/2021 10:30:00 PM 16.77 62.186 0.185 7.55 3.6 8.22
5/20/2021 10:45:00 PM 16.67 62.006 0.185 7.54 3.55 8.2
5/20/2021 11:00:00 PM 16.59 61.862 0.185 7.52 3.81 8.2
5/20/2021 11:15:00 PM 16.5 61.7 0.185 7.52 3.56 8.21
5/20/2021 11:30:00 PM 16.41 61.538 0.185 7.51 3.63 8.2
5/20/2021 11:45:00 PM 16.31 61.358 0.185 7.5 3.73 8.2
5/21/2021 12:00:00 AM 16.21 61.178 0.185 7.5 3.38 8.21
5/21/2021 12:15:00 AM 16.12 61.016 0.186 7.5 3.47 8.23
5/21/2021 12:30:00 AM 16.01 60.818 0.185 7.49 4.05 8.24
5/21/2021 12:45:00 AM 15.92 60.656 0.186 7.48 3.7 8.25
5/21/2021 1:00:00 AM 15.84 60.512 0.186 7.48 3.51 8.27
5/21/2021 1:15:00 AM 15.74 60.332 0.186 7.48 3.61 8.27
5/21/2021 1:30:00 AM 15.66 60.188 0.186 7.47 3.86 8.28
5/21/2021 1:45:00 AM 15.57 60.026 0.186 7.47 3.8 8.3
5/21/2021 2:00:00 AM 15.47 59.846 0.186 7.47 3.84 8.32
5/21/2021 2:15:00 AM 15.37 59.666 0.186 7.46 3.77 8.33
5/21/2021 2:30:00 AM 15.27 59.486 0.187 7.46 3.63 8.35
5/21/2021 2:45:00 AM 15.2 59.36 0.187 7.46 3.68 8.39
5/21/2021 3:00:00 AM 15.08 59.144 0.187 7.46 3.68 8.4
5/21/2021 3:15:00 AM 14.99 58.982 0.187 7.46 3.68 8.43
5/21/2021 3:30:00 AM 14.9 58.82 0.187 7.46 3.68 8.46
5/21/2021 3:45:00 AM 14.8 58.64 0.187 7.46 3.64 8.48
5/21/2021 4:00:00 AM 14.71 58.478 0.187 7.46 3.59 8.5
5/21/2021 4:15:00 AM 14.62 58.316 0.187 7.46 3.63 8.5
5/21/2021 4:30:00 AM 14.53 58.154 0.188 7.45 3.91 8.52
5/21/2021 4:45:00 AM 14.42 57.956 0.187 7.44 3.69 8.51
5/21/2021 5:00:00 AM 14.34 57.812 0.187 7.44 3.8 8.53
5/21/2021 5:15:00 AM 14.23 57.614 0.188 7.44 3.77 8.53
5/21/2021 5:30:00 AM 14.12 57.416 0.188 7.43 3.54 8.53
5/21/2021 5:45:00 AM 14.05 57.29 0.188 7.43 3.62 8.56
5/21/2021 6:00:00 AM 13.98 57.164 0.188 7.43 3.68 8.57
5/21/2021 6:15:00 AM 13.9 57.02 0.188 7.43 3.98 8.6
5/21/2021 6:30:00 AM 13.84 56.912 0.188 7.43 3.62 8.64
5/21/2021 6:45:00 AM 13.78 56.804 0.188 7.43 3.61 8.69
5/21/2021 7:00:00 AM 13.73 56.714 0.188 7.44 3.48 8.75
5/21/2021 7:15:00 AM 13.69 56.642 0.188 7.44 3.46 8.81
5/21/2021 7:30:00 AM 13.68 56.624 0.188 7.45 3.72 8.91
5/21/2021 7:45:00 AM 13.66 56.588 0.188 7.46 3.62 8.99
5/21/2021 8:00:00 AM 13.63 56.534 0.188 7.47 3.49 9.05
5/21/2021 8:15:00 AM 13.64 56.552 0.188 7.48 3.42 9.14
5/21/2021 8:30:00 AM 13.65 56.57 0.188 7.49 3.45 9.23
5/21/2021 8:45:00 AM 13.65 56.57 0.188 7.5 3.47 9.3
5/21/2021 9:00:00 AM 13.67 56.606 0.188 7.52 3.5 9.37
5/21/2021 9:15:00 AM 13.67 56.606 0.187 7.52 3.55 9.42
5/21/2021 9:30:00 AM 13.72 56.696 0.187 7.53 3.48 9.49
5/21/2021 9:45:00 AM 13.79 56.822 0.188 7.55 3.39 9.58
5/21/2021 10:00:00 AM 13.85 56.93 0.187 7.56 3.34 9.63
5/21/2021 10:15:00 AM 13.93 57.074 0.187 7.57 3.5 9.68
5/21/2021 10:30:00 AM 14.08 57.344 0.187 7.59 3.3 9.76
5/21/2021 10:45:00 AM 14.25 57.65 0.187 7.61 3.3 9.84
5/21/2021 11:00:00 AM 14.46 58.028 0.187 7.64 3.53 9.91
5/21/2021 11:15:00 AM 14.66 58.388 0.187 7.66 3.3 9.96
5/21/2021 11:30:00 AM 14.9 58.82 0.187 7.67 3.35 9.98
5/21/2021 11:45:00 AM 15.18 59.324 0.187 7.69 3.25 10.03
5/21/2021 12:00:00 PM 15.5 59.9 0.187 7.72 3.39 10.07
5/21/2021 12:15:00 PM 15.91 60.638 0.187 7.76 3.32 10.16
5/21/2021 12:30:00 PM 16.29 61.322 0.187 7.78 3.36 10.19
5/21/2021 12:45:00 PM 16.81 62.258 0.187 7.81 3.43 10.23
5/21/2021 1:00:00 PM 17.3 63.14 0.187 7.85 3.21 10.27
5/21/2021 1:15:00 PM 17.78 64.004 0.187 7.88 3.11 10.28
5/21/2021 1:30:00 PM 17.97 64.346 0.187 7.9 3.27 10.24
5/21/2021 1:45:00 PM 18.01 64.418 0.187 7.9 3.22 10.18
5/21/2021 2:00:00 PM 17.98 64.364 0.187 7.89 3.12 10.11
5/21/2021 2:15:00 PM 18 64.4 0.186 7.89 3.23 10.06
5/21/2021 2:30:00 PM 18.18 64.724 0.186 7.91 3.33 10.08
5/21/2021 2:45:00 PM 18.41 65.138 0.186 7.91 3.23 10.06
5/21/2021 3:00:00 PM 18.55 65.39 0.186 7.91 3.08 10.03
5/21/2021 3:15:00 PM 18.69 65.642 0.185 7.9 3.22 10
5/21/2021 3:30:00 PM 18.73 65.714 0.185 7.87 3.14 9.92
5/21/2021 3:45:00 PM 18.96 66.128 0.184 7.86 3.37 9.94
5/21/2021 4:00:00 PM 19.06 66.308 0.184 7.88 3.55 9.9
5/21/2021 4:15:00 PM 19.01 66.218 0.184 7.85 3.16 9.84
5/21/2021 4:30:00 PM 18.97 66.146 0.183 7.81 3.55 9.77
5/21/2021 4:45:00 PM 19.05 66.29 0.183 7.81 3.21 9.79
5/21/2021 5:00:00 PM 19.15 66.47 0.183 7.82 3.24 9.78
5/21/2021 5:15:00 PM 19.1 66.38 0.183 7.78 3.41 9.69
5/21/2021 5:30:00 PM 19.15 66.47 0.183 7.79 3.27 9.66
5/21/2021 5:45:00 PM 19.02 66.236 0.182 7.76 3.21 9.57
5/21/2021 6:00:00 PM 18.71 65.67799 0.18 7.7 3.29 9.44
5/21/2021 6:15:00 PM 18.6 65.48 0.182 7.69 3.31 9.33
5/21/2021 6:30:00 PM 18.41 65.138 0.182 7.66 3.2 9.28
5/21/2021 6:45:00 PM 18.32 64.976 0.182 7.64 3.32 9.2
5/21/2021 7:00:00 PM 18.14 64.652 0.181 7.61 3.23 9.1
5/21/2021 7:15:00 PM 17.82 64.076 0.178 7.54 3.98 8.95
5/21/2021 7:30:00 PM 17.78 64.004 0.18 7.53 3.17 8.82
5/21/2021 7:45:00 PM 17.69 63.842 0.181 7.54 3.21 8.73
5/21/2021 8:00:00 PM 17.55 63.59 0.18 7.49 3.09 8.64
5/21/2021 8:15:00 PM 17.38 63.284 0.179 7.44 3.36 8.42
5/21/2021 8:30:00 PM 17.16 62.888 0.178 7.4 3.23 8.21
5/21/2021 8:45:00 PM 17.09 62.762 0.179 7.38 3.16 8.14
5/21/2021 9:00:00 PM 16.9 62.42 0.178 7.37 3.6 7.95
5/21/2021 9:15:00 PM 16.76 62.168 0.179 7.34 3.41 7.78
5/21/2021 9:30:00 PM 16.77 62.186 0.181 7.36 3.25 7.82
5/21/2021 9:45:00 PM 16.67 62.006 0.181 7.37 3.38 7.79
5/21/2021 10:00:00 PM 16.5 61.7 0.181 7.34 3.83 7.72
5/21/2021 10:15:00 PM 16.47 61.646 0.182 7.34 3.48 7.71
5/21/2021 10:30:00 PM 16.27 61.286 0.18 7.28 3.56 7.47
5/21/2021 10:45:00 PM 16.13 61.034 0.176 7.26 3.73 7.48
5/21/2021 11:00:00 PM 16.23 61.214 0.183 7.32 3.87 7.65
5/21/2021 11:15:00 PM 16.04 60.872 0.177 7.25 3.79 7.06
5/21/2021 11:30:00 PM 16.03 60.854 0.178 7.26 3.86 7.32
5/21/2021 11:45:00 PM 15.9 60.62 0.178 7.25 3.69 7.21
5/22/2021 12:00:00 AM 15.76 60.368 0.179 7.23 3.78 7.09
5/22/2021 12:15:00 AM 15.69 60.242 0.179 7.22 3.75 7.12
5/22/2021 12:30:00 AM 15.62 60.116 0.177 7.22 3.55 6.99
5/22/2021 12:45:00 AM 15.47 59.846 0.175 7.2 3.54 6.99
5/22/2021 1:00:00 AM 15.51 59.918 0.181 7.25 3.46 7.27
5/22/2021 1:15:00 AM 15.35 59.63 0.176 7.18 4.13 7.06
5/22/2021 1:30:00 AM 15.3 59.54 0.179 7.19 3.59 7.07
5/22/2021 1:45:00 AM 15.26 59.468 0.181 7.2 3.63 7.19
5/22/2021 2:00:00 AM 15.07 59.126 0.177 7.17 3.6 6.97
5/22/2021 2:15:00 AM 15.07 59.126 0.179 7.15 3.8 6.8
5/22/2021 2:30:00 AM 15 59 0.178 7.16 3.95 6.98
5/22/2021 2:45:00 AM 14.9 58.82 0.176 7.15 4.43 6.71
5/22/2021 3:00:00 AM 14.8 58.64 0.175 7.13 5.12 6.7
5/22/2021 3:15:00 AM 14.73 58.514 0.175 7.16 3.99 6.9
5/22/2021 3:30:00 AM 14.64 58.352 0.175 7.14 3.94 6.77
5/22/2021 3:45:00 AM 14.49 58.082 0.175 7.11 3.95 6.91
5/22/2021 4:00:00 AM 14.6 58.28 0.18 7.19 4.33 7.3
5/22/2021 4:15:00 AM 14.47 58.046 0.18 7.15 3.75 6.99
5/22/2021 4:30:00 AM 14.32 57.776 0.18 7.17 3.79 7.17
5/22/2021 4:45:00 AM 14.36 57.848 0.181 7.19 3.7 7.22
5/22/2021 5:00:00 AM 14.24 57.632 0.179 7.15 3.62 7.04
5/22/2021 5:15:00 AM 14.19 57.542 0.179 7.17 3.83 7.12
5/22/2021 5:30:00 AM 14.16 57.488 0.181 7.18 3.67 7.14
5/22/2021 5:45:00 AM 14.03 57.254 0.177 7.14 4.22 6.96
5/22/2021 6:00:00 AM 14.12 57.416 0.182 7.19 3.77 7.32
5/22/2021 6:15:00 AM 13.96 57.128 0.178 7.16 3.72 7.09
5/22/2021 6:30:00 AM 13.95 57.11 0.181 7.16 4.54 7.25
5/22/2021 6:45:00 AM 13.94 57.092 0.183 7.2 3.61 7.43
5/22/2021 7:00:00 AM 13.96 57.128 0.184 7.21 3.6 7.53
5/22/2021 7:15:00 AM 13.85 56.93 0.18 7.17 3.67 7.46
5/22/2021 7:30:00 AM 13.85 56.93 0.182 7.18 3.69 7.56
5/22/2021 7:45:00 AM 13.89 57.002 0.182 7.2 3.45 7.72
5/22/2021 8:00:00 AM 13.83 56.894 0.182 7.21 3.62 7.7
5/22/2021 8:15:00 AM 13.83 56.894 0.183 7.24 3.7 7.91
5/22/2021 8:30:00 AM 13.86 56.948 0.182 7.22 3.46 7.92
5/22/2021 8:45:00 AM 13.91 57.038 0.182 7.25 3.52 8.07
5/22/2021 9:00:00 AM 13.97 57.146 0.183 7.25 3.72 8.25
5/22/2021 9:15:00 AM 14 57.2 0.183 7.25 3.39 8.35
5/22/2021 9:30:00 AM 13.95 57.11 0.179 7.23 3.56 8.4
5/22/2021 9:45:00 AM 14 57.2 0.18 7.23 3.51 8.32
5/22/2021 10:00:00 AM 14 57.2 0.178 7.23 3.68 8.5
5/22/2021 10:15:00 AM 14.03 57.254 0.18 7.22 3.39 8.48
5/22/2021 10:30:00 AM 14.14 57.452 0.181 7.24 3.8 8.67
5/22/2021 10:45:00 AM 14.26 57.668 0.181 7.27 3.33 8.85
5/22/2021 11:00:00 AM 14.3 57.74 0.179 7.28 4.24 8.9
5/22/2021 11:15:00 AM 14.43 57.974 0.179 7.3 4.89 9.07
5/22/2021 11:30:00 AM 14.57 58.226 0.18 7.3 3.51 9.1
5/22/2021 11:45:00 AM 14.73 58.514 0.179 7.31 4.49 9.22
5/22/2021 12:00:00 PM 14.86 58.748 0.178 7.33 3.67 9.48
5/22/2021 12:15:00 PM 14.97 58.946 0.178 7.32 3.9 9.48
5/22/2021 12:30:00 PM 15.15 59.27 0.176 7.33 3.53 9.65
5/22/2021 12:45:00 PM 15.32 59.576 0.175 7.34 3.96 9.83
5/22/2021 1:00:00 PM 15.66 60.188 0.175 7.36 3.67 9.84
5/22/2021 1:15:00 PM 15.73 60.314 0.176 7.38 3.66 9.84
5/22/2021 1:30:00 PM 16.04 60.872 0.177 7.39 3.64 9.97
5/22/2021 1:45:00 PM 16.19 61.142 0.176 7.38 3.55 10.01
5/22/2021 2:00:00 PM 16.28 61.304 0.17 7.33 3.53 10.18
5/22/2021 2:15:00 PM 16.46 61.628 0.173 7.38 3.74 10.3
5/22/2021 2:30:00 PM 16.57 61.826 0.173 7.37 3.89 10.21
5/22/2021 2:45:00 PM 16.79 62.222 0.17 7.36 3.43 10.18
5/22/2021 3:00:00 PM 16.76 62.168 0.171 7.38 3.57 10.06
5/22/2021 3:15:00 PM 17.01 62.618 0.173 7.41 3.97 10.19
5/22/2021 3:30:00 PM 17.12 62.816 0.172 7.4 3.44 10.09
5/22/2021 3:45:00 PM 17.12 62.816 0.172 7.37 3.46 9.71
5/22/2021 4:00:00 PM 17.2 62.96 0.17 7.36 3.52 9.95
5/22/2021 4:15:00 PM 17.32 63.176 0.169 7.37 3.82 9.93
5/22/2021 4:30:00 PM 17.43 63.374 0.172 7.37 3.5 9.66
5/22/2021 4:45:00 PM 17.28 63.104 0.171 7.33 3.18 9.62
5/22/2021 5:00:00 PM 17.14 62.852 0.17 7.31 3.41 9.29
5/22/2021 5:15:00 PM 16.95 62.51 0.169 7.29 3.23 9.52
5/22/2021 5:30:00 PM 16.77 62.186 0.168 7.25 3.13 9.14
5/22/2021 5:45:00 PM 16.67 62.006 0.165 7.22 3.57 9.42
5/22/2021 6:00:00 PM 16.56 61.808 0.164 7.22 3.28 9.32
5/22/2021 6:15:00 PM 16.41 61.538 0.164 7.19 3.06 9.13
5/22/2021 6:30:00 PM 16.31 61.358 0.161 7.18 3.94 9.07
5/22/2021 6:45:00 PM 16.14 61.052 0.162 7.16 3.19 8.65
5/22/2021 7:00:00 PM 16.08 60.944 0.162 7.16 3.31 8.8
5/22/2021 7:15:00 PM 15.9 60.62 0.162 7.13 3.22 8.37
5/22/2021 7:30:00 PM 15.81 60.458 0.159 7.1 3.05 8.31
5/22/2021 7:45:00 PM 15.66 60.188 0.159 7.09 3.05 8.17
5/22/2021 8:00:00 PM 15.45 59.81 0.16 7.09 2.99 7.88
5/22/2021 8:15:00 PM 15.33 59.594 0.159 7.07 3.05 7.79
5/22/2021 8:30:00 PM 15.22 59.396 0.159 7.05 3.04 7.6
5/22/2021 8:45:00 PM 15.09 59.162 0.158 7.04 3.28 7.46
5/22/2021 9:00:00 PM 14.98 58.964 0.157 7.02 3.66 7.25
5/22/2021 9:15:00 PM 14.83 58.694 0.158 7.02 3.6 7.14
5/22/2021 9:30:00 PM 14.69 58.442 0.157 7 3.26 6.9
5/22/2021 9:45:00 PM 14.56 58.208 0.156 6.97 3.2 6.7
5/22/2021 10:00:00 PM 14.44 57.992 0.156 6.96 3.4 6.62
5/22/2021 10:15:00 PM 14.36 57.848 0.155 6.96 3.12 6.51
5/22/2021 10:30:00 PM 14.28 57.704 0.155 6.94 3.29 6.36
5/22/2021 10:45:00 PM 14.13 57.434 0.154 6.93 3.67 6.2
5/22/2021 11:00:00 PM 14.1 57.38 0.153 6.92 3.38 6.19
5/22/2021 11:15:00 PM 14.07 57.326 0.152 6.91 3.35 6.06
5/22/2021 11:30:00 PM 14.06 57.308 0.152 6.9 3.14 5.96
5/22/2021 11:45:00 PM 14.05 57.29 0.153 6.91 3.22 5.88
5/23/2021 12:00:00 AM 13.94 57.092 0.153 6.91 3.5 5.96
5/23/2021 12:15:00 AM 13.9 57.02 0.152 6.91 4.6 5.92
5/23/2021 12:30:00 AM 13.88 56.984 0.152 6.9 3.22 5.75
5/23/2021 12:45:00 AM 13.87 56.966 0.15 6.89 3.47 5.82
5/23/2021 1:00:00 AM 13.82 56.876 0.151 6.89 3.3 5.83
5/23/2021 1:15:00 AM 13.74 56.732 0.151 6.89 3.59 5.66
5/23/2021 1:30:00 AM 13.7 56.66 0.152 6.89 3.85 5.78
5/23/2021 1:45:00 AM 13.59 56.462 0.152 6.88 3.34 5.69
5/23/2021 2:00:00 AM 13.57 56.426 0.15 6.86 3.61 5.73
5/23/2021 2:15:00 AM 13.51 56.318 0.151 6.88 3.54 5.61
5/23/2021 2:30:00 AM 13.44 56.192 0.151 6.87 3.51 5.52
5/23/2021 2:45:00 AM 13.41 56.138 0.15 6.85 3.77 5.49
5/23/2021 3:00:00 AM 13.31 55.958 0.149 6.85 3.9 5.48
5/23/2021 3:15:00 AM 13.27 55.886 0.149 6.84 4.12 5.52
5/23/2021 3:30:00 AM 13.26 55.868 0.149 6.84 3.72 5.55
5/23/2021 3:45:00 AM 13.19 55.742 0.15 6.85 3.68 5.53
5/23/2021 4:00:00 AM 13.19 55.742 0.149 6.84 3.88 5.53
5/23/2021 4:15:00 AM 13.16 55.688 0.149 6.84 3.51 5.5
5/23/2021 4:30:00 AM 13.16 55.688 0.15 6.85 3.54 5.5
5/23/2021 4:45:00 AM 13.13 55.634 0.149 6.84 3.71 5.29
5/23/2021 5:00:00 AM 13.12 55.616 0.148 6.83 4.3 5.09
5/23/2021 5:15:00 AM 13.12 55.616 0.147 6.82 3.54 5.23
5/23/2021 5:30:00 AM 13.11 55.598 0.149 6.83 3.85 4.97
5/23/2021 5:45:00 AM 13.07 55.526 0.147 6.82 3.36 5.22
5/23/2021 6:00:00 AM 13.07 55.526 0.147 6.82 3.42 5.45
5/23/2021 6:15:00 AM 13.05 55.49 0.147 6.81 4.3 5.43
5/23/2021 6:30:00 AM 12.99 55.382 0.148 6.82 3.52 5.37
5/23/2021 6:45:00 AM 13.01 55.418 0.148 6.82 3.88 5.34
5/23/2021 7:00:00 AM 12.95 55.31 0.148 6.81 3.31 5.47
5/23/2021 7:15:00 AM 12.89 55.202 0.15 6.83 3.31 5.44
5/23/2021 7:30:00 AM 13 55.4 0.15 6.83 3.48 5.65
5/23/2021 7:45:00 AM 12.99 55.382 0.15 6.84 3.56 5.74
5/23/2021 8:00:00 AM 13.05 55.49 0.148 6.84 3.58 5.91
5/23/2021 8:15:00 AM 13.11 55.598 0.149 6.85 3.72 5.97
5/23/2021 8:30:00 AM 13.15 55.67 0.15 6.85 3.78 5.88
5/23/2021 8:45:00 AM 13.15 55.67 0.148 6.85 3.64 6.29
5/23/2021 9:00:00 AM 13.07 55.526 0.148 6.86 3.57 6.32
5/23/2021 9:15:00 AM 13.12 55.616 0.151 6.87 3.45 6.31
5/23/2021 9:30:00 AM 13.23 55.814 0.151 6.87 3.37 6.42
5/23/2021 9:45:00 AM 13.32 55.976 0.151 6.88 3.79 6.5
5/23/2021 10:00:00 AM 13.31 55.958 0.154 6.89 3.56 6.59
5/23/2021 10:15:00 AM 13.3 55.94 0.153 6.9 3.45 6.48
5/23/2021 10:30:00 AM 13.33 55.994 0.154 6.9 3.37 6.66
5/23/2021 10:45:00 AM 13.3 55.94 0.153 6.91 3.76 6.77
5/23/2021 11:00:00 AM 13.45 56.21 0.154 6.91 3.6 6.93
5/23/2021 11:15:00 AM 13.31 55.958 0.153 6.91 3.53 6.94
5/23/2021 11:30:00 AM 13.36 56.048 0.153 6.91 3.71 7.16
5/23/2021 11:45:00 AM 13.43 56.174 0.154 6.92 3.51 7.05
5/23/2021 12:00:00 PM 13.38 56.084 0.153 6.91 3.64 7.26
5/23/2021 12:15:00 PM 13.52 56.336 0.154 6.93 3.52 7.36
5/23/2021 12:30:00 PM 13.51 56.318 0.153 6.93 3.32 7.33
5/23/2021 12:45:00 PM 13.6 56.48 0.154 6.93 3.71 7.33
5/23/2021 1:00:00 PM 13.84 56.912 0.154 6.95 3.42 7.6
5/23/2021 1:15:00 PM 13.95 57.11 0.153 6.96 3.33 7.61
5/23/2021 1:30:00 PM 14.09 57.362 0.154 6.95 3.28 7.68
5/23/2021 1:45:00 PM 14.14 57.452 0.155 6.97 4.29 7.66
5/23/2021 2:00:00 PM 14.21 57.578 0.155 6.97 3.64 7.71
5/23/2021 2:15:00 PM 14.19 57.542 0.155 6.97 3.47 8.01
5/23/2021 2:30:00 PM 14.23 57.614 0.154 6.97 3.69 7.7
5/23/2021 2:45:00 PM 14.4 57.92 0.153 6.98 3.45 7.88
5/23/2021 3:00:00 PM 14.36 57.848 0.154 6.97 3.35 7.88
5/23/2021 3:15:00 PM 14.5 58.1 0.153 6.99 3.13 8
5/23/2021 3:30:00 PM 14.54 58.172 0.152 6.98 3.26 8.15
5/23/2021 3:45:00 PM 14.64 58.352 0.151 6.98 3.2 8.18
5/23/2021 4:00:00 PM 14.65 58.37 0.15 6.98 3.08 8.09
5/23/2021 4:15:00 PM 14.73 58.514 0.15 6.98 3.17 8.28
5/23/2021 4:30:00 PM 14.75 58.55 0.15 6.98 3.16 8.47
5/23/2021 4:45:00 PM 14.79 58.622 0.15 6.98 3.26 8.12
5/23/2021 5:00:00 PM 14.68 58.424 0.15 6.96 3.12 7.97
5/23/2021 5:15:00 PM 14.7 58.46 0.15 6.97 3.21 8.24
5/23/2021 5:30:00 PM 14.56 58.208 0.149 6.95 3.81 7.59
5/23/2021 5:45:00 PM 14.49 58.082 0.148 6.94 3.55 7.51
5/23/2021 6:00:00 PM 14.46 58.028 0.148 6.93 3.44 7.5
5/23/2021 6:15:00 PM 14.43 57.974 0.147 6.93 3.47 7.58
5/23/2021 6:30:00 PM 14.28 57.704 0.146 6.92 3.7 7.38
5/23/2021 6:45:00 PM 14.3 57.74 0.146 6.92 3.42 7.79
5/23/2021 7:00:00 PM 14.2 57.56 0.145 6.92 3.88 7.79
5/23/2021 7:15:00 PM 14.12 57.416 0.145 6.91 4.02 7.66
5/23/2021 7:30:00 PM 14 57.2 0.145 6.9 3.48 7.28
5/23/2021 7:45:00 PM 13.89 57.002 0.147 6.9 3.23 7.18
5/23/2021 8:00:00 PM 13.83 56.894 0.147 6.89 3.21 7.14
5/23/2021 8:15:00 PM 13.74 56.732 0.146 6.89 3.07 6.99
5/23/2021 8:30:00 PM 13.67 56.606 0.146 6.88 3.24 6.99
5/23/2021 8:45:00 PM 13.59 56.462 0.145 6.88 3.14 6.91
5/23/2021 9:00:00 PM 13.44 56.192 0.143 6.85 3.03 6.7
5/23/2021 9:15:00 PM 13.38 56.084 0.141 6.83 3.23 6.7
5/23/2021 9:30:00 PM 13.3 55.94 0.14 6.83 3.26 6.63
5/23/2021 9:45:00 PM 13.14 55.652 0.14 6.82 3.29 6.45
5/23/2021 10:00:00 PM 13.01 55.418 0.139 6.8 3.32 6.34
5/23/2021 10:15:00 PM 12.92 55.256 0.138 6.79 3.56 6.16
5/23/2021 10:30:00 PM 12.85 55.13 0.138 6.79 3.52 6.07
5/23/2021 10:45:00 PM 12.77 54.986 0.137 6.78 3.81 5.96
5/23/2021 11:00:00 PM 12.69 54.842 0.137 6.77 3.4 5.84
5/23/2021 11:15:00 PM 12.6 54.68 0.137 6.76 3.63 5.69
5/23/2021 11:30:00 PM 12.58 54.644 0.136 6.76 3.28 5.67
5/23/2021 11:45:00 PM 12.55 54.59 0.136 6.76 4.06 5.65
5/24/2021 12:00:00 AM 12.46 54.428 0.136 6.76 3.27 5.61
5/24/2021 12:15:00 AM 12.42 54.356 0.136 6.75 3.62 5.5
5/24/2021 12:30:00 AM 12.4 54.32 0.136 6.75 3.38 5.46
5/24/2021 12:45:00 AM 12.36 54.248 0.136 6.75 3.24 5.34
5/24/2021 1:00:00 AM 12.28 54.104 0.136 6.75 3.17 5.35
5/24/2021 1:15:00 AM 12.24 54.032 0.136 6.75 3.24 5.34
5/24/2021 1:30:00 AM 12.22 53.996 0.136 6.75 3.25 5.37
5/24/2021 1:45:00 AM 12.18 53.924 0.136 6.75 3.3 5.25
5/24/2021 2:00:00 AM 12.08 53.744 0.136 6.74 3.88 5.23
5/24/2021 2:15:00 AM 12 53.6 0.136 6.74 3.65 5.16
5/24/2021 2:30:00 AM 11.91 53.438 0.137 6.73 3.27 5.13
5/24/2021 2:45:00 AM 11.82 53.276 0.136 6.73 3.6 5.13
5/24/2021 3:00:00 AM 11.74 53.132 0.135 6.72 3.65 5.28
5/24/2021 3:15:00 AM 11.68 53.024 0.134 6.71 3.41 5.32
5/24/2021 3:30:00 AM 11.58 52.844 0.132 6.7 3.48 5.45
5/24/2021 3:45:00 AM 11.51 52.718 0.132 6.7 3.31 5.28
5/24/2021 4:00:00 AM 11.43 52.574 0.131 6.7 3.84 5.38
5/24/2021 4:15:00 AM 11.38 52.484 0.13 6.69 3.4 5.42
5/24/2021 4:30:00 AM 11.32 52.376 0.13 6.69 3.47 5.47
5/24/2021 4:45:00 AM 11.26 52.268 0.13 6.69 3.81 5.29
5/24/2021 5:00:00 AM 11.21 52.178 0.129 6.68 3.5 5.27
5/24/2021 5:15:00 AM 11.16 52.088 0.129 6.68 3.7 5.2
5/24/2021 5:30:00 AM 11.06 51.908 0.128 6.68 3.5 5.27
5/24/2021 5:45:00 AM 11 51.8 0.127 6.67 3.37 5.32
5/24/2021 6:00:00 AM 10.91 51.638 0.128 6.67 3.15 5.2
5/24/2021 6:15:00 AM 10.89 51.602 0.128 6.67 6.44 5.23
5/24/2021 6:30:00 AM 10.88 51.584 0.127 6.67 3.8 5.33
5/24/2021 6:45:00 AM 10.82 51.476 0.126 6.66 3.32 5.46
5/24/2021 7:00:00 AM 10.79 51.422 0.126 6.65 3.53 5.46
5/24/2021 7:15:00 AM 10.81 51.458 0.125 6.64 16.84 5.46
5/24/2021 7:30:00 AM 10.75 51.35 0.125 6.64 3.59 5.54
5/24/2021 7:45:00 AM 10.72 51.296 0.125 6.64 5.8 5.46
5/24/2021 8:00:00 AM 10.74 51.332 0.124 6.64 3.64 5.75
5/24/2021 8:15:00 AM 10.73 51.314 0.124 6.64 3.87 5.4
5/24/2021 8:30:00 AM 10.71 51.278 0.125 6.64 3.84 5.32
5/24/2021 8:45:00 AM 10.76 51.368 0.124 6.64 8.06 5.59
5/24/2021 9:00:00 AM 10.77 51.386 0.122 6.65 3.35 5.94
5/24/2021 9:15:00 AM 10.79 51.422 0.122 6.64 3.62 5.74
5/24/2021 9:30:00 AM 10.81 51.458 0.122 6.64 3.22 5.61
5/24/2021 9:45:00 AM 10.81 51.458 0.123 6.63 5.53 5.68
5/24/2021 10:00:00 AM 10.87 51.566 0.121 6.64 3.47 5.59
5/24/2021 10:15:00 AM 10.86 51.548 0.123 6.64 3.21 5.72
5/24/2021 10:30:00 AM 10.86 51.548 0.124 6.66 3.37 5.71
5/24/2021 10:45:00 AM 10.9 51.62 0.124 6.67 3.4 5.84
5/24/2021 11:00:00 AM 10.95 51.71 0.124 6.67 3.17 5.81
5/24/2021 11:15:00 AM 11.01 51.818 0.124 6.67 3.26 5.94
5/24/2021 11:30:00 AM 11.02 51.836 0.125 6.66 5.95 6.18
5/24/2021 11:45:00 AM 11.1 51.98 0.124 6.69 3.22 6.2
5/24/2021 12:00:00 PM 11.17 52.106 0.124 6.7 3.28 6.3
5/24/2021 12:15:00 PM 11.25 52.25 0.125 6.7 6.06 6.53
5/24/2021 12:30:00 PM 11.43 52.574 0.124 6.75 3.64 7.13
5/24/2021 12:45:00 PM 11.61 52.898 0.118 6.69 3.26 7.29
5/24/2021 1:00:00 PM 11.89 53.402 0.117 6.71 3.06 7.34
5/24/2021 1:15:00 PM 12.17 53.906 0.12 6.73 4.04 7.46
5/24/2021 1:30:00 PM 12.39 54.302 0.121 6.76 6.65 7.45
5/24/2021 1:45:00 PM 12.64 54.752 0.125 6.75 3.3 7.54
5/24/2021 2:00:00 PM 12.87 55.166 0.124 6.78 3.17 8.07
5/24/2021 2:15:00 PM 13.17 55.706 0.126 6.79 3.05 7.99
5/24/2021 2:30:00 PM 13.43 56.174 0.127 6.79 3.13 7.98
5/24/2021 2:45:00 PM 13.69 56.642 0.128 6.79 3.14 7.92
5/24/2021 3:00:00 PM 13.93 57.074 0.128 6.8 3.13 7.67
5/24/2021 3:15:00 PM 14.12 57.416 0.128 6.82 3.81 7.81
5/24/2021 3:30:00 PM 14.3 57.74 0.129 6.83 3.03 7.92
5/24/2021 3:45:00 PM 14.38 57.884 0.129 6.81 3.32 7.83
5/24/2021 4:00:00 PM 14.44 57.992 0.127 6.83 3.25 7.84
5/24/2021 4:15:00 PM 14.66 58.388 0.128 6.84 3.36 8.11
5/24/2021 4:30:00 PM 14.58 58.244 0.128 6.84 3.04 7.93
5/24/2021 4:45:00 PM 14.59 58.262 0.128 6.83 3.36 8.03
5/24/2021 5:00:00 PM 14.61 58.298 0.128 6.83 3.16 7.88
5/24/2021 5:15:00 PM 14.59 58.262 0.129 6.83 3.06 7.94
5/24/2021 5:30:00 PM 14.55 58.19 0.129 6.83 3.04 8.01
5/24/2021 5:45:00 PM 14.46 58.028 0.129 6.84 3.22 8.08
5/24/2021 6:00:00 PM 14.36 57.848 0.129 6.83 3.62 7.89
5/24/2021 6:15:00 PM 14.18 57.524 0.128 6.81 3.44 7.77
5/24/2021 6:30:00 PM 14.05 57.29 0.128 6.8 3.33 7.64
5/24/2021 6:45:00 PM 13.82 56.876 0.124 6.78 3.12 7.57
5/24/2021 7:00:00 PM 13.75 56.75 0.123 6.73 3.19 7.41
5/24/2021 7:15:00 PM 13.53 56.354 0.117 6.72 3.4 7.34
5/24/2021 7:30:00 PM 13.41 56.138 0.116 6.7 3.13 7.22
5/24/2021 7:45:00 PM 13.28 55.904 0.118 6.69 3.18 7.12
5/24/2021 8:00:00 PM 13.2 55.76 0.116 6.69 3.33 6.99
5/24/2021 8:15:00 PM 13.04 55.472 0.115 6.67 3.66 6.89
5/24/2021 8:30:00 PM 12.93 55.274 0.114 6.65 3.9 6.8
5/24/2021 8:45:00 PM 12.8 55.04 0.114 6.65 3.68 6.59
5/24/2021 9:00:00 PM 12.66 54.788 0.114 6.64 3.52 6.4
5/24/2021 9:15:00 PM 12.61 54.698 0.114 6.64 3.4 6.34
5/24/2021 9:30:00 PM 12.54 54.572 0.115 6.65 3.67 6.13
5/24/2021 9:45:00 PM 12.42 54.356 0.116 6.65 3.82 6.06
5/24/2021 10:00:00 PM 12.39 54.302 0.117 6.66 3.47 5.93
5/24/2021 10:15:00 PM 12.32 54.176 0.118 6.65 3.88 5.84
5/24/2021 10:30:00 PM 12.23 54.014 0.117 6.64 3.75 5.73
5/24/2021 10:45:00 PM 12.19 53.942 0.116 6.62 3.33 5.66
5/24/2021 11:00:00 PM 12.1 53.78 0.115 6.62 3.41 5.64
5/24/2021 11:15:00 PM 12.03 53.654 0.114 6.61 3.41 5.48
5/24/2021 11:30:00 PM 11.96 53.528 0.114 6.61 3.36 5.48
5/24/2021 11:45:00 PM 11.84 53.312 0.112 6.58 3.31 5.44
5/25/2021 12:00:00 AM 11.79 53.222 0.113 6.6 3.25 5.34
5/25/2021 12:15:00 AM 11.72 53.096 0.112 6.59 3.34 5.25
5/25/2021 12:30:00 AM 11.65 52.97 0.113 6.59 3.21 5.11
5/25/2021 12:45:00 AM 11.58 52.844 0.114 6.6 3.38 4.95
5/25/2021 1:00:00 AM 11.5 52.7 0.114 6.59 3.22 4.96
5/25/2021 1:15:00 AM 11.45 52.61 0.113 6.57 3.09 4.94
5/25/2021 1:30:00 AM 11.42 52.556 0.112 6.56 3.19 4.88
5/25/2021 1:45:00 AM 11.33 52.394 0.109 6.57 3.25 4.95
5/25/2021 2:00:00 AM 11.29 52.322 0.11 6.55 3.13 4.86
5/25/2021 2:15:00 AM 11.27 52.286 0.11 6.56 3.15 4.84
5/25/2021 2:30:00 AM 11.24 52.232 0.109 6.56 3.25 4.76
5/25/2021 2:45:00 AM 11.23 52.214 0.11 6.56 3.84 4.71
5/25/2021 3:00:00 AM 11.17 52.106 0.108 6.55 3.28 4.76
5/25/2021 3:15:00 AM 11.16 52.088 0.108 6.56 3.3 4.72
5/25/2021 3:30:00 AM 11.13 52.034 0.107 6.54 3.27 4.65
5/25/2021 3:45:00 AM 11.08 51.944 0.108 6.54 3.23 4.69
5/25/2021 4:00:00 AM 11.05 51.89 0.108 6.54 3.78 4.7
5/25/2021 4:15:00 AM 11.02 51.836 0.108 6.55 3.7 4.57
5/25/2021 4:30:00 AM 10.97 51.746 0.108 6.54 3.28 4.65
5/25/2021 4:45:00 AM 10.95 51.71 0.108 6.55 3.34 4.61
5/25/2021 5:00:00 AM 10.89 51.602 0.109 6.55 3.23 4.52
5/25/2021 5:15:00 AM 10.87 51.566 0.109 6.55 3.56 4.48
5/25/2021 5:30:00 AM 10.84 51.512 0.109 6.55 4.23 4.51
5/25/2021 5:45:00 AM 10.8 51.44 0.11 6.54 3.06 4.44
5/25/2021 6:00:00 AM 10.84 51.512 0.109 6.55 3.69 4.38
5/25/2021 6:15:00 AM 10.81 51.458 0.11 6.55 3.76 4.3
5/25/2021 6:30:00 AM 10.8 51.44 0.109 6.54 3.18 4.35
5/25/2021 6:45:00 AM 10.77 51.386 0.11 6.55 3.25 4.39
5/25/2021 7:00:00 AM 10.74 51.332 0.11 6.55 3.14 4.41
5/25/2021 7:15:00 AM 10.74 51.332 0.11 6.55 3.51 4.41
5/25/2021 7:30:00 AM 10.76 51.368 0.11 6.55 3.48 4.47
5/25/2021 7:45:00 AM 10.74 51.332 0.11 6.56 3.37 4.57
5/25/2021 8:00:00 AM 10.76 51.368 0.108 6.55 3.35 4.66
5/25/2021 8:15:00 AM 10.75 51.35 0.109 6.56 3.37 4.65
5/25/2021 8:30:00 AM 10.75 51.35 0.108 6.55 3.11 4.69
5/25/2021 8:45:00 AM 10.74 51.332 0.109 6.56 3 4.72
5/25/2021 9:00:00 AM 10.76 51.368 0.109 6.56 3.26 4.89
5/25/2021 9:15:00 AM 10.78 51.404 0.109 6.56 3.17 5.04
5/25/2021 9:30:00 AM 10.8 51.44 0.108 6.57 3.42 5.17
5/25/2021 9:45:00 AM 10.83 51.494 0.108 6.57 3.16 5.36
5/25/2021 10:00:00 AM 10.87 51.566 0.107 6.58 3.06 5.3
5/25/2021 10:15:00 AM 10.92 51.656 0.108 6.58 3.06 5.67
5/25/2021 10:30:00 AM 10.95 51.71 0.108 6.58 3.07 5.84
5/25/2021 10:45:00 AM 10.99 51.782 0.108 6.59 3.64 5.89
5/25/2021 11:00:00 AM 11.05 51.89 0.109 6.6 3.08 6.03
5/25/2021 11:15:00 AM 11.12 52.016 0.109 6.6 3.42 5.97
5/25/2021 11:30:00 AM 11.2 52.16 0.111 6.63 3.42 5.98
5/25/2021 11:45:00 AM 11.25 52.25 0.11 6.63 3.22 6.16
5/25/2021 12:00:00 PM 11.32 52.376 0.111 6.63 3.41 6.42
5/25/2021 12:15:00 PM 11.4 52.52 0.111 6.63 3.12 6.36
5/25/2021 12:30:00 PM 11.5 52.7 0.11 6.64 3.37 6.51
5/25/2021 12:45:00 PM 11.66 52.988 0.11 6.63 3.42 6.56
5/25/2021 1:00:00 PM 11.91 53.438 0.106 6.64 3.61 6.95
5/25/2021 1:15:00 PM 12.18 53.924 0.103 6.63 3.73 7.14
5/25/2021 1:30:00 PM 12.49 54.482 0.105 6.63 3.4 7.16
5/25/2021 1:45:00 PM 12.8 55.04 0.108 6.66 3.94 7.4
5/25/2021 2:00:00 PM 13.01 55.418 0.109 6.68 3.43 7.39
5/25/2021 2:15:00 PM 13.28 55.904 0.111 6.7 3.66 7.38
5/25/2021 2:30:00 PM 13.58 56.444 0.113 6.71 3.9 7.46
5/25/2021 2:45:00 PM 13.79 56.822 0.114 6.73 3.2 7.56
5/25/2021 3:00:00 PM 14.01 57.218 0.115 6.74 3.21 7.99
5/25/2021 3:15:00 PM 14.15 57.47 0.115 6.75 3.19 8.04
5/25/2021 3:30:00 PM 14.29 57.722 0.114 6.75 3.49 7.83
5/25/2021 3:45:00 PM 14.45 58.01 0.114 6.76 3.04 8.12
5/25/2021 4:00:00 PM 14.61 58.298 0.114 6.75 3.19 8.14
5/25/2021 4:15:00 PM 14.72 58.496 0.114 6.76 3.16 8.15
5/25/2021 4:30:00 PM 14.73 58.514 0.114 6.76 3.17 8.17
5/25/2021 4:45:00 PM 14.83 58.694 0.114 6.75 3.13 8.14
5/25/2021 5:00:00 PM 14.8 58.64 0.113 6.75 3.1 7.85
5/25/2021 5:15:00 PM 14.72 58.496 0.114 6.75 2.99 8.01
5/25/2021 5:30:00 PM 14.68 58.424 0.115 6.75 3.1 8.02
5/25/2021 5:45:00 PM 14.63 58.334 0.116 6.75 3.1 7.8
5/25/2021 6:00:00 PM 14.6 58.28 0.116 6.75 3.18 7.74
5/25/2021 6:15:00 PM 14.57 58.226 0.116 6.74 3.38 7.69
5/25/2021 6:30:00 PM 14.36 57.848 0.117 6.74 3.16 7.58
5/25/2021 6:45:00 PM 14.31 57.758 0.117 6.74 3.18 7.61
5/25/2021 7:00:00 PM 14.17 57.506 0.118 6.74 3.12 7.33
5/25/2021 7:15:00 PM 14.01 57.218 0.119 6.73 3.02 7.29
5/25/2021 7:30:00 PM 13.91 57.038 0.118 6.72 3.1 7.26
5/25/2021 7:45:00 PM 13.69 56.642 0.119 6.71 3.16 7.03
5/25/2021 8:00:00 PM 13.59 56.462 0.117 6.7 2.93 7.02
5/25/2021 8:15:00 PM 13.46 56.228 0.115 6.68 2.95 6.92
5/25/2021 8:30:00 PM 13.33 55.994 0.113 6.66 2.91 6.69
5/25/2021 8:45:00 PM 13.2 55.76 0.113 6.65 3.01 6.53
5/25/2021 9:00:00 PM 13.08 55.544 0.112 6.64 3.08 6.46
5/25/2021 9:15:00 PM 12.93 55.274 0.108 6.59 3.19 6.18
5/25/2021 9:30:00 PM 12.84 55.112 0.108 6.6 2.85 5.95
5/25/2021 9:45:00 PM 12.76 54.968 0.107 6.58 2.92 5.83
5/25/2021 10:00:00 PM 12.67 54.806 0.107 6.59 2.98 5.71
5/25/2021 10:15:00 PM 12.6 54.68 0.108 6.58 2.91 5.6
5/25/2021 10:30:00 PM 12.48 54.464 0.108 6.58 2.83 5.58
5/25/2021 10:45:00 PM 12.41 54.338 0.109 6.59 2.94 5.39
5/25/2021 11:00:00 PM 12.37 54.266 0.109 6.58 2.78 5.28
5/25/2021 11:15:00 PM 12.27 54.086 0.106 6.56 2.9 5.25
5/25/2021 11:30:00 PM 12.2 53.96 0.106 6.56 2.72 5.21
5/25/2021 11:45:00 PM 12.16 53.888 0.107 6.57 2.98 5.05
5/26/2021 12:00:00 AM 12.08 53.744 0.106 6.57 2.87 4.96
5/26/2021 12:15:00 AM 11.98 53.564 0.104 6.56 2.94 5.04
5/26/2021 12:30:00 AM 11.95 53.51 0.104 6.54 3.05 4.98
5/26/2021 12:45:00 AM 11.88 53.384 0.104 6.53 2.85 4.89
5/26/2021 1:00:00 AM 11.85 53.33 0.104 6.54 2.88 4.83
5/26/2021 1:15:00 AM 11.81 53.258 0.102 6.52 3.38 4.75
5/26/2021 1:30:00 AM 11.74 53.132 0.102 6.52 2.87 4.82
5/26/2021 1:45:00 AM 11.64 52.952 0.102 6.51 3.06 4.8
5/26/2021 2:00:00 AM 11.61 52.898 0.102 6.52 2.81 4.74
5/26/2021 2:15:00 AM 11.56 52.808 0.101 6.51 2.87 4.74
5/26/2021 2:30:00 AM 11.52 52.736 0.102 6.52 2.9 4.67
5/26/2021 2:45:00 AM 11.48 52.664 0.103 6.52 6.69 4.45
5/26/2021 3:00:00 AM 11.45 52.61 0.104 6.52 2.86 4.42
5/26/2021 3:15:00 AM 11.45 52.61 0.104 6.53 2.67 4.36
5/26/2021 3:30:00 AM 11.38 52.484 0.104 6.52 2.71 4.4
5/26/2021 3:45:00 AM 11.38 52.484 0.102 6.52 2.82 4.45
5/26/2021 4:00:00 AM 11.28 52.304 0.103 6.51 2.74 4.53
5/26/2021 4:15:00 AM 11.22 52.196 0.102 6.51 2.79 4.51
5/26/2021 4:30:00 AM 11.17 52.106 0.104 6.51 2.83 4.46
5/26/2021 4:45:00 AM 11.13 52.034 0.104 6.51 2.81 4.42
5/26/2021 5:00:00 AM 11.1 51.98 0.103 6.51 3.49 4.33
5/26/2021 5:15:00 AM 11.08 51.944 0.105 6.52 3.05 4.28
5/26/2021 5:30:00 AM 11.04 51.872 0.105 6.52 2.98 4.26
5/26/2021 5:45:00 AM 12.22 53.996 0.11 6.61 4.24 4.8
5/26/2021 6:00:00 AM 13.85 56.93 0.153 6.88 4.39 5.63
5/26/2021 6:15:00 AM 14.56 58.208 0.18 7.07 4.03 6.49
5/26/2021 6:30:00 AM 14.78 58.604 0.194 7.21 4.12 7.21
5/26/2021 6:45:00 AM 15.11 59.198 0.206 7.37 3.72 7.78
5/26/2021 7:00:00 AM 15.23 59.414 0.212 7.5 3.86 8.16
5/26/2021 7:15:00 AM 15.24 59.432 0.215 7.56 3.72 8.41
5/26/2021 7:30:00 AM 15.34 59.612 0.219 7.66 3.79 8.63
5/26/2021 7:45:00 AM 15.33 59.594 0.219 7.7 3.81 8.77
5/26/2021 8:00:00 AM 15.36 59.648 0.22 7.73 3.74 8.91
5/26/2021 8:15:00 AM 15.39 59.702 0.221 7.76 3.67 9.05
5/26/2021 8:30:00 AM 15.45 59.81 0.221 7.79 3.54 9.19
5/26/2021 8:45:00 AM 15.53 59.954 0.221 7.83 3.48 9.32
5/26/2021 9:00:00 AM 15.62 60.116 0.221 7.87 3.45 9.45
5/26/2021 9:15:00 AM 15.7 60.26 0.221 7.91 3.57 9.57
5/26/2021 9:30:00 AM 15.78 60.404 0.22 7.94 3.61 9.67
5/26/2021 9:45:00 AM 15.89 60.602 0.22 7.98 3.46 9.78
5/26/2021 10:00:00 AM 16.02 60.836 0.22 8.02 3.6 9.87
5/26/2021 10:15:00 AM 16.16 61.088 0.22 8.06 3.52 9.96
5/26/2021 10:30:00 AM 16.24 61.232 0.22 8.09 3.97 9.99
5/26/2021 10:45:00 AM 16.35 61.43 0.22 8.12 3.62 9.99
5/26/2021 11:00:00 AM 16.53 61.754 0.219 8.15 3.39 10.01
5/26/2021 11:15:00 AM 16.77 62.186 0.22 8.2 3.47 10.05
5/26/2021 11:30:00 AM 17.03 62.654 0.22 8.23 3.36 10.1
5/26/2021 11:45:00 AM 17.31 63.158 0.22 8.28 3.43 10.14
5/26/2021 12:00:00 PM 17.67 63.806 0.221 8.33 3.29 10.2
5/26/2021 12:15:00 PM 18.01 64.418 0.221 8.38 3.17 10.26
5/26/2021 12:30:00 PM 18.38 65.084 0.221 8.43 3.16 10.3
5/26/2021 12:45:00 PM 18.67 65.606 0.222 8.47 3.2 10.31
5/26/2021 1:00:00 PM 18.95 66.11 0.223 8.52 3.24 10.3
5/26/2021 1:15:00 PM 19.23 66.614 0.223 8.53 3.15 10.27
5/26/2021 1:30:00 PM 19.6 67.28 0.224 8.59 3.04 10.31
5/26/2021 1:45:00 PM 19.86 67.748 0.225 8.63 3.1 10.31
5/26/2021 2:00:00 PM 19.74 67.532 0.225 8.64 3.1 10.18
5/26/2021 2:15:00 PM 19.59 67.262 0.226 8.61 3.12 9.99
5/26/2021 2:30:00 PM 19.44 66.992 0.226 8.56 3.4 9.72
5/26/2021 2:45:00 PM 19.32 66.776 0.225 8.5 3.94 9.51
5/26/2021 3:00:00 PM 19.29 66.722 0.226 8.47 3.67 9.39
5/26/2021 3:15:00 PM 19.4 66.92 0.227 8.46 3.76 9.4
5/26/2021 3:30:00 PM 19.36 66.848 0.227 8.46 3.52 9.41
5/26/2021 3:45:00 PM 19.28 66.704 0.227 8.43 3.68 9.37
5/26/2021 4:00:00 PM 19.31 66.758 0.228 8.41 3.43 9.41
5/26/2021 4:15:00 PM 19.25 66.65 0.228 8.41 3.37 9.43
5/26/2021 4:30:00 PM 19.09 66.362 0.228 8.39 3.55 9.35
5/26/2021 4:45:00 PM 18.97 66.146 0.228 8.35 3.56 9.25
5/26/2021 5:00:00 PM 18.91 66.038 0.228 8.31 4.09 9.17
5/26/2021 5:15:00 PM 18.92 66.056 0.228 8.27 3.48 9.2
5/26/2021 5:30:00 PM 18.92 66.056 0.228 8.28 3.62 9.2
5/26/2021 5:45:00 PM 18.84 65.912 0.229 8.24 3.48 9.09
5/26/2021 6:00:00 PM 18.77 65.786 0.226 8.19 4.03 8.9
5/26/2021 6:15:00 PM 18.65 65.57 0.219 8.09 12.14 8.72
5/26/2021 6:30:00 PM 18.52 65.336 0.219 8.03 15.15 8.67
5/26/2021 6:45:00 PM 18.4 65.12 0.216 7.98 13.12 8.58
5/26/2021 7:00:00 PM 18.31 64.958 0.217 7.95 10.93 8.5
5/26/2021 7:15:00 PM 18.25 64.85 0.217 7.92 9.55 8.44
5/26/2021 7:30:00 PM 18.2 64.76 0.214 7.87 12.39 8.35
5/26/2021 7:45:00 PM 18.17 64.706 0.211 7.84 12.58 8.27
5/26/2021 8:00:00 PM 18.13 64.634 0.211 7.82 11.94 8.22
5/26/2021 8:15:00 PM 18.1 64.58 0.212 7.81 10.89 8.21
5/26/2021 8:30:00 PM 18.06 64.508 0.212 7.79 10.95 8.15
5/26/2021 8:45:00 PM 18.02 64.436 0.212 7.77 10.4 8.12
5/26/2021 9:00:00 PM 17.98 64.364 0.211 7.76 10.24 8.09
5/26/2021 9:15:00 PM 17.92 64.256 0.209 7.74 11.06 8.07
5/26/2021 9:30:00 PM 17.86 64.148 0.208 7.72 12.88 8.06
5/26/2021 9:45:00 PM 17.8 64.04 0.206 7.7 15.17 8.05
5/26/2021 10:00:00 PM 17.75 63.95 0.206 7.69 14.54 8.05
5/26/2021 10:15:00 PM 17.7 63.86 0.207 7.68 13.49 8.04
5/26/2021 10:30:00 PM 17.66 63.788 0.208 7.68 11.61 8.05
5/26/2021 10:45:00 PM 17.61 63.698 0.21 7.68 10.22 8.05
5/26/2021 11:00:00 PM 17.57 63.626 0.212 7.68 9.37 8.05
5/26/2021 11:15:00 PM 17.53 63.554 0.214 7.69 8.16 8.07
5/26/2021 11:30:00 PM 17.49 63.482 0.215 7.69 7.41 8.08
5/26/2021 11:45:00 PM 17.45 63.41 0.216 7.69 6.77 8.09
5/27/2021 12:00:00 AM 17.41 63.338 0.217 7.7 6.39 8.1
5/27/2021 12:15:00 AM 17.37 63.266 0.218 7.7 6.25 8.1
5/27/2021 12:30:00 AM 17.33 63.194 0.218 7.7 5.84 8.11
5/27/2021 12:45:00 AM 17.29 63.122 0.218 7.7 5.94 8.11
5/27/2021 1:00:00 AM 17.25 63.05 0.219 7.7 5.96 8.11
5/27/2021 1:15:00 AM 17.2 62.96 0.219 7.71 5.62 8.11
5/27/2021 1:30:00 AM 17.16 62.888 0.219 7.7 5.62 8.11
5/27/2021 1:45:00 AM 17.12 62.816 0.219 7.7 5.45 8.12
5/27/2021 2:00:00 AM 17.08 62.744 0.22 7.7 5.34 8.11
5/27/2021 2:15:00 AM 17.05 62.69 0.22 7.7 5.27 8.13
5/27/2021 2:30:00 AM 17 62.6 0.22 7.7 5.25 8.13
5/27/2021 2:45:00 AM 16.96 62.528 0.221 7.7 5.05 8.16
5/27/2021 3:00:00 AM 16.91 62.438 0.222 7.69 5.03 8.17
5/27/2021 3:15:00 AM 16.86 62.348 0.223 7.69 5.11 8.19
5/27/2021 3:30:00 AM 16.8 62.24 0.223 7.7 4.96 8.2
5/27/2021 3:45:00 AM 16.75 62.15 0.224 7.7 4.91 8.22
5/27/2021 4:00:00 AM 16.68 62.024 0.225 7.7 4.77 8.25
5/27/2021 4:15:00 AM 16.61 61.898 0.226 7.7 4.86 8.26
5/27/2021 4:30:00 AM 16.54 61.772 0.226 7.7 4.82 8.28
5/27/2021 4:45:00 AM 16.48 61.664 0.227 7.7 4.65 8.3
5/27/2021 5:00:00 AM 16.41 61.538 0.227 7.7 4.66 8.32
5/27/2021 5:15:00 AM 16.33 61.394 0.228 7.7 4.58 8.32
5/27/2021 5:30:00 AM 16.27 61.286 0.228 7.71 4.68 8.34
5/27/2021 5:45:00 AM 16.2 61.16 0.228 7.72 4.45 8.36
5/27/2021 6:00:00 AM 16.14 61.052 0.228 7.72 4.37 8.37
5/27/2021 6:15:00 AM 16.09 60.962 0.228 7.73 4.26 8.4
5/27/2021 6:30:00 AM 16.03 60.854 0.229 7.74 4.66 8.44
5/27/2021 6:45:00 AM 15.96 60.728 0.228 7.74 4.38 8.48
5/27/2021 7:00:00 AM 15.9 60.62 0.229 7.75 4.19 8.53
5/27/2021 7:15:00 AM 15.85 60.53 0.229 7.75 4.13 8.59
5/27/2021 7:30:00 AM 15.82 60.476 0.229 7.76 3.97 8.68
5/27/2021 7:45:00 AM 15.77 60.386 0.23 7.77 3.9 8.73
5/27/2021 8:00:00 AM 15.71 60.278 0.23 7.78 3.89 8.79
5/27/2021 8:15:00 AM 15.67 60.206 0.23 7.79 3.78 8.84
5/27/2021 8:30:00 AM 15.64 60.152 0.231 7.8 3.77 8.91
5/27/2021 8:45:00 AM 15.6 60.08 0.231 7.81 4.19 8.98
5/27/2021 9:00:00 AM 15.63 60.134 0.231 7.84 3.76 9.12
5/27/2021 9:15:00 AM 15.67 60.206 0.232 7.88 3.45 9.28
5/27/2021 9:30:00 AM 15.67 60.206 0.232 7.91 3.49 9.38
5/27/2021 9:45:00 AM 15.68 60.224 0.233 7.93 3.52 9.48
5/27/2021 10:00:00 AM 15.7 60.26 0.233 7.96 3.43 9.57
5/27/2021 10:15:00 AM 15.69 60.242 0.233 7.99 3.32 9.65
5/27/2021 10:30:00 AM 15.68 60.224 0.233 8 3.33 9.69
5/27/2021 10:45:00 AM 15.69 60.242 0.233 8.03 3.38 9.78
5/27/2021 11:00:00 AM 15.72 60.296 0.234 8.05 3.38 9.85
5/27/2021 11:15:00 AM 15.75 60.35 0.234 8.09 3.54 9.94
5/27/2021 11:30:00 AM 15.76 60.368 0.234 8.11 3.34 10
5/27/2021 11:45:00 AM 15.76 60.368 0.234 8.13 3.32 10.05
5/27/2021 12:00:00 PM 15.82 60.476 0.234 8.17 3.13 10.16
5/27/2021 12:15:00 PM 15.92 60.656 0.234 8.21 3.26 10.24
5/27/2021 12:30:00 PM 16.04 60.872 0.234 8.25 3.21 10.33
5/27/2021 12:45:00 PM 16.15 61.07 0.234 8.29 3.06 10.38
5/27/2021 1:00:00 PM 16.41 61.538 0.234 8.34 3.23 10.49
5/27/2021 1:15:00 PM 16.46 61.628 0.233 8.37 3.29 10.51
5/27/2021 1:30:00 PM 16.55 61.79 0.233 8.39 3.23 10.54
5/27/2021 1:45:00 PM 16.68 62.024 0.233 8.42 3.38 10.57
5/27/2021 2:00:00 PM 16.85 62.33 0.233 8.46 3.27 10.6
5/27/2021 2:15:00 PM 16.97 62.546 0.232 8.44 3.25 10.59
5/27/2021 2:30:00 PM 17.06 62.708 0.231 8.44 3.15 10.57
5/27/2021 2:45:00 PM 17.22 62.996 0.232 8.49 3.38 10.59
5/27/2021 3:00:00 PM 17.43 63.374 0.232 8.49 3.19 10.6
5/27/2021 3:15:00 PM 17.61 63.698 0.232 8.52 3.19 10.6
5/27/2021 3:30:00 PM 17.74 63.932 0.232 8.54 3.23 10.61
5/27/2021 3:45:00 PM 17.7 63.86 0.232 8.52 3.07 10.54
5/27/2021 4:00:00 PM 17.65 63.77 0.232 8.51 3.68 10.47
5/27/2021 4:15:00 PM 17.65 63.77 0.231 8.51 3.18 10.42
5/27/2021 4:30:00 PM 17.54 63.572 0.232 8.51 3.45 10.38
5/27/2021 4:45:00 PM 17.54 63.572 0.231 8.48 3.23 10.34
5/27/2021 5:00:00 PM 17.59 63.662 0.231 8.5 3.34 10.31
5/27/2021 5:15:00 PM 17.53 63.554 0.23 8.47 3.17 10.22
5/27/2021 5:30:00 PM 17.38 63.284 0.231 8.47 17.68 10.11
5/27/2021 5:45:00 PM 17.2 62.96 0.231 8.41 3.17 9.94
5/27/2021 6:00:00 PM 17.03 62.654 0.23 8.35 3.11 9.77
5/27/2021 6:15:00 PM 16.93 62.474 0.231 8.29 3.23 9.68
5/27/2021 6:30:00 PM 16.82 62.276 0.231 8.24 3.11 9.56
5/27/2021 6:45:00 PM 16.7 62.06 0.23 8.19 3.02 9.44
5/27/2021 7:00:00 PM 16.62 61.916 0.229 8.13 3.04 9.36
5/27/2021 7:15:00 PM 16.57 61.826 0.231 8.13 3.19 9.3
5/27/2021 7:30:00 PM 16.48 61.664 0.231 8.1 3.33 9.2
5/27/2021 7:45:00 PM 16.36 61.448 0.231 8.05 3.23 9.09
5/27/2021 8:00:00 PM 16.27 61.286 0.231 8.02 4 8.99
5/27/2021 8:15:00 PM 16.16 61.088 0.232 7.99 3.91 8.9
5/27/2021 8:30:00 PM 16.05 60.89 0.232 7.96 3.62 8.82
5/27/2021 8:45:00 PM 15.94 60.692 0.232 7.93 3.48 8.73
5/27/2021 9:00:00 PM 15.82 60.476 0.232 7.9 3.51 8.65
5/27/2021 9:15:00 PM 15.71 60.278 0.232 7.87 3.53 8.59
5/27/2021 9:30:00 PM 15.58 60.044 0.232 7.84 3.57 8.52
5/27/2021 9:45:00 PM 15.46 59.828 0.232 7.82 3.44 8.48
5/27/2021 10:00:00 PM 15.34 59.612 0.232 7.8 3.51 8.45
5/27/2021 10:15:00 PM 15.22 59.396 0.232 7.78 3.78 8.41
5/27/2021 10:30:00 PM 15.1 59.18 0.232 7.76 3.96 8.4
5/27/2021 10:45:00 PM 14.98 58.964 0.232 7.75 3.69 8.39
5/27/2021 11:00:00 PM 14.86 58.748 0.232 7.74 3.5 8.38
5/27/2021 11:15:00 PM 14.74 58.532 0.232 7.73 3.62 8.39
5/27/2021 11:30:00 PM 14.63 58.334 0.232 7.72 3.86 8.39
5/27/2021 11:45:00 PM 14.5 58.1 0.232 7.71 3.6 8.4
5/28/2021 12:00:00 AM 14.36 57.848 0.232 7.7 3.47 8.4
5/28/2021 12:15:00 AM 14.26 57.668 0.232 7.69 3.42 8.41
5/28/2021 12:30:00 AM 14.13 57.434 0.232 7.69 3.49 8.43
5/28/2021 12:45:00 AM 14.02 57.236 0.232 7.68 3.75 8.44
5/28/2021 1:00:00 AM 13.93 57.074 0.232 7.67 4.5 8.46
5/28/2021 1:15:00 AM 13.84 56.912 0.232 7.67 4.15 8.45
5/28/2021 1:30:00 AM 13.76 56.768 0.232 7.66 4.69 8.45
5/28/2021 1:45:00 AM 13.67 56.606 0.232 7.66 5.04 8.46
5/28/2021 2:00:00 AM 13.58 56.444 0.231 7.65 4.76 8.44
5/28/2021 2:15:00 AM 13.51 56.318 0.232 7.64 4.92 8.46
5/28/2021 2:30:00 AM 13.43 56.174 0.232 7.64 3.73 8.46
5/28/2021 2:45:00 AM 13.35 56.03 0.232 7.63 3.87 8.47
5/28/2021 3:00:00 AM 13.27 55.886 0.231 7.62 4.71 8.45
5/28/2021 3:15:00 AM 13.2 55.76 0.231 7.62 4.29 8.46
5/28/2021 3:30:00 AM 13.14 55.652 0.231 7.62 5.03 8.48
5/28/2021 3:45:00 AM 13.07 55.526 0.231 7.61 6.68 8.47
5/28/2021 4:00:00 AM 13.01 55.418 0.231 7.61 4.94 8.49
5/28/2021 4:15:00 AM 12.94 55.292 0.231 7.61 5.04 8.49
5/28/2021 4:30:00 AM 12.89 55.202 0.231 7.6 4.72 8.51
5/28/2021 4:45:00 AM 12.84 55.112 0.231 7.6 4.54 8.51
5/28/2021 5:00:00 AM 12.77 54.986 0.23 7.59 4.76 8.48
5/28/2021 5:15:00 AM 12.7 54.86 0.23 7.58 4.33 8.49
5/28/2021 5:30:00 AM 12.64 54.752 0.229 7.57 4.34 8.49
5/28/2021 5:45:00 AM 12.59 54.662 0.229 7.57 4.46 8.47
5/28/2021 6:00:00 AM 12.56 54.608 0.229 7.57 4.56 8.49
5/28/2021 6:15:00 AM 12.5 54.5 0.228 7.56 5.01 8.47
5/28/2021 6:30:00 AM 12.43 54.374 0.228 7.54 3.43 8.41
5/28/2021 6:45:00 AM 12.42 54.356 0.228 7.55 5.68 8.46
5/28/2021 7:00:00 AM 12.39 54.302 0.228 7.55 3.37 8.54
5/28/2021 7:15:00 AM 12.38 54.284 0.228 7.55 4.34 8.53
5/28/2021 7:30:00 AM 12.37 54.266 0.228 7.57 3.3 8.76
5/28/2021 7:45:00 AM 12.34 54.212 0.229 7.59 3.43 8.78
5/28/2021 8:00:00 AM 12.31 54.158 0.228 7.61 3.42 8.87
5/28/2021 8:15:00 AM 12.29 54.122 0.229 7.6 3.74 8.9
5/28/2021 8:30:00 AM 12.29 54.122 0.229 7.6 3.65 8.94
5/28/2021 8:45:00 AM 12.26 54.068 0.228 7.6 2.95 8.81
5/28/2021 9:00:00 AM 12.25 54.05 0.228 7.59 3.91 8.92
5/28/2021 9:15:00 AM 12.24 54.032 0.227 7.58 3.54 8.92
5/28/2021 9:30:00 AM 12.24 54.032 0.227 7.59 2.99 8.88
5/28/2021 9:45:00 AM 12.24 54.032 0.226 7.57 2.94 8.85
5/28/2021 10:00:00 AM 12.23 54.014 0.225 7.57 3.09 8.95
5/28/2021 10:15:00 AM 12.17 53.906 0.222 7.56 3